<?xml version='1.0' encoding='UTF-8'?><gpx version="1.1" creator="JPX - https://github.com/jenetics/jpx" xmlns="http://www.topografix.com/GPX/1/1"><trk><trkseg><trkpt lat="41.06444555697146" lon="14.855175000546442"><ele>387.0</ele><time>2026-03-25T11:14:16Z</time></trkpt><trkpt lat="41.06451270852618" lon="14.85517035907971"><ele>387.0</ele><time>2026-03-25T11:14:18Z</time></trkpt><trkpt lat="41.064586466129114" lon="14.855201918567962"><ele>387.0</ele><time>2026-03-25T11:14:20Z</time></trkpt><trkpt lat="41.06467231663931" lon="14.855214017990399"><ele>387.0</ele><time>2026-03-25T11:14:22Z</time></trkpt><trkpt lat="41.06474965862686" lon="14.855231071762969"><ele>387.0</ele><time>2026-03-25T11:14:24Z</time></trkpt><trkpt lat="41.06481095451514" lon="14.855256915960888"><ele>387.0</ele><time>2026-03-25T11:14:26Z</time></trkpt><trkpt lat="41.06489640983417" lon="14.855284668120902"><ele>386.8</ele><time>2026-03-25T11:14:28Z</time></trkpt><trkpt lat="41.06502123691457" lon="14.855297103161663"><ele>386.6</ele><time>2026-03-25T11:14:30Z</time></trkpt><trkpt lat="41.06511244914991" lon="14.855315821784066"><ele>386.40000000000003</ele><time>2026-03-25T11:14:32Z</time></trkpt><trkpt lat="41.065204270855524" lon="14.855327376371765"><ele>386.20000000000005</ele><time>2026-03-25T11:14:34Z</time></trkpt><trkpt lat="41.06530118177052" lon="14.855355686777683"><ele>386.0</ele><time>2026-03-25T11:14:36Z</time></trkpt><trkpt lat="41.06540659516994" lon="14.855351630251887"><ele>386.0</ele><time>2026-03-25T11:14:38Z</time></trkpt><trkpt lat="41.06551196705958" lon="14.855418069242683"><ele>386.0</ele><time>2026-03-25T11:14:40Z</time></trkpt><trkpt lat="41.065610065966574" lon="14.855433148984474"><ele>386.0</ele><time>2026-03-25T11:14:42Z</time></trkpt><trkpt lat="41.06571639254921" lon="14.855443170134247"><ele>386.0</ele><time>2026-03-25T11:14:44Z</time></trkpt><trkpt lat="41.065781112910145" lon="14.855463685680638"><ele>386.0</ele><time>2026-03-25T11:14:45Z</time></trkpt><trkpt lat="41.06587664575568" lon="14.855491497465598"><ele>385.8</ele><time>2026-03-25T11:14:47Z</time></trkpt><trkpt lat="41.06596259883878" lon="14.85552287713535"><ele>385.6</ele><time>2026-03-25T11:14:49Z</time></trkpt><trkpt lat="41.06604087014671" lon="14.85548281504216"><ele>385.4</ele><time>2026-03-25T11:14:50Z</time></trkpt><trkpt lat="41.066217871382435" lon="14.855542368097703"><ele>385.2</ele><time>2026-03-25T11:14:53Z</time></trkpt><trkpt lat="41.06628315599284" lon="14.855536439259817"><ele>385.0</ele><time>2026-03-25T11:14:54Z</time></trkpt><trkpt lat="41.066381532591485" lon="14.855496903201884"><ele>385.0</ele><time>2026-03-25T11:14:56Z</time></trkpt><trkpt lat="41.06649034693606" lon="14.855474946584314"><ele>385.0</ele><time>2026-03-25T11:14:58Z</time></trkpt><trkpt lat="41.06660895129201" lon="14.855447792277653"><ele>385.0</ele><time>2026-03-25T11:15:00Z</time></trkpt><trkpt lat="41.06668501535965" lon="14.855442409896872"><ele>385.0</ele><time>2026-03-25T11:15:01Z</time></trkpt><trkpt lat="41.06677824281151" lon="14.855395290763772"><ele>385.0</ele><time>2026-03-25T11:15:02.999Z</time></trkpt><trkpt lat="41.06687204183826" lon="14.855345772709951"><ele>384.8</ele><time>2026-03-25T11:15:04.999Z</time></trkpt><trkpt lat="41.06698561565501" lon="14.855340528586465"><ele>384.6</ele><time>2026-03-25T11:15:06.999Z</time></trkpt><trkpt lat="41.067093152922055" lon="14.855338873307966"><ele>384.4</ele><time>2026-03-25T11:15:08.999Z</time></trkpt><trkpt lat="41.067185738193714" lon="14.85530175761851"><ele>384.2</ele><time>2026-03-25T11:15:10.999Z</time></trkpt><trkpt lat="41.067286731317985" lon="14.855300027564883"><ele>384.0</ele><time>2026-03-25T11:15:12.999Z</time></trkpt><trkpt lat="41.06739394564614" lon="14.855347255608654"><ele>383.4</ele><time>2026-03-25T11:15:14.999Z</time></trkpt><trkpt lat="41.067483621208694" lon="14.855372094590864"><ele>382.79999999999995</ele><time>2026-03-25T11:15:16.999Z</time></trkpt><trkpt lat="41.067594277887906" lon="14.855331837970542"><ele>382.20000000000005</ele><time>2026-03-25T11:15:18.999Z</time></trkpt><trkpt lat="41.06766784537545" lon="14.85521318896787"><ele>381.6</ele><time>2026-03-25T11:15:20.999Z</time></trkpt><trkpt lat="41.067709161641844" lon="14.855081888071508"><ele>381.0</ele><time>2026-03-25T11:15:22.999Z</time></trkpt><trkpt lat="41.06771285373704" lon="14.854946490861707"><ele>381.0</ele><time>2026-03-25T11:15:24.999Z</time></trkpt><trkpt lat="41.067640475858774" lon="14.854834799041885"><ele>381.0</ele><time>2026-03-25T11:15:26.999Z</time></trkpt><trkpt lat="41.06755106076245" lon="14.85478698120978"><ele>381.0</ele><time>2026-03-25T11:15:28.999Z</time></trkpt><trkpt lat="41.06748010204936" lon="14.854719783842132"><ele>381.0</ele><time>2026-03-25T11:15:30.999Z</time></trkpt><trkpt lat="41.06746037282394" lon="14.854608505182377"><ele>381.0</ele><time>2026-03-25T11:15:32.999Z</time></trkpt><trkpt lat="41.06743784842868" lon="14.854514877799545"><ele>381.5</ele><time>2026-03-25T11:15:34.999Z</time></trkpt><trkpt lat="41.067404018043305" lon="14.854391346651607"><ele>382.0</ele><time>2026-03-25T11:15:37.999Z</time></trkpt><trkpt lat="41.06738031238812" lon="14.854307796048912"><ele>382.5</ele><time>2026-03-25T11:15:39.999Z</time></trkpt><trkpt lat="41.0673571323101" lon="14.854224287667344"><ele>383.0</ele><time>2026-03-25T11:15:41.999Z</time></trkpt><trkpt lat="41.06732847521256" lon="14.854111000056605"><ele>383.5</ele><time>2026-03-25T11:15:44.999Z</time></trkpt><trkpt lat="41.06730335943691" lon="14.854031498098298"><ele>384.0</ele><time>2026-03-25T11:15:46.999Z</time></trkpt><trkpt lat="41.06727632189051" lon="14.853950723244633"><ele>384.4285714285714</ele><time>2026-03-25T11:15:48.999Z</time></trkpt><trkpt lat="41.067249479087714" lon="14.853870311925725"><ele>384.85714285714283</ele><time>2026-03-25T11:15:51Z</time></trkpt><trkpt lat="41.067225898075066" lon="14.853784404894085"><ele>385.2857142857143</ele><time>2026-03-25T11:15:53Z</time></trkpt><trkpt lat="41.0671935234329" lon="14.853699505133099"><ele>385.71428571428567</ele><time>2026-03-25T11:15:55Z</time></trkpt><trkpt lat="41.067193415711635" lon="14.853576552004215"><ele>386.14285714285717</ele><time>2026-03-25T11:15:58Z</time></trkpt><trkpt lat="41.067139003521476" lon="14.853511430062357"><ele>386.57142857142856</ele><time>2026-03-25T11:16:00Z</time></trkpt><trkpt lat="41.067108564473926" lon="14.853426221213853"><ele>387.0</ele><time>2026-03-25T11:16:03Z</time></trkpt><trkpt lat="41.067068993527386" lon="14.853338814509057"><ele>387.1666666666667</ele><time>2026-03-25T11:16:05Z</time></trkpt><trkpt lat="41.06705146144979" lon="14.853223605343944"><ele>387.33333333333337</ele><time>2026-03-25T11:16:08Z</time></trkpt><trkpt lat="41.06702672461125" lon="14.853127945548835"><ele>387.5</ele><time>2026-03-25T11:16:10Z</time></trkpt><trkpt lat="41.067010768120255" lon="14.853044463372852"><ele>387.6666666666667</ele><time>2026-03-25T11:16:12Z</time></trkpt><trkpt lat="41.06697854250164" lon="14.852930656992715"><ele>387.83333333333337</ele><time>2026-03-25T11:16:15Z</time></trkpt><trkpt lat="41.06694412672282" lon="14.85281999513553"><ele>388.0</ele><time>2026-03-25T11:16:17Z</time></trkpt><trkpt lat="41.06691450508888" lon="14.852741533579461"><ele>388.0</ele><time>2026-03-25T11:16:19Z</time></trkpt><trkpt lat="41.066875927167544" lon="14.852641392999715"><ele>388.0</ele><time>2026-03-25T11:16:21Z</time></trkpt><trkpt lat="41.06687011032553" lon="14.852518495859714"><ele>388.0</ele><time>2026-03-25T11:16:23Z</time></trkpt><trkpt lat="41.06684016360056" lon="14.852383008327644"><ele>388.0</ele><time>2026-03-25T11:16:25Z</time></trkpt><trkpt lat="41.06680466115036" lon="14.852260083584468"><ele>388.0</ele><time>2026-03-25T11:16:27Z</time></trkpt><trkpt lat="41.066760845822245" lon="14.852124044071926"><ele>387.79999999999995</ele><time>2026-03-25T11:16:29Z</time></trkpt><trkpt lat="41.06672568136007" lon="14.852041325604759"><ele>387.6</ele><time>2026-03-25T11:16:30Z</time></trkpt><trkpt lat="41.06668183630005" lon="14.851884825541942"><ele>387.4</ele><time>2026-03-25T11:16:32Z</time></trkpt><trkpt lat="41.066658252317055" lon="14.851707980888543"><ele>387.20000000000005</ele><time>2026-03-25T11:16:34Z</time></trkpt><trkpt lat="41.06661056621566" lon="14.851588453730697"><ele>387.0</ele><time>2026-03-25T11:16:36Z</time></trkpt><trkpt lat="41.066591747611355" lon="14.85149618529523"><ele>386.8333333333333</ele><time>2026-03-25T11:16:38Z</time></trkpt><trkpt lat="41.06657874675811" lon="14.851410441707312"><ele>386.66666666666663</ele><time>2026-03-25T11:16:39Z</time></trkpt><trkpt lat="41.066656001590346" lon="14.851339113284373"><ele>386.5</ele><time>2026-03-25T11:16:42Z</time></trkpt><trkpt lat="41.066742576625046" lon="14.851313971247555"><ele>386.3333333333333</ele><time>2026-03-25T11:16:44Z</time></trkpt><trkpt lat="41.06681154450186" lon="14.851278404241139"><ele>386.16666666666663</ele><time>2026-03-25T11:16:46Z</time></trkpt><trkpt lat="41.066893327316926" lon="14.851244079234007"><ele>386.0</ele><time>2026-03-25T11:16:48Z</time></trkpt><trkpt lat="41.06697202129832" lon="14.851200109621088"><ele>386.0</ele><time>2026-03-25T11:16:50Z</time></trkpt><trkpt lat="41.067058349514845" lon="14.851150522028009"><ele>386.0</ele><time>2026-03-25T11:16:52Z</time></trkpt><trkpt lat="41.06714773954879" lon="14.85112087510547"><ele>386.0</ele><time>2026-03-25T11:16:54Z</time></trkpt><trkpt lat="41.06723814828815" lon="14.851088709143793"><ele>386.0</ele><time>2026-03-25T11:16:56Z</time></trkpt><trkpt lat="41.067324038164365" lon="14.851023715925676"><ele>386.0</ele><time>2026-03-25T11:16:57.999Z</time></trkpt><trkpt lat="41.06741868995496" lon="14.85097816536278"><ele>384.4</ele><time>2026-03-25T11:16:59.999Z</time></trkpt><trkpt lat="41.06751264852088" lon="14.850916769524641"><ele>382.8</ele><time>2026-03-25T11:17:01.999Z</time></trkpt><trkpt lat="41.0676012052484" lon="14.850857154511594"><ele>381.2</ele><time>2026-03-25T11:17:03.999Z</time></trkpt><trkpt lat="41.06769863993339" lon="14.85079762930414"><ele>379.59999999999997</ele><time>2026-03-25T11:17:05.999Z</time></trkpt><trkpt lat="41.0677997953334" lon="14.850759246100607"><ele>378.0</ele><time>2026-03-25T11:17:07.999Z</time></trkpt><trkpt lat="41.067901954560114" lon="14.850715724188674"><ele>378.0</ele><time>2026-03-25T11:17:09.999Z</time></trkpt><trkpt lat="41.06799600766744" lon="14.850668398778302"><ele>378.0</ele><time>2026-03-25T11:17:11.999Z</time></trkpt><trkpt lat="41.06809392681546" lon="14.850684019250323"><ele>378.0</ele><time>2026-03-25T11:17:13.999Z</time></trkpt><trkpt lat="41.0681820382923" lon="14.850742359979785"><ele>378.0</ele><time>2026-03-25T11:17:15.999Z</time></trkpt><trkpt lat="41.0682512966977" lon="14.8508229120858"><ele>378.0</ele><time>2026-03-25T11:17:17.999Z</time></trkpt><trkpt lat="41.068315039584824" lon="14.850908438629963"><ele>378.6666666666667</ele><time>2026-03-25T11:17:19.999Z</time></trkpt><trkpt lat="41.06838189714794" lon="14.85099318914203"><ele>379.3333333333333</ele><time>2026-03-25T11:17:21.999Z</time></trkpt><trkpt lat="41.06843686295621" lon="14.851064614061716"><ele>380.0</ele><time>2026-03-25T11:17:23.999Z</time></trkpt><trkpt lat="41.068495949054146" lon="14.851143046739137"><ele>380.66666666666663</ele><time>2026-03-25T11:17:25.999Z</time></trkpt><trkpt lat="41.06855868603339" lon="14.8512265335477"><ele>381.3333333333333</ele><time>2026-03-25T11:17:27.999Z</time></trkpt><trkpt lat="41.06861012292114" lon="14.851296780081993"><ele>382.0</ele><time>2026-03-25T11:17:29.999Z</time></trkpt><trkpt lat="41.068669285215464" lon="14.851372426241582"><ele>382.0</ele><time>2026-03-25T11:17:31.999Z</time></trkpt><trkpt lat="41.06873133824601" lon="14.851443839244286"><ele>382.0</ele><time>2026-03-25T11:17:33.999Z</time></trkpt><trkpt lat="41.06881940557527" lon="14.85140783110937"><ele>382.0</ele><time>2026-03-25T11:17:36.999Z</time></trkpt><trkpt lat="41.06887597010896" lon="14.851353305463673"><ele>382.0</ele><time>2026-03-25T11:17:38.999Z</time></trkpt><trkpt lat="41.06893297919216" lon="14.851276675481438"><ele>382.0</ele><time>2026-03-25T11:17:40.999Z</time></trkpt><trkpt lat="41.06900656536745" lon="14.851223674315317"><ele>382.0</ele><time>2026-03-25T11:17:42.999Z</time></trkpt><trkpt lat="41.069088787777176" lon="14.851162382940263"><ele>381.40000000000003</ele><time>2026-03-25T11:17:44.999Z</time></trkpt><trkpt lat="41.06917852360891" lon="14.851098631956196"><ele>380.8</ele><time>2026-03-25T11:17:46.999Z</time></trkpt><trkpt lat="41.06927300397937" lon="14.851041063831842"><ele>380.2</ele><time>2026-03-25T11:17:48.999Z</time></trkpt><trkpt lat="41.06936993688815" lon="14.850995946032395"><ele>379.6</ele><time>2026-03-25T11:17:50.999Z</time></trkpt><trkpt lat="41.069438259070864" lon="14.850896747494224"><ele>379.0</ele><time>2026-03-25T11:17:52.999Z</time></trkpt><trkpt lat="41.06949821807125" lon="14.8508674101419"><ele>379.0</ele><time>2026-03-25T11:17:53.999Z</time></trkpt><trkpt lat="41.069599746409985" lon="14.850819332845317"><ele>379.0</ele><time>2026-03-25T11:17:55.999Z</time></trkpt><trkpt lat="41.06968070577733" lon="14.85077417945199"><ele>379.0</ele><time>2026-03-25T11:17:58Z</time></trkpt><trkpt lat="41.06973570757882" lon="14.850730083355643"><ele>379.0</ele><time>2026-03-25T11:18:01Z</time></trkpt><trkpt lat="41.06979586382741" lon="14.850693607328548"><ele>379.0</ele><time>2026-03-25T11:18:02Z</time></trkpt><trkpt lat="41.06975888862161" lon="14.850594291174056"><ele>379.0</ele><time>2026-03-25T11:18:03Z</time></trkpt><trkpt lat="41.069732029015995" lon="14.850515748151368"><ele>379.0</ele><time>2026-03-25T11:18:05Z</time></trkpt><trkpt lat="41.06971299231174" lon="14.850410519663964"><ele>379.0</ele><time>2026-03-25T11:18:07Z</time></trkpt><trkpt lat="41.06966335802727" lon="14.850308799455762"><ele>379.0</ele><time>2026-03-25T11:18:10Z</time></trkpt><trkpt lat="41.06961537588971" lon="14.850245505165685"><ele>379.0</ele><time>2026-03-25T11:18:12Z</time></trkpt><trkpt lat="41.069557451156584" lon="14.8501616154939"><ele>379.0</ele><time>2026-03-25T11:18:14Z</time></trkpt><trkpt lat="41.06952945604983" lon="14.850067006601728"><ele>379.0</ele><time>2026-03-25T11:18:16Z</time></trkpt><trkpt lat="41.06949962580642" lon="14.84995075649748"><ele>378.5</ele><time>2026-03-25T11:18:18Z</time></trkpt><trkpt lat="41.069450632834915" lon="14.849871868707744"><ele>378.0</ele><time>2026-03-25T11:18:20Z</time></trkpt><trkpt lat="41.069372856494155" lon="14.849865385839328"><ele>377.5</ele><time>2026-03-25T11:18:22Z</time></trkpt><trkpt lat="41.06928883252004" lon="14.849914995566145"><ele>377.0</ele><time>2026-03-25T11:18:24Z</time></trkpt><trkpt lat="41.06922620517917" lon="14.849972471576379"><ele>376.5</ele><time>2026-03-25T11:18:26Z</time></trkpt><trkpt lat="41.06916308193623" lon="14.84999256622498"><ele>376.0</ele><time>2026-03-25T11:18:28Z</time></trkpt><trkpt lat="41.06909638809547" lon="14.850055345203245"><ele>375.5</ele><time>2026-03-25T11:18:30Z</time></trkpt><trkpt lat="41.06901695709493" lon="14.850084809839958"><ele>375.0</ele><time>2026-03-25T11:18:32Z</time></trkpt><trkpt lat="41.06894946628793" lon="14.850101919766715"><ele>374.5</ele><time>2026-03-25T11:18:34Z</time></trkpt><trkpt lat="41.06888945477653" lon="14.850199545358414"><ele>374.0</ele><time>2026-03-25T11:18:36Z</time></trkpt><trkpt lat="41.06879880591413" lon="14.85022671670273"><ele>373.5</ele><time>2026-03-25T11:18:38Z</time></trkpt><trkpt lat="41.06870828513869" lon="14.8502830182807"><ele>373.0</ele><time>2026-03-25T11:18:41Z</time></trkpt><trkpt lat="41.068644135301064" lon="14.85032832370185"><ele>373.8333333333333</ele><time>2026-03-25T11:18:43Z</time></trkpt><trkpt lat="41.06857519032168" lon="14.850383839803472"><ele>374.66666666666663</ele><time>2026-03-25T11:18:45Z</time></trkpt><trkpt lat="41.06850706486051" lon="14.850412716635752"><ele>375.5</ele><time>2026-03-25T11:18:47Z</time></trkpt><trkpt lat="41.0684444084278" lon="14.850460878607265"><ele>376.3333333333333</ele><time>2026-03-25T11:18:49Z</time></trkpt><trkpt lat="41.06837626994498" lon="14.850501713423839"><ele>377.1666666666667</ele><time>2026-03-25T11:18:51Z</time></trkpt><trkpt lat="41.068296646428934" lon="14.850520189288364"><ele>378.0</ele><time>2026-03-25T11:18:53Z</time></trkpt><trkpt lat="41.06821325904173" lon="14.850552070276988"><ele>378.0</ele><time>2026-03-25T11:18:55Z</time></trkpt><trkpt lat="41.06815411972522" lon="14.850606769138317"><ele>378.0</ele><time>2026-03-25T11:18:57Z</time></trkpt><trkpt lat="41.068100818589045" lon="14.850666253873737"><ele>378.0</ele><time>2026-03-25T11:18:59Z</time></trkpt><trkpt lat="41.06803003392475" lon="14.850664896331926"><ele>378.0</ele><time>2026-03-25T11:19:01Z</time></trkpt><trkpt lat="41.06795622182848" lon="14.850644258571027"><ele>378.0</ele><time>2026-03-25T11:19:03Z</time></trkpt><trkpt lat="41.067880034501115" lon="14.850664961075898"><ele>378.0</ele><time>2026-03-25T11:19:05Z</time></trkpt><trkpt lat="41.06780956036509" lon="14.850684702832034"><ele>378.0</ele><time>2026-03-25T11:19:07Z</time></trkpt><trkpt lat="41.067728189507235" lon="14.850737120001247"><ele>378.0</ele><time>2026-03-25T11:19:09Z</time></trkpt><trkpt lat="41.06765126979787" lon="14.8507823575873"><ele>378.0</ele><time>2026-03-25T11:19:11Z</time></trkpt><trkpt lat="41.067569573927486" lon="14.850826433944048"><ele>378.0</ele><time>2026-03-25T11:19:13Z</time></trkpt><trkpt lat="41.06749110436749" lon="14.85086421224867"><ele>378.0</ele><time>2026-03-25T11:19:15Z</time></trkpt><trkpt lat="41.06741106254142" lon="14.850908030144442"><ele>378.0</ele><time>2026-03-25T11:19:16.999Z</time></trkpt><trkpt lat="41.067333556146735" lon="14.850948791215723"><ele>378.0</ele><time>2026-03-25T11:19:18.999Z</time></trkpt><trkpt lat="41.067259961620934" lon="14.850989045541116"><ele>379.3333333333333</ele><time>2026-03-25T11:19:20.999Z</time></trkpt><trkpt lat="41.06718768351931" lon="14.85102515727209"><ele>380.66666666666663</ele><time>2026-03-25T11:19:22.999Z</time></trkpt><trkpt lat="41.06711404716038" lon="14.851059060072417"><ele>382.0</ele><time>2026-03-25T11:19:24.999Z</time></trkpt><trkpt lat="41.06703774553114" lon="14.851098705272017"><ele>383.3333333333333</ele><time>2026-03-25T11:19:26.999Z</time></trkpt><trkpt lat="41.06696945575839" lon="14.85112932169574"><ele>384.66666666666663</ele><time>2026-03-25T11:19:28.999Z</time></trkpt><trkpt lat="41.06689305212617" lon="14.85117024316345"><ele>386.0</ele><time>2026-03-25T11:19:30.999Z</time></trkpt><trkpt lat="41.06681700158732" lon="14.85121855484832"><ele>385.99999999999994</ele><time>2026-03-25T11:19:32.999Z</time></trkpt><trkpt lat="41.066744167696264" lon="14.851259950737193"><ele>386.0</ele><time>2026-03-25T11:19:34.999Z</time></trkpt><trkpt lat="41.06667006377057" lon="14.851288183022225"><ele>386.0</ele><time>2026-03-25T11:19:36.999Z</time></trkpt><trkpt lat="41.06659338917109" lon="14.851330542732345"><ele>386.0</ele><time>2026-03-25T11:19:38.999Z</time></trkpt><trkpt lat="41.06651699537077" lon="14.85137808542186"><ele>385.99999999999994</ele><time>2026-03-25T11:19:40.999Z</time></trkpt><trkpt lat="41.06642014353851" lon="14.851416135867538"><ele>386.0</ele><time>2026-03-25T11:19:43.999Z</time></trkpt><trkpt lat="41.06633712199969" lon="14.85144636538244"><ele>385.66666666666663</ele><time>2026-03-25T11:19:45.999Z</time></trkpt><trkpt lat="41.066264197853975" lon="14.85148743275487"><ele>385.3333333333333</ele><time>2026-03-25T11:19:47.999Z</time></trkpt><trkpt lat="41.0661909883513" lon="14.851527257015023"><ele>385.0</ele><time>2026-03-25T11:19:49.999Z</time></trkpt><trkpt lat="41.066120058504936" lon="14.851558410996773"><ele>384.66666666666663</ele><time>2026-03-25T11:19:51.999Z</time></trkpt><trkpt lat="41.06604841807671" lon="14.851605260594695"><ele>384.3333333333333</ele><time>2026-03-25T11:19:53.999Z</time></trkpt><trkpt lat="41.06597765422048" lon="14.851640481969563"><ele>384.0</ele><time>2026-03-25T11:19:55.999Z</time></trkpt><trkpt lat="41.06590311257489" lon="14.851691520160355"><ele>384.0</ele><time>2026-03-25T11:19:57.999Z</time></trkpt><trkpt lat="41.06582891533349" lon="14.851738599728048"><ele>384.0</ele><time>2026-03-25T11:19:59.999Z</time></trkpt><trkpt lat="41.06575505904434" lon="14.851785661812116"><ele>384.0</ele><time>2026-03-25T11:20:01.999Z</time></trkpt><trkpt lat="41.065681525697556" lon="14.851824775545792"><ele>384.0</ele><time>2026-03-25T11:20:04Z</time></trkpt><trkpt lat="41.065611817056784" lon="14.851856465023928"><ele>384.0</ele><time>2026-03-25T11:20:06Z</time></trkpt><trkpt lat="41.065537779983885" lon="14.851903784331869"><ele>384.0</ele><time>2026-03-25T11:20:08Z</time></trkpt><trkpt lat="41.065469429768946" lon="14.851948917741248"><ele>384.8333333333333</ele><time>2026-03-25T11:20:10Z</time></trkpt><trkpt lat="41.0653924930551" lon="14.851977995527255"><ele>385.66666666666663</ele><time>2026-03-25T11:20:12Z</time></trkpt><trkpt lat="41.06533046582207" lon="14.852012983506869"><ele>386.5</ele><time>2026-03-25T11:20:14Z</time></trkpt><trkpt lat="41.065263969128424" lon="14.852050287510604"><ele>387.3333333333333</ele><time>2026-03-25T11:20:16Z</time></trkpt><trkpt lat="41.06518384826451" lon="14.852082594658322"><ele>388.16666666666663</ele><time>2026-03-25T11:20:18Z</time></trkpt><trkpt lat="41.065116157449005" lon="14.852134496931239"><ele>389.0</ele><time>2026-03-25T11:20:20Z</time></trkpt><trkpt lat="41.06505004073255" lon="14.852188525631032"><ele>389.0</ele><time>2026-03-25T11:20:22Z</time></trkpt><trkpt lat="41.064989790149056" lon="14.852227861145527"><ele>389.0</ele><time>2026-03-25T11:20:24Z</time></trkpt><trkpt lat="41.064923499252664" lon="14.852246588588738"><ele>389.0</ele><time>2026-03-25T11:20:26Z</time></trkpt><trkpt lat="41.06485279237182" lon="14.852254393546733"><ele>389.0</ele><time>2026-03-25T11:20:28Z</time></trkpt><trkpt lat="41.06478757712144" lon="14.852288566386305"><ele>389.0</ele><time>2026-03-25T11:20:30Z</time></trkpt><trkpt lat="41.064705520233396" lon="14.852328320253424"><ele>389.0</ele><time>2026-03-25T11:20:33Z</time></trkpt><trkpt lat="41.06464946758992" lon="14.852370490407779"><ele>389.0</ele><time>2026-03-25T11:20:35Z</time></trkpt><trkpt lat="41.064572979063136" lon="14.852441998879568"><ele>389.14285714285717</ele><time>2026-03-25T11:20:38Z</time></trkpt><trkpt lat="41.06451162335252" lon="14.852465645016355"><ele>389.2857142857143</ele><time>2026-03-25T11:20:40Z</time></trkpt><trkpt lat="41.0644437290666" lon="14.852507174654951"><ele>389.42857142857144</ele><time>2026-03-25T11:20:42Z</time></trkpt><trkpt lat="41.06437130837493" lon="14.852544884831042"><ele>389.57142857142856</ele><time>2026-03-25T11:20:44Z</time></trkpt><trkpt lat="41.06430489335907" lon="14.852564983369845"><ele>389.71428571428567</ele><time>2026-03-25T11:20:46Z</time></trkpt><trkpt lat="41.06423497032623" lon="14.852599358801578"><ele>389.85714285714283</ele><time>2026-03-25T11:20:48Z</time></trkpt><trkpt lat="41.06417120126451" lon="14.852618895974738"><ele>390.0</ele><time>2026-03-25T11:20:50Z</time></trkpt><trkpt lat="41.06411115784021" lon="14.852593561786701"><ele>390.5</ele><time>2026-03-25T11:20:52Z</time></trkpt><trkpt lat="41.064089415145325" lon="14.85249345352629"><ele>391.0</ele><time>2026-03-25T11:20:54Z</time></trkpt><trkpt lat="41.064082037016775" lon="14.852367909929164"><ele>391.5</ele><time>2026-03-25T11:20:57Z</time></trkpt><trkpt lat="41.06405635961184" lon="14.85227871105018"><ele>392.0</ele><time>2026-03-25T11:20:59Z</time></trkpt><trkpt lat="41.06402840579007" lon="14.852192073035162"><ele>392.5</ele><time>2026-03-25T11:21:01Z</time></trkpt><trkpt lat="41.06399055385082" lon="14.85211295777809"><ele>393.0</ele><time>2026-03-25T11:21:03Z</time></trkpt><trkpt lat="41.06396762335751" lon="14.852029761672789"><ele>393.00000000000006</ele><time>2026-03-25T11:21:05Z</time></trkpt><trkpt lat="41.063974470953546" lon="14.851938888281103"><ele>393.0</ele><time>2026-03-25T11:21:07Z</time></trkpt><trkpt lat="41.06393712019357" lon="14.851846407641657"><ele>393.0</ele><time>2026-03-25T11:21:09Z</time></trkpt><trkpt lat="41.06391029094324" lon="14.851765186631434"><ele>393.0</ele><time>2026-03-25T11:21:11Z</time></trkpt><trkpt lat="41.063867256398744" lon="14.851657204228902"><ele>393.0</ele><time>2026-03-25T11:21:13.999Z</time></trkpt><trkpt lat="41.06384105110075" lon="14.851576082998193"><ele>393.00000000000006</ele><time>2026-03-25T11:21:15.999Z</time></trkpt><trkpt lat="41.06381335684939" lon="14.851500510539678"><ele>393.0</ele><time>2026-03-25T11:21:17.999Z</time></trkpt><trkpt lat="41.063782757500206" lon="14.851400397213606"><ele>393.1666666666667</ele><time>2026-03-25T11:21:20.999Z</time></trkpt><trkpt lat="41.06374959429603" lon="14.851287719969093"><ele>393.33333333333337</ele><time>2026-03-25T11:21:23.999Z</time></trkpt><trkpt lat="41.06372233318044" lon="14.85117831354693"><ele>393.5</ele><time>2026-03-25T11:21:26.999Z</time></trkpt><trkpt lat="41.0636912661141" lon="14.851090256881855"><ele>393.6666666666667</ele><time>2026-03-25T11:21:28.999Z</time></trkpt><trkpt lat="41.063669458326025" lon="14.85098840690926"><ele>393.83333333333337</ele><time>2026-03-25T11:21:31.999Z</time></trkpt><trkpt lat="41.06363859330821" lon="14.850875687635574"><ele>394.0</ele><time>2026-03-25T11:21:34.999Z</time></trkpt><trkpt lat="41.063603421468606" lon="14.8507695478361"><ele>394.1666666666667</ele><time>2026-03-25T11:21:37.999Z</time></trkpt><trkpt lat="41.06356914957441" lon="14.850659572191383"><ele>394.33333333333337</ele><time>2026-03-25T11:21:40.999Z</time></trkpt><trkpt lat="41.06354576681706" lon="14.850559193215776"><ele>394.5</ele><time>2026-03-25T11:21:43.999Z</time></trkpt><trkpt lat="41.06351329875818" lon="14.850477084262918"><ele>394.66666666666663</ele><time>2026-03-25T11:21:46.999Z</time></trkpt><trkpt lat="41.06349326611699" lon="14.850349087039284"><ele>394.8333333333333</ele><time>2026-03-25T11:21:49.999Z</time></trkpt><trkpt lat="41.06345658920705" lon="14.850258981034132"><ele>395.0</ele><time>2026-03-25T11:21:52.999Z</time></trkpt><trkpt lat="41.06341625131641" lon="14.850150001925915"><ele>394.99999999999994</ele><time>2026-03-25T11:21:55.999Z</time></trkpt><trkpt lat="41.0633728874618" lon="14.850070627032165"><ele>395.0</ele><time>2026-03-25T11:21:57.999Z</time></trkpt><trkpt lat="41.06335180937293" lon="14.849984557095484"><ele>395.0</ele><time>2026-03-25T11:21:59.999Z</time></trkpt><trkpt lat="41.063332803265034" lon="14.849894623557685"><ele>395.0</ele><time>2026-03-25T11:22:01.999Z</time></trkpt><trkpt lat="41.06330344574997" lon="14.849814221518233"><ele>394.99999999999994</ele><time>2026-03-25T11:22:03.999Z</time></trkpt><trkpt lat="41.0632614991444" lon="14.84972477781656"><ele>395.0</ele><time>2026-03-25T11:22:05.999Z</time></trkpt><trkpt lat="41.063200215435685" lon="14.849628944256455"><ele>396.4</ele><time>2026-03-25T11:22:07.999Z</time></trkpt><trkpt lat="41.06314445379881" lon="14.849550265223408"><ele>397.8</ele><time>2026-03-25T11:22:10Z</time></trkpt><trkpt lat="41.06307912057177" lon="14.849479029153997"><ele>399.20000000000005</ele><time>2026-03-25T11:22:12Z</time></trkpt><trkpt lat="41.06300671929818" lon="14.849410743334442"><ele>400.6</ele><time>2026-03-25T11:22:14Z</time></trkpt><trkpt lat="41.062922579944114" lon="14.849357102795263"><ele>402.0</ele><time>2026-03-25T11:22:16Z</time></trkpt><trkpt lat="41.06282568364541" lon="14.849307661480813"><ele>402.6</ele><time>2026-03-25T11:22:18Z</time></trkpt><trkpt lat="41.062729600860514" lon="14.849244364843955"><ele>403.20000000000005</ele><time>2026-03-25T11:22:20Z</time></trkpt><trkpt lat="41.06263319959198" lon="14.84920435153953"><ele>403.8</ele><time>2026-03-25T11:22:22Z</time></trkpt><trkpt lat="41.06255121892212" lon="14.849146473041204"><ele>404.4</ele><time>2026-03-25T11:22:24Z</time></trkpt><trkpt lat="41.06243707538611" lon="14.849098965199854"><ele>405.0</ele><time>2026-03-25T11:22:26Z</time></trkpt><trkpt lat="41.06240754090317" lon="14.849022762365713"><ele>405.0</ele><time>2026-03-25T11:22:27Z</time></trkpt><trkpt lat="41.06235438244387" lon="14.84893502154372"><ele>405.0</ele><time>2026-03-25T11:22:29Z</time></trkpt><trkpt lat="41.06231430808886" lon="14.848834977379237"><ele>405.0</ele><time>2026-03-25T11:22:31Z</time></trkpt><trkpt lat="41.06228626185339" lon="14.848717913805034"><ele>405.0</ele><time>2026-03-25T11:22:33Z</time></trkpt><trkpt lat="41.06228746127043" lon="14.84858874640452"><ele>405.0</ele><time>2026-03-25T11:22:35Z</time></trkpt><trkpt lat="41.06232387436906" lon="14.848483783329954"><ele>405.0</ele><time>2026-03-25T11:22:37Z</time></trkpt><trkpt lat="41.06236163649652" lon="14.848390147453285"><ele>403.8333333333333</ele><time>2026-03-25T11:22:39Z</time></trkpt><trkpt lat="41.06240540516245" lon="14.848299171357711"><ele>402.66666666666663</ele><time>2026-03-25T11:22:41Z</time></trkpt><trkpt lat="41.06246203233734" lon="14.848247210850875"><ele>401.5</ele><time>2026-03-25T11:22:43Z</time></trkpt><trkpt lat="41.062514056631784" lon="14.848194132791546"><ele>400.3333333333333</ele><time>2026-03-25T11:22:45Z</time></trkpt><trkpt lat="41.06258147731505" lon="14.848125099051886"><ele>399.16666666666663</ele><time>2026-03-25T11:22:48Z</time></trkpt><trkpt lat="41.062640286064045" lon="14.848039071950751"><ele>398.0</ele><time>2026-03-25T11:22:51Z</time></trkpt><trkpt lat="41.06269020312495" lon="14.847949167235345"><ele>397.4285714285714</ele><time>2026-03-25T11:22:54Z</time></trkpt><trkpt lat="41.062718550597694" lon="14.847874096576938"><ele>396.85714285714283</ele><time>2026-03-25T11:22:56Z</time></trkpt><trkpt lat="41.062760574787504" lon="14.84777676397096"><ele>396.2857142857143</ele><time>2026-03-25T11:23:00Z</time></trkpt><trkpt lat="41.06278610241338" lon="14.84769190036598"><ele>395.71428571428567</ele><time>2026-03-25T11:23:03Z</time></trkpt><trkpt lat="41.0628010289798" lon="14.84760006494649"><ele>395.14285714285717</ele><time>2026-03-25T11:23:06Z</time></trkpt><trkpt lat="41.06281391742979" lon="14.84751159166204"><ele>394.57142857142856</ele><time>2026-03-25T11:23:09Z</time></trkpt><trkpt lat="41.06282652568782" lon="14.847422520624603"><ele>394.0</ele><time>2026-03-25T11:23:12Z</time></trkpt><trkpt lat="41.062856216606576" lon="14.847347860424321"><ele>395.33333333333337</ele><time>2026-03-25T11:23:14.999Z</time></trkpt><trkpt lat="41.062895707469494" lon="14.847259570954046"><ele>396.6666666666667</ele><time>2026-03-25T11:23:17.999Z</time></trkpt><trkpt lat="41.062946558935565" lon="14.847196185028322"><ele>398.0</ele><time>2026-03-25T11:23:20.999Z</time></trkpt><trkpt lat="41.063007056579984" lon="14.847131653784457"><ele>399.33333333333337</ele><time>2026-03-25T11:23:24.999Z</time></trkpt><trkpt lat="41.06307635882527" lon="14.847086676429566"><ele>400.6666666666667</ele><time>2026-03-25T11:23:28.999Z</time></trkpt><trkpt lat="41.06315607336179" lon="14.847067500405315"><ele>402.0</ele><time>2026-03-25T11:23:32.999Z</time></trkpt><trkpt lat="41.06323242395896" lon="14.847090825077544"><ele>401.0</ele><time>2026-03-25T11:23:36.999Z</time></trkpt><trkpt lat="41.06329656834089" lon="14.847124644492618"><ele>400.0</ele><time>2026-03-25T11:23:39.999Z</time></trkpt><trkpt lat="41.063379833270375" lon="14.847152982161951"><ele>399.0</ele><time>2026-03-25T11:23:43.999Z</time></trkpt><trkpt lat="41.06346176946423" lon="14.847148802604078"><ele>398.0</ele><time>2026-03-25T11:23:47.999Z</time></trkpt><trkpt lat="41.06353210582549" lon="14.847136161507192"><ele>397.0</ele><time>2026-03-25T11:23:50.999Z</time></trkpt><trkpt lat="41.063595319312675" lon="14.847106162748124"><ele>396.0</ele><time>2026-03-25T11:23:53.999Z</time></trkpt><trkpt lat="41.06366504013499" lon="14.847079177501866"><ele>395.0</ele><time>2026-03-25T11:23:56.999Z</time></trkpt><trkpt lat="41.063727714820146" lon="14.84705058061942"><ele>395.0</ele><time>2026-03-25T11:23:59.999Z</time></trkpt><trkpt lat="41.06379343169727" lon="14.847013636355038"><ele>395.0</ele><time>2026-03-25T11:24:02.999Z</time></trkpt><trkpt lat="41.06385824742659" lon="14.846979521771408"><ele>395.0</ele><time>2026-03-25T11:24:05.999Z</time></trkpt><trkpt lat="41.063937578665225" lon="14.84695265314442"><ele>395.0</ele><time>2026-03-25T11:24:09.999Z</time></trkpt><trkpt lat="41.06400197745172" lon="14.846934819930716"><ele>395.0</ele><time>2026-03-25T11:24:12.999Z</time></trkpt><trkpt lat="41.06406596327691" lon="14.846903607970509"><ele>395.0</ele><time>2026-03-25T11:24:16Z</time></trkpt><trkpt lat="41.064122006406514" lon="14.846858118271436"><ele>395.0</ele><time>2026-03-25T11:24:19Z</time></trkpt><trkpt lat="41.06417226369068" lon="14.84678975544325"><ele>397.0</ele><time>2026-03-25T11:24:22Z</time></trkpt><trkpt lat="41.06420299145482" lon="14.846706610450669"><ele>399.0</ele><time>2026-03-25T11:24:25Z</time></trkpt><trkpt lat="41.06423757058289" lon="14.846609008631832"><ele>401.0</ele><time>2026-03-25T11:24:29Z</time></trkpt><trkpt lat="41.06424736201546" lon="14.846506643943933"><ele>403.0</ele><time>2026-03-25T11:24:33Z</time></trkpt><trkpt lat="41.06424940612017" lon="14.846420660160808"><ele>405.0</ele><time>2026-03-25T11:24:36Z</time></trkpt><trkpt lat="41.06425871479712" lon="14.846336894859164"><ele>407.0</ele><time>2026-03-25T11:24:39Z</time></trkpt><trkpt lat="41.06426856455391" lon="14.846234423042722"><ele>409.0</ele><time>2026-03-25T11:24:43Z</time></trkpt><trkpt lat="41.06426193441491" lon="14.846147063023498"><ele>409.0</ele><time>2026-03-25T11:24:46Z</time></trkpt><trkpt lat="41.064259811262936" lon="14.846036622752186"><ele>409.0</ele><time>2026-03-25T11:24:50Z</time></trkpt><trkpt lat="41.06425899880939" lon="14.845928569084519"><ele>409.0</ele><time>2026-03-25T11:24:54Z</time></trkpt><trkpt lat="41.06425325674549" lon="14.845840494764508"><ele>409.0</ele><time>2026-03-25T11:24:57Z</time></trkpt><trkpt lat="41.06424031956347" lon="14.845756925658545"><ele>409.0</ele><time>2026-03-25T11:25:00Z</time></trkpt><trkpt lat="41.06420547322292" lon="14.845679993681383"><ele>409.0</ele><time>2026-03-25T11:25:03Z</time></trkpt><trkpt lat="41.06415444057475" lon="14.845602240628141"><ele>409.0</ele><time>2026-03-25T11:25:06Z</time></trkpt><trkpt lat="41.06408552096052" lon="14.845537069648579"><ele>409.7142857142857</ele><time>2026-03-25T11:25:09Z</time></trkpt><trkpt lat="41.064023248840556" lon="14.845516410300936"><ele>410.42857142857144</ele><time>2026-03-25T11:25:12Z</time></trkpt><trkpt lat="41.0639522623896" lon="14.845487679680518"><ele>411.14285714285717</ele><time>2026-03-25T11:25:16Z</time></trkpt><trkpt lat="41.06387139167663" lon="14.84546399144411"><ele>411.8571428571429</ele><time>2026-03-25T11:25:19.999Z</time></trkpt><trkpt lat="41.0638110193741" lon="14.845430374213572"><ele>412.57142857142856</ele><time>2026-03-25T11:25:21.999Z</time></trkpt><trkpt lat="41.06373366310192" lon="14.845400812360884"><ele>413.28571428571433</ele><time>2026-03-25T11:25:24.999Z</time></trkpt><trkpt lat="41.063655568295076" lon="14.845378324305425"><ele>414.0</ele><time>2026-03-25T11:25:28.999Z</time></trkpt><trkpt lat="41.063578339131205" lon="14.845362213523881"><ele>414.0</ele><time>2026-03-25T11:25:31.999Z</time></trkpt><trkpt lat="41.063509774489994" lon="14.845348314263495"><ele>414.0</ele><time>2026-03-25T11:25:34.999Z</time></trkpt><trkpt lat="41.06344316238093" lon="14.845319598021556"><ele>414.0</ele><time>2026-03-25T11:25:37.999Z</time></trkpt><trkpt lat="41.06335475368594" lon="14.845306709799669"><ele>414.0</ele><time>2026-03-25T11:25:41.999Z</time></trkpt><trkpt lat="41.063287328426426" lon="14.845278824225748"><ele>414.0</ele><time>2026-03-25T11:25:44.999Z</time></trkpt><trkpt lat="41.06321504312239" lon="14.845226622534668"><ele>414.0</ele><time>2026-03-25T11:25:48.999Z</time></trkpt><trkpt lat="41.06315103829855" lon="14.845191550463843"><ele>414.42857142857144</ele><time>2026-03-25T11:25:51.999Z</time></trkpt><trkpt lat="41.063088095749" lon="14.845168900306852"><ele>414.8571428571429</ele><time>2026-03-25T11:25:54.999Z</time></trkpt><trkpt lat="41.06303605306933" lon="14.845116063066742"><ele>415.28571428571433</ele><time>2026-03-25T11:25:57.999Z</time></trkpt><trkpt lat="41.06297162550112" lon="14.84509565576899"><ele>415.7142857142857</ele><time>2026-03-25T11:26:00.999Z</time></trkpt><trkpt lat="41.062911384572885" lon="14.845066423459883"><ele>416.1428571428571</ele><time>2026-03-25T11:26:03.999Z</time></trkpt><trkpt lat="41.06284869632477" lon="14.845014964971156"><ele>416.5714285714286</ele><time>2026-03-25T11:26:07.999Z</time></trkpt><trkpt lat="41.062788462960285" lon="14.844969678276984"><ele>417.0</ele><time>2026-03-25T11:26:10.999Z</time></trkpt><trkpt lat="41.06271902853307" lon="14.844927875760439"><ele>417.5</ele><time>2026-03-25T11:26:14.999Z</time></trkpt><trkpt lat="41.06266737722798" lon="14.844871208520223"><ele>418.0</ele><time>2026-03-25T11:26:17.999Z</time></trkpt><trkpt lat="41.062586081008504" lon="14.84485212476731"><ele>418.5</ele><time>2026-03-25T11:26:21Z</time></trkpt><trkpt lat="41.06250933204197" lon="14.844846877458036"><ele>419.0</ele><time>2026-03-25T11:26:24Z</time></trkpt><trkpt lat="41.06243431133844" lon="14.8448435163374"><ele>419.5</ele><time>2026-03-25T11:26:27Z</time></trkpt><trkpt lat="41.06235882268956" lon="14.84483773550807"><ele>420.0</ele><time>2026-03-25T11:26:30Z</time></trkpt><trkpt lat="41.06228014175691" lon="14.844814682038821"><ele>420.7142857142857</ele><time>2026-03-25T11:26:35Z</time></trkpt><trkpt lat="41.06220422788233" lon="14.844804249660175"><ele>421.42857142857144</ele><time>2026-03-25T11:26:39Z</time></trkpt><trkpt lat="41.06213460523529" lon="14.844764306045636"><ele>422.1428571428571</ele><time>2026-03-25T11:26:43Z</time></trkpt><trkpt lat="41.06206225200675" lon="14.844714843098465"><ele>422.8571428571429</ele><time>2026-03-25T11:26:47Z</time></trkpt><trkpt lat="41.06199484823584" lon="14.844696719666677"><ele>423.57142857142856</ele><time>2026-03-25T11:26:50Z</time></trkpt><trkpt lat="41.06192287200493" lon="14.844697847477105"><ele>424.2857142857143</ele><time>2026-03-25T11:26:53Z</time></trkpt><trkpt lat="41.06185995952878" lon="14.844672085385005"><ele>425.0</ele><time>2026-03-25T11:26:56Z</time></trkpt><trkpt lat="41.061801390632674" lon="14.844633086537964"><ele>424.99999999999994</ele><time>2026-03-25T11:26:59Z</time></trkpt><trkpt lat="41.061722520327635" lon="14.844594850563857"><ele>425.0</ele><time>2026-03-25T11:27:03Z</time></trkpt><trkpt lat="41.06164486512711" lon="14.844554538660265"><ele>425.0</ele><time>2026-03-25T11:27:07Z</time></trkpt><trkpt lat="41.061574211634046" lon="14.844502441340474"><ele>425.0</ele><time>2026-03-25T11:27:11Z</time></trkpt><trkpt lat="41.06150194934745" lon="14.844447735037551"><ele>424.99999999999994</ele><time>2026-03-25T11:27:15Z</time></trkpt><trkpt lat="41.06144121569615" lon="14.844412366287298"><ele>425.0</ele><time>2026-03-25T11:27:17.999Z</time></trkpt><trkpt lat="41.06136728483818" lon="14.844356001896221"><ele>425.49999999999994</ele><time>2026-03-25T11:27:20.999Z</time></trkpt><trkpt lat="41.06130201983724" lon="14.844303179830007"><ele>426.0</ele><time>2026-03-25T11:27:23.999Z</time></trkpt><trkpt lat="41.06123681728575" lon="14.844249236008826"><ele>426.5</ele><time>2026-03-25T11:27:26.999Z</time></trkpt><trkpt lat="41.061171354982434" lon="14.844194413565148"><ele>427.0</ele><time>2026-03-25T11:27:29.999Z</time></trkpt><trkpt lat="41.061102203869325" lon="14.844137394336268"><ele>427.49999999999994</ele><time>2026-03-25T11:27:32.999Z</time></trkpt><trkpt lat="41.06103834086901" lon="14.844111992485853"><ele>428.0</ele><time>2026-03-25T11:27:35.999Z</time></trkpt><trkpt lat="41.060998438554876" lon="14.844226566615927"><ele>428.00000000000006</ele><time>2026-03-25T11:27:38.999Z</time></trkpt><trkpt lat="41.060967454118476" lon="14.84432556814341"><ele>428.0</ele><time>2026-03-25T11:27:42.999Z</time></trkpt><trkpt lat="41.06092336442242" lon="14.844412088386784"><ele>428.0</ele><time>2026-03-25T11:27:45.999Z</time></trkpt><trkpt lat="41.06089120338515" lon="14.844498236304881"><ele>428.0</ele><time>2026-03-25T11:27:48.999Z</time></trkpt><trkpt lat="41.060841250958404" lon="14.84455036786033"><ele>428.0</ele><time>2026-03-25T11:27:51.999Z</time></trkpt><trkpt lat="41.060810958940124" lon="14.844635796835616"><ele>428.00000000000006</ele><time>2026-03-25T11:27:54.999Z</time></trkpt><trkpt lat="41.060781140275346" lon="14.844718078442751"><ele>428.0</ele><time>2026-03-25T11:27:58.999Z</time></trkpt><trkpt lat="41.060745848435175" lon="14.844813213293108"><ele>428.14285714285717</ele><time>2026-03-25T11:28:02.999Z</time></trkpt><trkpt lat="41.060716424666445" lon="14.844911814851363"><ele>428.2857142857143</ele><time>2026-03-25T11:28:05.999Z</time></trkpt><trkpt lat="41.06067681814503" lon="14.844984177570115"><ele>428.42857142857144</ele><time>2026-03-25T11:28:07.999Z</time></trkpt><trkpt lat="41.060652438589116" lon="14.845066436006697"><ele>428.57142857142856</ele><time>2026-03-25T11:28:09.999Z</time></trkpt><trkpt lat="41.060630080287225" lon="14.845165085804963"><ele>428.7142857142857</ele><time>2026-03-25T11:28:11.999Z</time></trkpt><trkpt lat="41.06060253754147" lon="14.845258934230275"><ele>428.8571428571429</ele><time>2026-03-25T11:28:13.999Z</time></trkpt><trkpt lat="41.0605775324998" lon="14.845358797722524"><ele>429.0</ele><time>2026-03-25T11:28:15.999Z</time></trkpt><trkpt lat="41.06057517487079" lon="14.845460620745497"><ele>427.1666666666667</ele><time>2026-03-25T11:28:17.999Z</time></trkpt><trkpt lat="41.06056328858489" lon="14.845571576569787"><ele>425.33333333333337</ele><time>2026-03-25T11:28:19.999Z</time></trkpt><trkpt lat="41.060560078352644" lon="14.845691153479905"><ele>423.5</ele><time>2026-03-25T11:28:21.999Z</time></trkpt><trkpt lat="41.060568608597" lon="14.84581961020698"><ele>421.6666666666667</ele><time>2026-03-25T11:28:23.999Z</time></trkpt><trkpt lat="41.06055777760377" lon="14.845902531864727"><ele>419.83333333333337</ele><time>2026-03-25T11:28:24.999Z</time></trkpt><trkpt lat="41.060532939864075" lon="14.846010872816018"><ele>418.0</ele><time>2026-03-25T11:28:25.999Z</time></trkpt><trkpt lat="41.060540140862834" lon="14.846109278397979"><ele>416.6666666666667</ele><time>2026-03-25T11:28:27Z</time></trkpt><trkpt lat="41.06055424623828" lon="14.846201614144896"><ele>415.33333333333337</ele><time>2026-03-25T11:28:28Z</time></trkpt><trkpt lat="41.060587044219886" lon="14.846297564627474"><ele>414.0</ele><time>2026-03-25T11:28:29Z</time></trkpt><trkpt lat="41.06061108184254" lon="14.84640040283658"><ele>412.66666666666663</ele><time>2026-03-25T11:28:30Z</time></trkpt><trkpt lat="41.060641357565885" lon="14.846499059525513"><ele>411.3333333333333</ele><time>2026-03-25T11:28:31Z</time></trkpt><trkpt lat="41.060672530127995" lon="14.846595638047553"><ele>410.0</ele><time>2026-03-25T11:28:32Z</time></trkpt><trkpt lat="41.060705631708935" lon="14.846690541712835"><ele>409.99999999999994</ele><time>2026-03-25T11:28:33Z</time></trkpt><trkpt lat="41.06074689999957" lon="14.846782745820983"><ele>410.0</ele><time>2026-03-25T11:28:34Z</time></trkpt><trkpt lat="41.060791823878176" lon="14.846868755675226"><ele>410.0</ele><time>2026-03-25T11:28:35Z</time></trkpt><trkpt lat="41.06083933875273" lon="14.84695726019113"><ele>410.0</ele><time>2026-03-25T11:28:36Z</time></trkpt><trkpt lat="41.06089424889074" lon="14.847048973671935"><ele>409.99999999999994</ele><time>2026-03-25T11:28:37Z</time></trkpt><trkpt lat="41.06095462579525" lon="14.847135592154837"><ele>410.0</ele><time>2026-03-25T11:28:38Z</time></trkpt><trkpt lat="41.06101597904594" lon="14.847221187588017"><ele>409.0</ele><time>2026-03-25T11:28:39Z</time></trkpt><trkpt lat="41.06109129073525" lon="14.847307498194649"><ele>408.0</ele><time>2026-03-25T11:28:40Z</time></trkpt><trkpt lat="41.06117068595052" lon="14.847393759572867"><ele>407.0</ele><time>2026-03-25T11:28:41Z</time></trkpt><trkpt lat="41.06124339972918" lon="14.847473360274211"><ele>406.0</ele><time>2026-03-25T11:28:42Z</time></trkpt><trkpt lat="41.06131393296439" lon="14.84755139526473"><ele>405.0</ele><time>2026-03-25T11:28:43Z</time></trkpt><trkpt lat="41.06138537798652" lon="14.847639331756238"><ele>405.0</ele><time>2026-03-25T11:28:44Z</time></trkpt><trkpt lat="41.06147887407442" lon="14.847707672327191"><ele>405.0</ele><time>2026-03-25T11:28:45Z</time></trkpt><trkpt lat="41.061549571048275" lon="14.84777610357469"><ele>405.0</ele><time>2026-03-25T11:28:46Z</time></trkpt><trkpt lat="41.06163135407861" lon="14.847834931481126"><ele>405.0</ele><time>2026-03-25T11:28:47Z</time></trkpt><trkpt lat="41.0616996566056" lon="14.84791070280989"><ele>405.0</ele><time>2026-03-25T11:28:48Z</time></trkpt><trkpt lat="41.06177581491079" lon="14.847980685713905"><ele>403.6</ele><time>2026-03-25T11:28:49Z</time></trkpt><trkpt lat="41.061852918703806" lon="14.848063744078944"><ele>402.2</ele><time>2026-03-25T11:28:50Z</time></trkpt><trkpt lat="41.06192768875952" lon="14.848138850368247"><ele>400.79999999999995</ele><time>2026-03-25T11:28:51Z</time></trkpt><trkpt lat="41.06200117617146" lon="14.848209504403327"><ele>399.4</ele><time>2026-03-25T11:28:52Z</time></trkpt><trkpt lat="41.06207664483065" lon="14.848275163737764"><ele>398.0</ele><time>2026-03-25T11:28:53Z</time></trkpt><trkpt lat="41.06213420845059" lon="14.8483527648883"><ele>397.99999999999994</ele><time>2026-03-25T11:28:54Z</time></trkpt><trkpt lat="41.062187664296275" lon="14.848416106567381"><ele>398.0</ele><time>2026-03-25T11:28:55Z</time></trkpt><trkpt lat="41.06224857687894" lon="14.848470438430896"><ele>398.0</ele><time>2026-03-25T11:28:56Z</time></trkpt><trkpt lat="41.0622399109884" lon="14.848658032781568"><ele>398.0</ele><time>2026-03-25T11:28:57Z</time></trkpt><trkpt lat="41.062259202573536" lon="14.848759737685207"><ele>397.99999999999994</ele><time>2026-03-25T11:28:58Z</time></trkpt><trkpt lat="41.06229123247471" lon="14.848848543614107"><ele>398.0</ele><time>2026-03-25T11:28:59Z</time></trkpt><trkpt lat="41.06232359164357" lon="14.848932040810269"><ele>397.8333333333333</ele><time>2026-03-25T11:29:00Z</time></trkpt><trkpt lat="41.06237415231026" lon="14.849001484504317"><ele>397.66666666666663</ele><time>2026-03-25T11:29:01Z</time></trkpt><trkpt lat="41.06242308338843" lon="14.849064457726222"><ele>397.5</ele><time>2026-03-25T11:29:02Z</time></trkpt><trkpt lat="41.062484673018275" lon="14.849121229417493"><ele>397.33333333333337</ele><time>2026-03-25T11:29:03Z</time></trkpt><trkpt lat="41.06255503416884" lon="14.84915734185668"><ele>397.1666666666667</ele><time>2026-03-25T11:29:04Z</time></trkpt><trkpt lat="41.062668768684425" lon="14.849214385329633"><ele>397.0</ele><time>2026-03-25T11:29:06Z</time></trkpt><trkpt lat="41.06274806028177" lon="14.849282593181208"><ele>398.0</ele><time>2026-03-25T11:29:08Z</time></trkpt><trkpt lat="41.06283707942599" lon="14.84935661814413"><ele>399.0</ele><time>2026-03-25T11:29:10Z</time></trkpt><trkpt lat="41.06292429367476" lon="14.84941094957018"><ele>400.0</ele><time>2026-03-25T11:29:12Z</time></trkpt><trkpt lat="41.06301250065631" lon="14.849466031200764"><ele>401.0</ele><time>2026-03-25T11:29:14Z</time></trkpt><trkpt lat="41.06308948954819" lon="14.849515310160468"><ele>402.0</ele><time>2026-03-25T11:29:16Z</time></trkpt><trkpt lat="41.0631548375098" lon="14.849592486348225"><ele>402.0</ele><time>2026-03-25T11:29:18Z</time></trkpt><trkpt lat="41.06321118871474" lon="14.849667153649749"><ele>402.0</ele><time>2026-03-25T11:29:20Z</time></trkpt><trkpt lat="41.06324852199321" lon="14.849756909121703"><ele>402.0</ele><time>2026-03-25T11:29:22Z</time></trkpt><trkpt lat="41.06327947102065" lon="14.84985648680953"><ele>402.0</ele><time>2026-03-25T11:29:24Z</time></trkpt><trkpt lat="41.06331478278054" lon="14.849956075050795"><ele>402.0</ele><time>2026-03-25T11:29:26Z</time></trkpt><trkpt lat="41.06334562380455" lon="14.850047508350558"><ele>402.0</ele><time>2026-03-25T11:29:27.999Z</time></trkpt><trkpt lat="41.0633760308188" lon="14.850145340715104"><ele>400.8333333333333</ele><time>2026-03-25T11:29:29.999Z</time></trkpt><trkpt lat="41.06339956954097" lon="14.850237446960472"><ele>399.66666666666663</ele><time>2026-03-25T11:29:31.999Z</time></trkpt><trkpt lat="41.063438854821065" lon="14.85032814037502"><ele>398.5</ele><time>2026-03-25T11:29:33.999Z</time></trkpt><trkpt lat="41.063478557026436" lon="14.850425042543735"><ele>397.3333333333333</ele><time>2026-03-25T11:29:35.999Z</time></trkpt><trkpt lat="41.06348628790802" lon="14.850517094397153"><ele>396.16666666666663</ele><time>2026-03-25T11:29:37.999Z</time></trkpt><trkpt lat="41.06352200750158" lon="14.850619124156772"><ele>395.0</ele><time>2026-03-25T11:29:39.999Z</time></trkpt><trkpt lat="41.063555024803705" lon="14.850734267210571"><ele>395.0</ele><time>2026-03-25T11:29:41.999Z</time></trkpt><trkpt lat="41.063587397005776" lon="14.850854792214985"><ele>395.0</ele><time>2026-03-25T11:29:43.999Z</time></trkpt><trkpt lat="41.06363279256813" lon="14.850973959826982"><ele>395.0</ele><time>2026-03-25T11:29:45.999Z</time></trkpt><trkpt lat="41.063671440304425" lon="14.851113030538551"><ele>395.0</ele><time>2026-03-25T11:29:47.999Z</time></trkpt><trkpt lat="41.06371606096296" lon="14.851242529801473"><ele>395.0</ele><time>2026-03-25T11:29:49.999Z</time></trkpt><trkpt lat="41.06372144027908" lon="14.851361792587504"><ele>394.8333333333333</ele><time>2026-03-25T11:29:51.999Z</time></trkpt><trkpt lat="41.06374867468361" lon="14.851453942766906"><ele>394.66666666666663</ele><time>2026-03-25T11:29:53.999Z</time></trkpt><trkpt lat="41.06380745298273" lon="14.851489093828254"><ele>394.5</ele><time>2026-03-25T11:29:56.999Z</time></trkpt><trkpt lat="41.0638305790001" lon="14.851604377232396"><ele>394.33333333333337</ele><time>2026-03-25T11:30:07.999Z</time></trkpt><trkpt lat="41.063866064020246" lon="14.851760502605766"><ele>394.1666666666667</ele><time>2026-03-25T11:30:10.999Z</time></trkpt><trkpt lat="41.063903785267506" lon="14.851861689762174"><ele>394.0</ele><time>2026-03-25T11:30:12.999Z</time></trkpt><trkpt lat="41.063924318207704" lon="14.851956209926241"><ele>393.83333333333337</ele><time>2026-03-25T11:30:14.999Z</time></trkpt><trkpt lat="41.0639572342601" lon="14.852061774414036"><ele>393.6666666666667</ele><time>2026-03-25T11:30:16.999Z</time></trkpt><trkpt lat="41.06400008719195" lon="14.852125504673799"><ele>393.5</ele><time>2026-03-25T11:30:17.999Z</time></trkpt><trkpt lat="41.06404789419735" lon="14.852238680083007"><ele>393.33333333333337</ele><time>2026-03-25T11:30:19.999Z</time></trkpt><trkpt lat="41.064071071937576" lon="14.852333284174009"><ele>393.1666666666667</ele><time>2026-03-25T11:30:21.999Z</time></trkpt><trkpt lat="41.06408738405973" lon="14.852432569746554"><ele>393.0</ele><time>2026-03-25T11:30:23.999Z</time></trkpt><trkpt lat="41.06403257291555" lon="14.852512849423944"><ele>393.0</ele><time>2026-03-25T11:30:25.999Z</time></trkpt><trkpt lat="41.06394892602815" lon="14.852525412496373"><ele>393.0</ele><time>2026-03-25T11:30:27.999Z</time></trkpt><trkpt lat="41.06388604657703" lon="14.852561764025912"><ele>393.0</ele><time>2026-03-25T11:30:29.999Z</time></trkpt><trkpt lat="41.063806286615616" lon="14.85262996543301"><ele>393.0</ele><time>2026-03-25T11:30:31.999Z</time></trkpt><trkpt lat="41.06372695437548" lon="14.852641440213153"><ele>393.0</ele><time>2026-03-25T11:30:35Z</time></trkpt><trkpt lat="41.063650861860445" lon="14.852707196017082"><ele>393.0</ele><time>2026-03-25T11:30:37Z</time></trkpt><trkpt lat="41.06354596699609" lon="14.85273517361159"><ele>393.0</ele><time>2026-03-25T11:30:42Z</time></trkpt><trkpt lat="41.063472892411" lon="14.85277066286339"><ele>393.0</ele><time>2026-03-25T11:30:44Z</time></trkpt><trkpt lat="41.0633801150657" lon="14.852831262337938"><ele>393.0</ele><time>2026-03-25T11:30:47Z</time></trkpt><trkpt lat="41.06332130130998" lon="14.852865179030237"><ele>393.0</ele><time>2026-03-25T11:30:49Z</time></trkpt><trkpt lat="41.06325273322435" lon="14.852894787764148"><ele>393.0</ele><time>2026-03-25T11:30:51Z</time></trkpt><trkpt lat="41.06318777307194" lon="14.852925556326921"><ele>393.0</ele><time>2026-03-25T11:30:53Z</time></trkpt><trkpt lat="41.06312246465872" lon="14.852961167156744"><ele>393.42857142857144</ele><time>2026-03-25T11:30:55Z</time></trkpt><trkpt lat="41.063057326579326" lon="14.852992402356739"><ele>393.8571428571429</ele><time>2026-03-25T11:30:57Z</time></trkpt><trkpt lat="41.06299054994329" lon="14.853041633961473"><ele>394.28571428571433</ele><time>2026-03-25T11:30:59Z</time></trkpt><trkpt lat="41.0629350131105" lon="14.853102784480765"><ele>394.7142857142857</ele><time>2026-03-25T11:31:01Z</time></trkpt><trkpt lat="41.06287068929312" lon="14.8531458591126"><ele>395.1428571428571</ele><time>2026-03-25T11:31:03Z</time></trkpt><trkpt lat="41.06281198601124" lon="14.853177336513617"><ele>395.5714285714286</ele><time>2026-03-25T11:31:05Z</time></trkpt><trkpt lat="41.06277268483175" lon="14.853265099440327"><ele>396.0</ele><time>2026-03-25T11:31:08Z</time></trkpt><trkpt lat="41.0628006732132" lon="14.85334195034555"><ele>396.0</ele><time>2026-03-25T11:31:13Z</time></trkpt><trkpt lat="41.06279598672197" lon="14.853439680029174"><ele>396.0</ele><time>2026-03-25T11:31:20Z</time></trkpt><trkpt lat="41.06272687036984" lon="14.853493773934215"><ele>396.0</ele><time>2026-03-25T11:31:23Z</time></trkpt><trkpt lat="41.062647113814286" lon="14.853540423778558"><ele>396.0</ele><time>2026-03-25T11:31:26Z</time></trkpt><trkpt lat="41.062585546949194" lon="14.85356431524217"><ele>396.0</ele><time>2026-03-25T11:31:28Z</time></trkpt><trkpt lat="41.062538861647994" lon="14.853641376893195"><ele>396.0</ele><time>2026-03-25T11:31:30Z</time></trkpt><trkpt lat="41.06249603386281" lon="14.853749117931768"><ele>396.8333333333333</ele><time>2026-03-25T11:31:32Z</time></trkpt><trkpt lat="41.062431700454376" lon="14.853790996053233"><ele>397.66666666666663</ele><time>2026-03-25T11:31:34Z</time></trkpt><trkpt lat="41.062384108272845" lon="14.853847250829538"><ele>398.5</ele><time>2026-03-25T11:31:36Z</time></trkpt><trkpt lat="41.06231830038909" lon="14.85389186340732"><ele>399.3333333333333</ele><time>2026-03-25T11:31:38Z</time></trkpt><trkpt lat="41.06223494618951" lon="14.853929278464706"><ele>400.16666666666663</ele><time>2026-03-25T11:31:40Z</time></trkpt><trkpt lat="41.06213160787185" lon="14.853947110673944"><ele>401.0</ele><time>2026-03-25T11:31:42.999Z</time></trkpt><trkpt lat="41.06205505355924" lon="14.853966699993242"><ele>400.99999999999994</ele><time>2026-03-25T11:31:45.999Z</time></trkpt><trkpt lat="41.06198785584449" lon="14.854007824386914"><ele>401.0</ele><time>2026-03-25T11:31:47.999Z</time></trkpt><trkpt lat="41.061900263619535" lon="14.854057633833536"><ele>401.0</ele><time>2026-03-25T11:31:50.999Z</time></trkpt><trkpt lat="41.06182986992358" lon="14.854053154957239"><ele>401.0</ele><time>2026-03-25T11:31:52.999Z</time></trkpt><trkpt lat="41.06176571137133" lon="14.853989033337434"><ele>400.99999999999994</ele><time>2026-03-25T11:31:55.999Z</time></trkpt><trkpt lat="41.06174339741484" lon="14.853893064947682"><ele>401.0</ele><time>2026-03-25T11:31:57.999Z</time></trkpt><trkpt lat="41.06172756992214" lon="14.853806959157932"><ele>400.99999999999994</ele><time>2026-03-25T11:31:59.999Z</time></trkpt><trkpt lat="41.061710490355104" lon="14.853704921096238"><ele>401.0</ele><time>2026-03-25T11:32:01.999Z</time></trkpt><trkpt lat="41.061687266254445" lon="14.853614150299782"><ele>401.0</ele><time>2026-03-25T11:32:03.999Z</time></trkpt><trkpt lat="41.06164853388552" lon="14.853532011033789"><ele>401.0</ele><time>2026-03-25T11:32:06.999Z</time></trkpt><trkpt lat="41.06161467121265" lon="14.853459505414728"><ele>400.99999999999994</ele><time>2026-03-25T11:32:07.999Z</time></trkpt><trkpt lat="41.06152218549981" lon="14.853388751221255"><ele>401.0</ele><time>2026-03-25T11:32:10.999Z</time></trkpt><trkpt lat="41.06151701618302" lon="14.853268051894354"><ele>401.16666666666663</ele><time>2026-03-25T11:32:12.999Z</time></trkpt><trkpt lat="41.06150934869713" lon="14.85313769436888"><ele>401.3333333333333</ele><time>2026-03-25T11:32:14.999Z</time></trkpt><trkpt lat="41.06150889657485" lon="14.85302317895025"><ele>401.5</ele><time>2026-03-25T11:32:16.999Z</time></trkpt><trkpt lat="41.06148962454795" lon="14.852927058453812"><ele>401.66666666666663</ele><time>2026-03-25T11:32:18.999Z</time></trkpt><trkpt lat="41.06147353868079" lon="14.852844440496055"><ele>401.8333333333333</ele><time>2026-03-25T11:32:20.999Z</time></trkpt><trkpt lat="41.061451346244446" lon="14.852755038178273"><ele>402.0</ele><time>2026-03-25T11:32:22.999Z</time></trkpt><trkpt lat="41.06141217256504" lon="14.852667628735716"><ele>402.1666666666667</ele><time>2026-03-25T11:32:24.999Z</time></trkpt><trkpt lat="41.06138637934838" lon="14.852586823853493"><ele>402.33333333333337</ele><time>2026-03-25T11:32:26.999Z</time></trkpt><trkpt lat="41.061357020772824" lon="14.8524968015547"><ele>402.5</ele><time>2026-03-25T11:32:28.999Z</time></trkpt><trkpt lat="41.061329402928095" lon="14.852413662426837"><ele>402.6666666666667</ele><time>2026-03-25T11:32:30.999Z</time></trkpt><trkpt lat="41.061300745066376" lon="14.852266643532415"><ele>402.83333333333337</ele><time>2026-03-25T11:32:33.999Z</time></trkpt><trkpt lat="41.06126372592082" lon="14.852169738434263"><ele>403.0</ele><time>2026-03-25T11:32:36.999Z</time></trkpt><trkpt lat="41.06123828929385" lon="14.852075434117287"><ele>403.00000000000006</ele><time>2026-03-25T11:32:39Z</time></trkpt><trkpt lat="41.0612178053698" lon="14.851984114558881"><ele>403.0</ele><time>2026-03-25T11:32:41Z</time></trkpt><trkpt lat="41.0611876019692" lon="14.851897839517976"><ele>403.0</ele><time>2026-03-25T11:32:43Z</time></trkpt><trkpt lat="41.06117598863743" lon="14.851792204614323"><ele>403.0</ele><time>2026-03-25T11:32:45Z</time></trkpt><trkpt lat="41.061172415877834" lon="14.851657728163028"><ele>403.00000000000006</ele><time>2026-03-25T11:32:47Z</time></trkpt><trkpt lat="41.06114723736628" lon="14.85155887945551"><ele>403.0</ele><time>2026-03-25T11:32:49Z</time></trkpt><trkpt lat="41.061134335796204" lon="14.851460569224978"><ele>403.00000000000006</ele><time>2026-03-25T11:32:51Z</time></trkpt><trkpt lat="41.061104274275394" lon="14.851329087390907"><ele>403.0</ele><time>2026-03-25T11:32:54Z</time></trkpt><trkpt lat="41.061049703807775" lon="14.851210788883785"><ele>403.0</ele><time>2026-03-25T11:32:57Z</time></trkpt><trkpt lat="41.06105301459906" lon="14.851125924087846"><ele>403.0</ele><time>2026-03-25T11:32:59Z</time></trkpt><trkpt lat="41.06112488148426" lon="14.851083132269094"><ele>403.00000000000006</ele><time>2026-03-25T11:33:01Z</time></trkpt><trkpt lat="41.06119457766955" lon="14.850998881100216"><ele>403.0</ele><time>2026-03-25T11:33:03Z</time></trkpt><trkpt lat="41.06126289370098" lon="14.850975505645213"><ele>403.0</ele><time>2026-03-25T11:33:05Z</time></trkpt><trkpt lat="41.061492159603766" lon="14.851032496457018"><ele>403.0</ele><time>2026-03-25T11:33:10Z</time></trkpt><trkpt lat="41.061595295064066" lon="14.851061413892964"><ele>403.0</ele><time>2026-03-25T11:33:12Z</time></trkpt><trkpt lat="41.06169414554188" lon="14.851105407965058"><ele>403.0</ele><time>2026-03-25T11:33:14Z</time></trkpt><trkpt lat="41.06179531347261" lon="14.85112262444299"><ele>402.59999999999997</ele><time>2026-03-25T11:33:16Z</time></trkpt><trkpt lat="41.061903171716125" lon="14.85116990905993"><ele>402.2</ele><time>2026-03-25T11:33:18Z</time></trkpt><trkpt lat="41.0620146525743" lon="14.851199206626008"><ele>401.8</ele><time>2026-03-25T11:33:20Z</time></trkpt><trkpt lat="41.06211460527759" lon="14.85122067074081"><ele>401.4</ele><time>2026-03-25T11:33:22Z</time></trkpt><trkpt lat="41.06220867597014" lon="14.851267385302599"><ele>401.0</ele><time>2026-03-25T11:33:24Z</time></trkpt><trkpt lat="41.062327264015465" lon="14.851289770049505"><ele>401.0</ele><time>2026-03-25T11:33:26Z</time></trkpt><trkpt lat="41.06244785534214" lon="14.851329306813419"><ele>401.0</ele><time>2026-03-25T11:33:28Z</time></trkpt><trkpt lat="41.06251249050734" lon="14.85134824035111"><ele>401.0</ele><time>2026-03-25T11:33:29Z</time></trkpt><trkpt lat="41.06263374605022" lon="14.851378945893472"><ele>401.0</ele><time>2026-03-25T11:33:31Z</time></trkpt><trkpt lat="41.062707727747295" lon="14.851402243239349"><ele>401.0</ele><time>2026-03-25T11:33:32Z</time></trkpt><trkpt lat="41.062784343545914" lon="14.851418569299076"><ele>400.3333333333333</ele><time>2026-03-25T11:33:33Z</time></trkpt><trkpt lat="41.0628575588633" lon="14.851442609175427"><ele>399.66666666666663</ele><time>2026-03-25T11:33:34Z</time></trkpt><trkpt lat="41.06293150530915" lon="14.851463924239768"><ele>399.0</ele><time>2026-03-25T11:33:35Z</time></trkpt><trkpt lat="41.063010017314305" lon="14.851497864063557"><ele>398.33333333333337</ele><time>2026-03-25T11:33:36Z</time></trkpt><trkpt lat="41.06308929051424" lon="14.851523861894366"><ele>397.6666666666667</ele><time>2026-03-25T11:33:37Z</time></trkpt><trkpt lat="41.06316133716909" lon="14.85152244320406"><ele>397.0</ele><time>2026-03-25T11:33:38Z</time></trkpt><trkpt lat="41.06322188323673" lon="14.851551438463256"><ele>396.50000000000006</ele><time>2026-03-25T11:33:39Z</time></trkpt><trkpt lat="41.06329343473772" lon="14.851575088921003"><ele>396.0</ele><time>2026-03-25T11:33:40Z</time></trkpt><trkpt lat="41.06336156299782" lon="14.8515936335916"><ele>395.5</ele><time>2026-03-25T11:33:41Z</time></trkpt><trkpt lat="41.06343765995965" lon="14.851608828246789"><ele>395.0</ele><time>2026-03-25T11:33:42Z</time></trkpt><trkpt lat="41.06351072149114" lon="14.851626192141879"><ele>394.50000000000006</ele><time>2026-03-25T11:33:43Z</time></trkpt><trkpt lat="41.06360132878497" lon="14.851632761355301"><ele>394.0</ele><time>2026-03-25T11:33:44Z</time></trkpt><trkpt lat="41.06369711584902" lon="14.85167091634587"><ele>394.00000000000006</ele><time>2026-03-25T11:33:46Z</time></trkpt><trkpt lat="41.06378299366866" lon="14.851674867074511"><ele>394.0</ele><time>2026-03-25T11:33:49Z</time></trkpt><trkpt lat="41.06382229412578" lon="14.851496731530872"><ele>394.0</ele><time>2026-03-25T11:33:54.999Z</time></trkpt><trkpt lat="41.06388591833666" lon="14.851560088282154"><ele>394.0</ele><time>2026-03-25T11:35:52Z</time></trkpt><trkpt lat="41.063903562775614" lon="14.851646118814712"><ele>394.00000000000006</ele><time>2026-03-25T11:35:55Z</time></trkpt><trkpt lat="41.06392518908544" lon="14.851726242247956"><ele>394.0</ele><time>2026-03-25T11:35:57Z</time></trkpt><trkpt lat="41.06390957117508" lon="14.851863249082614"><ele>393.83333333333337</ele><time>2026-03-25T11:36:00Z</time></trkpt><trkpt lat="41.06393690321915" lon="14.851966635798897"><ele>393.6666666666667</ele><time>2026-03-25T11:36:02Z</time></trkpt><trkpt lat="41.06398300395889" lon="14.852066053129493"><ele>393.5</ele><time>2026-03-25T11:36:04Z</time></trkpt><trkpt lat="41.06402113534679" lon="14.852180409580404"><ele>393.33333333333337</ele><time>2026-03-25T11:36:06Z</time></trkpt><trkpt lat="41.06405722241829" lon="14.852291538406401"><ele>393.1666666666667</ele><time>2026-03-25T11:36:08Z</time></trkpt><trkpt lat="41.06408353321812" lon="14.85239902472493"><ele>393.0</ele><time>2026-03-25T11:36:10Z</time></trkpt><trkpt lat="41.064087591274465" lon="14.852529188216952"><ele>393.0</ele><time>2026-03-25T11:36:12Z</time></trkpt><trkpt lat="41.064092275196636" lon="14.852616363260134"><ele>393.0</ele><time>2026-03-25T11:36:14Z</time></trkpt><trkpt lat="41.06411206245976" lon="14.852733066372261"><ele>393.0</ele><time>2026-03-25T11:36:17Z</time></trkpt><trkpt lat="41.064149366476286" lon="14.852844841486696"><ele>393.0</ele><time>2026-03-25T11:36:19Z</time></trkpt><trkpt lat="41.064185624719" lon="14.85294851553384"><ele>393.0</ele><time>2026-03-25T11:36:21Z</time></trkpt><trkpt lat="41.06421544739439" lon="14.853039697061545"><ele>393.0</ele><time>2026-03-25T11:36:23Z</time></trkpt><trkpt lat="41.064250158968356" lon="14.853132261162553"><ele>393.00000000000006</ele><time>2026-03-25T11:36:25Z</time></trkpt><trkpt lat="41.06426830040671" lon="14.853235276303904"><ele>393.0</ele><time>2026-03-25T11:36:27Z</time></trkpt><trkpt lat="41.06429957657723" lon="14.853327353203325"><ele>393.0</ele><time>2026-03-25T11:36:29Z</time></trkpt><trkpt lat="41.064329761462886" lon="14.853411921804147"><ele>393.0</ele><time>2026-03-25T11:36:31Z</time></trkpt><trkpt lat="41.06435060896675" lon="14.853507692272876"><ele>393.0</ele><time>2026-03-25T11:36:33Z</time></trkpt><trkpt lat="41.064371036608755" lon="14.853602576971609"><ele>393.00000000000006</ele><time>2026-03-25T11:36:35Z</time></trkpt><trkpt lat="41.064392442260065" lon="14.853686143258274"><ele>393.0</ele><time>2026-03-25T11:36:37Z</time></trkpt><trkpt lat="41.064384852485134" lon="14.853794741633306"><ele>393.0</ele><time>2026-03-25T11:36:39Z</time></trkpt><trkpt lat="41.06437790605734" lon="14.853909514290649"><ele>393.0</ele><time>2026-03-25T11:36:41Z</time></trkpt><trkpt lat="41.06436655068948" lon="14.854007662876182"><ele>393.0</ele><time>2026-03-25T11:36:42.999Z</time></trkpt><trkpt lat="41.06433634779099" lon="14.854104846465146"><ele>393.0</ele><time>2026-03-25T11:36:44.999Z</time></trkpt><trkpt lat="41.06430517621516" lon="14.854217591803119"><ele>393.0</ele><time>2026-03-25T11:36:46.999Z</time></trkpt><trkpt lat="41.0642753283099" lon="14.854331100123959"><ele>393.0</ele><time>2026-03-25T11:36:48.999Z</time></trkpt><trkpt lat="41.06427959130223" lon="14.854429268579626"><ele>392.6666666666667</ele><time>2026-03-25T11:36:50.999Z</time></trkpt><trkpt lat="41.06423681017611" lon="14.854524747097889"><ele>392.33333333333337</ele><time>2026-03-25T11:36:52.999Z</time></trkpt><trkpt lat="41.06422478587614" lon="14.85461182849759"><ele>392.0</ele><time>2026-03-25T11:36:54.999Z</time></trkpt><trkpt lat="41.06420831292809" lon="14.854721315749343"><ele>391.6666666666667</ele><time>2026-03-25T11:36:56.999Z</time></trkpt><trkpt lat="41.0641710460872" lon="14.854808822670982"><ele>391.33333333333337</ele><time>2026-03-25T11:36:58.999Z</time></trkpt><trkpt lat="41.06412695425516" lon="14.854894780241759"><ele>391.0</ele><time>2026-03-25T11:37:00.999Z</time></trkpt><trkpt lat="41.0640854389354" lon="14.854995145737899"><ele>391.0</ele><time>2026-03-25T11:37:02.999Z</time></trkpt><trkpt lat="41.06406266006997" lon="14.855093855885055"><ele>391.0</ele><time>2026-03-25T11:37:04.999Z</time></trkpt><trkpt lat="41.06413644874161" lon="14.855152200963797"><ele>391.0</ele><time>2026-03-25T11:37:06.999Z</time></trkpt><trkpt lat="41.06431439492017" lon="14.855152246525297"><ele>391.0</ele><time>2026-03-25T11:37:10.999Z</time></trkpt><trkpt lat="41.06440295109969" lon="14.85518852980306"><ele>391.0</ele><time>2026-03-25T11:37:12.999Z</time></trkpt><trkpt lat="41.064479875425434" lon="14.855193404618603"><ele>390.20000000000005</ele><time>2026-03-25T11:37:14.999Z</time></trkpt><trkpt lat="41.06458035472806" lon="14.855213573845912"><ele>389.40000000000003</ele><time>2026-03-25T11:37:16.999Z</time></trkpt><trkpt lat="41.064655095971126" lon="14.85526683460686"><ele>388.6</ele><time>2026-03-25T11:37:18.999Z</time></trkpt><trkpt lat="41.064766839807874" lon="14.855294452315807"><ele>387.8</ele><time>2026-03-25T11:37:20.999Z</time></trkpt><trkpt lat="41.06490263168595" lon="14.855330404921332"><ele>387.0</ele><time>2026-03-25T11:37:22.999Z</time></trkpt><trkpt lat="41.06501478972125" lon="14.855349220577368"><ele>386.8333333333333</ele><time>2026-03-25T11:37:24.999Z</time></trkpt><trkpt lat="41.06511046380792" lon="14.855373998314992"><ele>386.66666666666663</ele><time>2026-03-25T11:37:26.999Z</time></trkpt><trkpt lat="41.065228023340474" lon="14.855398893140244"><ele>386.5</ele><time>2026-03-25T11:37:28.999Z</time></trkpt><trkpt lat="41.065293528632075" lon="14.855419169700264"><ele>386.3333333333333</ele><time>2026-03-25T11:37:29.999Z</time></trkpt><trkpt lat="41.06535728625571" lon="14.85543239689351"><ele>386.16666666666663</ele><time>2026-03-25T11:37:30.999Z</time></trkpt><trkpt lat="41.065421627022836" lon="14.855449529793631"><ele>386.0</ele><time>2026-03-25T11:37:31.999Z</time></trkpt><trkpt lat="41.0655763453481" lon="14.855471003503283"><ele>385.99999999999994</ele><time>2026-03-25T11:37:34Z</time></trkpt><trkpt lat="41.06568553002204" lon="14.855495012039926"><ele>386.0</ele><time>2026-03-25T11:37:36Z</time></trkpt><trkpt lat="41.065749279355195" lon="14.85551625338225"><ele>386.0</ele><time>2026-03-25T11:37:37Z</time></trkpt><trkpt lat="41.06584183232675" lon="14.85548566729164"><ele>386.0</ele><time>2026-03-25T11:37:39Z</time></trkpt><trkpt lat="41.06593302611813" lon="14.855505637342207"><ele>385.99999999999994</ele><time>2026-03-25T11:37:41Z</time></trkpt><trkpt lat="41.066015048015515" lon="14.85551794934394"><ele>386.0</ele><time>2026-03-25T11:37:43Z</time></trkpt><trkpt lat="41.06608755779206" lon="14.855528461647795"><ele>385.8</ele><time>2026-03-25T11:37:44Z</time></trkpt><trkpt lat="41.066208244723356" lon="14.85553840357971"><ele>385.6</ele><time>2026-03-25T11:37:46Z</time></trkpt><trkpt lat="41.06632790540904" lon="14.855555772362813"><ele>385.4</ele><time>2026-03-25T11:37:48Z</time></trkpt><trkpt lat="41.06643063823001" lon="14.855516777484754"><ele>385.2</ele><time>2026-03-25T11:37:50Z</time></trkpt><trkpt lat="41.066522974334006" lon="14.8554948015862"><ele>385.0</ele><time>2026-03-25T11:37:52Z</time></trkpt><trkpt lat="41.066644698469666" lon="14.855474067021916"><ele>384.83333333333337</ele><time>2026-03-25T11:37:54Z</time></trkpt><trkpt lat="41.0667036839281" lon="14.855438185936073"><ele>384.6666666666667</ele><time>2026-03-25T11:37:55Z</time></trkpt><trkpt lat="41.066768103566716" lon="14.855414907574328"><ele>384.5</ele><time>2026-03-25T11:37:56Z</time></trkpt><trkpt lat="41.06686721719232" lon="14.8553871194188"><ele>384.33333333333337</ele><time>2026-03-25T11:37:58Z</time></trkpt><trkpt lat="41.066927649082125" lon="14.855361728854575"><ele>384.1666666666667</ele><time>2026-03-25T11:37:59Z</time></trkpt><trkpt lat="41.0670400158747" lon="14.855324279644817"><ele>384.0</ele><time>2026-03-25T11:38:01Z</time></trkpt><trkpt lat="41.06716810196114" lon="14.855312586032229"><ele>384.0</ele><time>2026-03-25T11:38:03Z</time></trkpt><trkpt lat="41.067274367187885" lon="14.85529258222711"><ele>384.0</ele><time>2026-03-25T11:38:05Z</time></trkpt><trkpt lat="41.06734245255563" lon="14.855335342356152"><ele>384.0</ele><time>2026-03-25T11:38:06Z</time></trkpt><trkpt lat="41.06740871995667" lon="14.855362931893465"><ele>384.0</ele><time>2026-03-25T11:38:07Z</time></trkpt><trkpt lat="41.06750442499182" lon="14.855399850728942"><ele>384.0</ele><time>2026-03-25T11:38:09Z</time></trkpt><trkpt lat="41.067569910823266" lon="14.855383764793178"><ele>384.0</ele><time>2026-03-25T11:38:11Z</time></trkpt><trkpt lat="41.06764479594882" lon="14.855321335024273"><ele>383.4</ele><time>2026-03-25T11:38:13Z</time></trkpt><trkpt lat="41.06769686774324" lon="14.855242790840762"><ele>382.79999999999995</ele><time>2026-03-25T11:38:15Z</time></trkpt><trkpt lat="41.06772110125178" lon="14.855139913166667"><ele>382.20000000000005</ele><time>2026-03-25T11:38:17Z</time></trkpt><trkpt lat="41.067746836901286" lon="14.855035029167938"><ele>381.6</ele><time>2026-03-25T11:38:19Z</time></trkpt><trkpt lat="41.0677999934434" lon="14.85497020456267"><ele>381.0</ele><time>2026-03-25T11:38:21Z</time></trkpt><trkpt lat="41.06804142259978" lon="14.855007519368652"><ele>381.0</ele><time>2026-03-25T11:38:27Z</time></trkpt><trkpt lat="41.06812614205123" lon="14.85505402903006"><ele>381.0</ele><time>2026-03-25T11:38:29Z</time></trkpt><trkpt lat="41.06821413263553" lon="14.85507913209465"><ele>381.0</ele><time>2026-03-25T11:38:31Z</time></trkpt><trkpt lat="41.068292574016574" lon="14.855111754113892"><ele>381.0</ele><time>2026-03-25T11:38:33Z</time></trkpt><trkpt lat="41.06837788311406" lon="14.855130968437395"><ele>381.0</ele><time>2026-03-25T11:38:34.999Z</time></trkpt><trkpt lat="41.068482394894794" lon="14.855150572365753"><ele>380.4</ele><time>2026-03-25T11:38:36.999Z</time></trkpt><trkpt lat="41.06857812709528" lon="14.855173284366707"><ele>379.8</ele><time>2026-03-25T11:38:38.999Z</time></trkpt><trkpt lat="41.0686690177122" lon="14.85522609528268"><ele>379.2</ele><time>2026-03-25T11:38:40.999Z</time></trkpt><trkpt lat="41.0687809000441" lon="14.85521009767509"><ele>378.59999999999997</ele><time>2026-03-25T11:38:43.999Z</time></trkpt><trkpt lat="41.06889192895714" lon="14.855236656338342"><ele>378.0</ele><time>2026-03-25T11:38:46.999Z</time></trkpt><trkpt lat="41.06897375049255" lon="14.855252696318011"><ele>378.0</ele><time>2026-03-25T11:38:48.999Z</time></trkpt><trkpt lat="41.06904133082504" lon="14.85526711294752"><ele>378.0</ele><time>2026-03-25T11:38:50.999Z</time></trkpt><trkpt lat="41.069142987545106" lon="14.855256393042463"><ele>378.0</ele><time>2026-03-25T11:38:53.999Z</time></trkpt><trkpt lat="41.069212947244715" lon="14.855297174501889"><ele>378.0</ele><time>2026-03-25T11:38:56.999Z</time></trkpt><trkpt lat="41.06930442376831" lon="14.855304125193737"><ele>378.0</ele><time>2026-03-25T11:38:59.999Z</time></trkpt><trkpt lat="41.06937561085632" lon="14.855323700019193"><ele>378.0</ele><time>2026-03-25T11:39:02.999Z</time></trkpt><trkpt lat="41.06944814174128" lon="14.855331502220238"><ele>378.0</ele><time>2026-03-25T11:39:05.999Z</time></trkpt><trkpt lat="41.069513316942576" lon="14.855337551473951"><ele>378.0</ele><time>2026-03-25T11:39:08.999Z</time></trkpt><trkpt lat="41.069585624160844" lon="14.855374694256591"><ele>378.0</ele><time>2026-03-25T11:39:11.999Z</time></trkpt><trkpt lat="41.06966446500217" lon="14.855385451723677"><ele>378.0</ele><time>2026-03-25T11:39:15.999Z</time></trkpt><trkpt lat="41.06973359289048" lon="14.855311685496321"><ele>378.0</ele><time>2026-03-25T11:39:18.999Z</time></trkpt><trkpt lat="41.06975842758044" lon="14.855214034956006"><ele>378.0</ele><time>2026-03-25T11:39:20.999Z</time></trkpt><trkpt lat="41.06978637661847" lon="14.855115313682175"><ele>378.3333333333333</ele><time>2026-03-25T11:39:22.999Z</time></trkpt><trkpt lat="41.06979820710346" lon="14.855009842703792"><ele>378.6666666666667</ele><time>2026-03-25T11:39:24.999Z</time></trkpt><trkpt lat="41.06982190904514" lon="14.854911455517568"><ele>379.0</ele><time>2026-03-25T11:39:26.999Z</time></trkpt><trkpt lat="41.06984144801519" lon="14.854812417054214"><ele>379.33333333333337</ele><time>2026-03-25T11:39:28.999Z</time></trkpt><trkpt lat="41.06986252056362" lon="14.854685825465653"><ele>379.6666666666667</ele><time>2026-03-25T11:39:30.999Z</time></trkpt><trkpt lat="41.06988779030205" lon="14.854572301469679"><ele>380.0</ele><time>2026-03-25T11:39:32.999Z</time></trkpt><trkpt lat="41.06993054125575" lon="14.854465321832867"><ele>380.0</ele><time>2026-03-25T11:39:34.999Z</time></trkpt><trkpt lat="41.069972709101584" lon="14.854350764742687"><ele>380.0</ele><time>2026-03-25T11:39:36.999Z</time></trkpt><trkpt lat="41.07000628939223" lon="14.85423461526923"><ele>380.0</ele><time>2026-03-25T11:39:39Z</time></trkpt><trkpt lat="41.070032731342906" lon="14.854116969511624"><ele>380.0</ele><time>2026-03-25T11:39:41Z</time></trkpt><trkpt lat="41.07005086199067" lon="14.853999027333346"><ele>380.0</ele><time>2026-03-25T11:39:43Z</time></trkpt><trkpt lat="41.07007529971552" lon="14.853889338386335"><ele>380.0</ele><time>2026-03-25T11:39:45Z</time></trkpt><trkpt lat="41.070147971598985" lon="14.853825034271786"><ele>380.0</ele><time>2026-03-25T11:39:47Z</time></trkpt><trkpt lat="41.070226375574435" lon="14.853739521911981"><ele>380.0</ele><time>2026-03-25T11:39:49Z</time></trkpt><trkpt lat="41.07030046266912" lon="14.853727523685258"><ele>380.0</ele><time>2026-03-25T11:39:51Z</time></trkpt><trkpt lat="41.070398384073776" lon="14.85372242814948"><ele>380.0</ele><time>2026-03-25T11:39:53Z</time></trkpt><trkpt lat="41.07048507016243" lon="14.853732125600665"><ele>380.0</ele><time>2026-03-25T11:39:55Z</time></trkpt><trkpt lat="41.07058261997198" lon="14.853725717062984"><ele>380.6666666666667</ele><time>2026-03-25T11:39:57Z</time></trkpt><trkpt lat="41.07077618703248" lon="14.853698233673768"><ele>381.3333333333333</ele><time>2026-03-25T11:40:02Z</time></trkpt><trkpt lat="41.07086183627291" lon="14.853678770352195"><ele>382.0</ele><time>2026-03-25T11:40:04Z</time></trkpt><trkpt lat="41.071051158887244" lon="14.853673058427027"><ele>382.0</ele><time>2026-03-25T11:40:09Z</time></trkpt><trkpt lat="41.071119683933276" lon="14.853704981684132"><ele>382.0</ele><time>2026-03-25T11:40:11Z</time></trkpt><trkpt lat="41.0712367467368" lon="14.853743964292393"><ele>382.0</ele><time>2026-03-25T11:40:13Z</time></trkpt><trkpt lat="41.071319459594065" lon="14.853773357569295"><ele>382.0</ele><time>2026-03-25T11:40:15Z</time></trkpt><trkpt lat="41.07138378438024" lon="14.853886038786863"><ele>382.0</ele><time>2026-03-25T11:40:18Z</time></trkpt><trkpt lat="41.07146102446106" lon="14.853903473520235"><ele>382.0</ele><time>2026-03-25T11:40:20Z</time></trkpt><trkpt lat="41.07153999310755" lon="14.853943540050183"><ele>382.0</ele><time>2026-03-25T11:40:22Z</time></trkpt><trkpt lat="41.07164085003768" lon="14.853973095639313"><ele>382.0</ele><time>2026-03-25T11:40:24Z</time></trkpt><trkpt lat="41.07173169324893" lon="14.854033583035205"><ele>382.0</ele><time>2026-03-25T11:40:26Z</time></trkpt><trkpt lat="41.071841088194525" lon="14.854072448104548"><ele>382.0</ele><time>2026-03-25T11:40:28Z</time></trkpt><trkpt lat="41.07193271209005" lon="14.854118887802187"><ele>381.20000000000005</ele><time>2026-03-25T11:40:30Z</time></trkpt><trkpt lat="41.07203947761272" lon="14.854145538860129"><ele>380.4</ele><time>2026-03-25T11:40:32Z</time></trkpt><trkpt lat="41.07211549027094" lon="14.85416119902732"><ele>379.6</ele><time>2026-03-25T11:40:33Z</time></trkpt><trkpt lat="41.07220904827336" lon="14.854194344059993"><ele>378.79999999999995</ele><time>2026-03-25T11:40:35Z</time></trkpt><trkpt lat="41.07229309374232" lon="14.854242425810078"><ele>378.0</ele><time>2026-03-25T11:40:37Z</time></trkpt><trkpt lat="41.072403170480634" lon="14.85425834292759"><ele>377.2</ele><time>2026-03-25T11:40:39Z</time></trkpt><trkpt lat="41.07249718932808" lon="14.854274049061992"><ele>376.4</ele><time>2026-03-25T11:40:41Z</time></trkpt><trkpt lat="41.072607740768554" lon="14.854311795200223"><ele>375.59999999999997</ele><time>2026-03-25T11:40:43Z</time></trkpt><trkpt lat="41.07270370253634" lon="14.854362483103987"><ele>374.79999999999995</ele><time>2026-03-25T11:40:44.999Z</time></trkpt><trkpt lat="41.0727988246021" lon="14.854429587770571"><ele>374.0</ele><time>2026-03-25T11:40:46.999Z</time></trkpt><trkpt lat="41.07284986950725" lon="14.854479003004549"><ele>373.83333333333337</ele><time>2026-03-25T11:40:47.999Z</time></trkpt><trkpt lat="41.07297257972843" lon="14.854560681768488"><ele>373.6666666666667</ele><time>2026-03-25T11:40:49.999Z</time></trkpt><trkpt lat="41.07302805049269" lon="14.85460213802474"><ele>373.5</ele><time>2026-03-25T11:40:50.999Z</time></trkpt><trkpt lat="41.073098918154535" lon="14.854618710887465"><ele>373.3333333333333</ele><time>2026-03-25T11:40:51.999Z</time></trkpt><trkpt lat="41.07316899646878" lon="14.854655417611108"><ele>373.16666666666663</ele><time>2026-03-25T11:40:52.999Z</time></trkpt><trkpt lat="41.07323281043948" lon="14.854688842026718"><ele>373.0</ele><time>2026-03-25T11:40:53.999Z</time></trkpt><trkpt lat="41.07329772328278" lon="14.854719234276365"><ele>372.8333333333333</ele><time>2026-03-25T11:40:54.999Z</time></trkpt><trkpt lat="41.073366170453255" lon="14.854752960455913"><ele>372.66666666666663</ele><time>2026-03-25T11:40:55.999Z</time></trkpt><trkpt lat="41.07343448232025" lon="14.854786619975801"><ele>372.5</ele><time>2026-03-25T11:40:56.999Z</time></trkpt><trkpt lat="41.0735057802574" lon="14.85482175086154"><ele>372.3333333333333</ele><time>2026-03-25T11:40:57.999Z</time></trkpt><trkpt lat="41.07356495297951" lon="14.85488024885512"><ele>372.1666666666667</ele><time>2026-03-25T11:40:58.999Z</time></trkpt><trkpt lat="41.073635978183205" lon="14.854904317402907"><ele>372.0</ele><time>2026-03-25T11:40:59.999Z</time></trkpt><trkpt lat="41.07376847506449" lon="14.854964351730564"><ele>372.0</ele><time>2026-03-25T11:41:01.999Z</time></trkpt><trkpt lat="41.07383310015152" lon="14.854994870630835"><ele>372.0</ele><time>2026-03-25T11:41:02.999Z</time></trkpt><trkpt lat="41.07389709446641" lon="14.855026925712547"><ele>372.0</ele><time>2026-03-25T11:41:03.999Z</time></trkpt><trkpt lat="41.07396470672486" lon="14.855064779414095"><ele>372.0</ele><time>2026-03-25T11:41:04.999Z</time></trkpt><trkpt lat="41.07408234931889" lon="14.855109604777724"><ele>372.0</ele><time>2026-03-25T11:41:06.999Z</time></trkpt><trkpt lat="41.07415223792566" lon="14.855146057928012"><ele>372.0</ele><time>2026-03-25T11:41:07.999Z</time></trkpt><trkpt lat="41.07421858492785" lon="14.855178517541043"><ele>372.00000000000006</ele><time>2026-03-25T11:41:08.999Z</time></trkpt><trkpt lat="41.074278259678124" lon="14.855209569561737"><ele>372.0</ele><time>2026-03-25T11:41:09.999Z</time></trkpt><trkpt lat="41.074338802409855" lon="14.855233130677854"><ele>372.0</ele><time>2026-03-25T11:41:10.999Z</time></trkpt><trkpt lat="41.07439958636344" lon="14.85526331764862"><ele>372.0</ele><time>2026-03-25T11:41:11.999Z</time></trkpt><trkpt lat="41.07446528577298" lon="14.855293193806103"><ele>372.0</ele><time>2026-03-25T11:41:12.999Z</time></trkpt><trkpt lat="41.074527614181086" lon="14.855330451524763"><ele>372.00000000000006</ele><time>2026-03-25T11:41:13.999Z</time></trkpt><trkpt lat="41.07459120320914" lon="14.855362254758122"><ele>372.0</ele><time>2026-03-25T11:41:14.999Z</time></trkpt><trkpt lat="41.07470512428699" lon="14.855430158273787"><ele>372.0</ele><time>2026-03-25T11:41:16.999Z</time></trkpt><trkpt lat="41.074815189689474" lon="14.855501422089823"><ele>372.0</ele><time>2026-03-25T11:41:18.999Z</time></trkpt><trkpt lat="41.07487794510397" lon="14.855520680747286"><ele>372.0</ele><time>2026-03-25T11:41:19.999Z</time></trkpt><trkpt lat="41.074942575130244" lon="14.855547180154337"><ele>372.0</ele><time>2026-03-25T11:41:20.999Z</time></trkpt><trkpt lat="41.07504821692548" lon="14.85563133596837"><ele>372.0</ele><time>2026-03-25T11:41:22.999Z</time></trkpt><trkpt lat="41.07515884985679" lon="14.855660078290816"><ele>371.8</ele><time>2026-03-25T11:41:24.999Z</time></trkpt><trkpt lat="41.07525122583611" lon="14.85572455258658"><ele>371.6</ele><time>2026-03-25T11:41:26.999Z</time></trkpt><trkpt lat="41.07531462653976" lon="14.85574081230931"><ele>371.40000000000003</ele><time>2026-03-25T11:41:27.999Z</time></trkpt><trkpt lat="41.07542569293545" lon="14.855794203528538"><ele>371.20000000000005</ele><time>2026-03-25T11:41:29.999Z</time></trkpt><trkpt lat="41.07553628348098" lon="14.855828375513521"><ele>371.0</ele><time>2026-03-25T11:41:31.999Z</time></trkpt><trkpt lat="41.07562249119831" lon="14.855891542416312"><ele>371.0</ele><time>2026-03-25T11:41:33.999Z</time></trkpt><trkpt lat="41.07571878683605" lon="14.855943315009094"><ele>371.0</ele><time>2026-03-25T11:41:35.999Z</time></trkpt><trkpt lat="41.075814402958386" lon="14.856004354229881"><ele>371.0</ele><time>2026-03-25T11:41:37.999Z</time></trkpt><trkpt lat="41.07590601549122" lon="14.856048894977889"><ele>371.0</ele><time>2026-03-25T11:41:39.999Z</time></trkpt><trkpt lat="41.07598651403259" lon="14.856098331461311"><ele>371.0</ele><time>2026-03-25T11:41:41.999Z</time></trkpt><trkpt lat="41.07608056224762" lon="14.856140861918696"><ele>371.6</ele><time>2026-03-25T11:41:43.999Z</time></trkpt><trkpt lat="41.076176274190495" lon="14.856180030328737"><ele>372.20000000000005</ele><time>2026-03-25T11:41:46Z</time></trkpt><trkpt lat="41.0762717707682" lon="14.856219109038555"><ele>372.79999999999995</ele><time>2026-03-25T11:41:48Z</time></trkpt><trkpt lat="41.07636724928686" lon="14.856254952420736"><ele>373.4</ele><time>2026-03-25T11:41:50Z</time></trkpt><trkpt lat="41.076456206231526" lon="14.856281330297683"><ele>374.0</ele><time>2026-03-25T11:41:52Z</time></trkpt><trkpt lat="41.076537366570314" lon="14.856291781541222"><ele>374.0</ele><time>2026-03-25T11:41:54Z</time></trkpt><trkpt lat="41.076619468748426" lon="14.856229879603731"><ele>374.0</ele><time>2026-03-25T11:41:56Z</time></trkpt><trkpt lat="41.076672672223786" lon="14.85614236021466"><ele>374.0</ele><time>2026-03-25T11:41:58Z</time></trkpt><trkpt lat="41.07673316399383" lon="14.85603772419482"><ele>374.0</ele><time>2026-03-25T11:42:00Z</time></trkpt><trkpt lat="41.07679006443062" lon="14.85594415999365"><ele>374.0</ele><time>2026-03-25T11:42:02Z</time></trkpt><trkpt lat="41.07684586111139" lon="14.855838619126377"><ele>373.79999999999995</ele><time>2026-03-25T11:42:04Z</time></trkpt><trkpt lat="41.07690448423267" lon="14.85573328032115"><ele>373.59999999999997</ele><time>2026-03-25T11:42:06Z</time></trkpt><trkpt lat="41.07695857648834" lon="14.855626261890539"><ele>373.4</ele><time>2026-03-25T11:42:08Z</time></trkpt><trkpt lat="41.07701139680262" lon="14.855513420711926"><ele>373.2</ele><time>2026-03-25T11:42:10Z</time></trkpt><trkpt lat="41.07706615117804" lon="14.855405098994924"><ele>373.0</ele><time>2026-03-25T11:42:12Z</time></trkpt><trkpt lat="41.07711883734999" lon="14.855298067607086"><ele>373.0</ele><time>2026-03-25T11:42:14Z</time></trkpt><trkpt lat="41.07717575608113" lon="14.855189502273422"><ele>373.0</ele><time>2026-03-25T11:42:16Z</time></trkpt><trkpt lat="41.077229037375126" lon="14.855080984300805"><ele>373.0</ele><time>2026-03-25T11:42:18Z</time></trkpt><trkpt lat="41.07728169269679" lon="14.854984337550215"><ele>373.0</ele><time>2026-03-25T11:42:20Z</time></trkpt><trkpt lat="41.077327912285774" lon="14.854884970888499"><ele>373.0</ele><time>2026-03-25T11:42:22Z</time></trkpt><trkpt lat="41.077373831302346" lon="14.854795721544386"><ele>372.57142857142856</ele><time>2026-03-25T11:42:24Z</time></trkpt><trkpt lat="41.07741581949532" lon="14.854705165703571"><ele>372.14285714285717</ele><time>2026-03-25T11:42:26Z</time></trkpt><trkpt lat="41.07745823886606" lon="14.854619901088846"><ele>371.71428571428567</ele><time>2026-03-25T11:42:28Z</time></trkpt><trkpt lat="41.07750101743561" lon="14.854542190325198"><ele>371.2857142857143</ele><time>2026-03-25T11:42:30Z</time></trkpt><trkpt lat="41.07753919002909" lon="14.854464788970713"><ele>370.85714285714283</ele><time>2026-03-25T11:42:32Z</time></trkpt><trkpt lat="41.077580757317335" lon="14.854386942253681"><ele>370.4285714285714</ele><time>2026-03-25T11:42:34Z</time></trkpt><trkpt lat="41.077621332184115" lon="14.854307523447655"><ele>370.0</ele><time>2026-03-25T11:42:36Z</time></trkpt><trkpt lat="41.07766470429564" lon="14.854222370018764"><ele>369.8333333333333</ele><time>2026-03-25T11:42:38Z</time></trkpt><trkpt lat="41.077724967055396" lon="14.85414262242574"><ele>369.66666666666663</ele><time>2026-03-25T11:42:40Z</time></trkpt><trkpt lat="41.077777660413695" lon="14.85405116708784"><ele>369.5</ele><time>2026-03-25T11:42:42Z</time></trkpt><trkpt lat="41.077828846049904" lon="14.853958998126588"><ele>369.3333333333333</ele><time>2026-03-25T11:42:44Z</time></trkpt><trkpt lat="41.07786631181997" lon="14.853857839291322"><ele>369.1666666666667</ele><time>2026-03-25T11:42:46Z</time></trkpt><trkpt lat="41.07790957272086" lon="14.853759424957573"><ele>369.0</ele><time>2026-03-25T11:42:48Z</time></trkpt><trkpt lat="41.077965522524615" lon="14.853688415692844"><ele>369.0</ele><time>2026-03-25T11:42:50Z</time></trkpt><trkpt lat="41.07802625414067" lon="14.853655200402093"><ele>369.0</ele><time>2026-03-25T11:42:52Z</time></trkpt><trkpt lat="41.07809507022074" lon="14.853608143068751"><ele>369.0</ele><time>2026-03-25T11:42:54Z</time></trkpt><trkpt lat="41.07816578908777" lon="14.85362730926303"><ele>369.0</ele><time>2026-03-25T11:42:58.999Z</time></trkpt><trkpt lat="41.078201377625206" lon="14.853533383525608"><ele>369.0</ele><time>2026-03-25T11:44:06Z</time></trkpt><trkpt lat="41.07822641993788" lon="14.853440435444398"><ele>369.0</ele><time>2026-03-25T11:44:09Z</time></trkpt><trkpt lat="41.07826071647516" lon="14.853342595206186"><ele>369.0</ele><time>2026-03-25T11:44:12Z</time></trkpt><trkpt lat="41.07824525348566" lon="14.853250933974287"><ele>369.0</ele><time>2026-03-25T11:44:15Z</time></trkpt><trkpt lat="41.078164233561594" lon="14.853255132418447"><ele>369.0</ele><time>2026-03-25T11:44:19Z</time></trkpt><trkpt lat="41.07807393246311" lon="14.853295395810669"><ele>369.0</ele><time>2026-03-25T11:44:22Z</time></trkpt><trkpt lat="41.078021073961374" lon="14.853392923098045"><ele>369.0</ele><time>2026-03-25T11:44:24Z</time></trkpt><trkpt lat="41.07796452770565" lon="14.853518316925078"><ele>369.0</ele><time>2026-03-25T11:44:26Z</time></trkpt><trkpt lat="41.07789962382891" lon="14.853674548139637"><ele>369.0</ele><time>2026-03-25T11:44:28Z</time></trkpt><trkpt lat="41.07785477441573" lon="14.85381296694632"><ele>369.0</ele><time>2026-03-25T11:44:30Z</time></trkpt><trkpt lat="41.0778146187174" lon="14.853950521333227"><ele>369.0</ele><time>2026-03-25T11:44:32Z</time></trkpt><trkpt lat="41.07776260120806" lon="14.854081076923874"><ele>369.0</ele><time>2026-03-25T11:44:34Z</time></trkpt><trkpt lat="41.07769439764228" lon="14.854194802032248"><ele>369.0</ele><time>2026-03-25T11:44:36Z</time></trkpt><trkpt lat="41.07760977634806" lon="14.854323261137031"><ele>369.2</ele><time>2026-03-25T11:44:38Z</time></trkpt><trkpt lat="41.07755259600496" lon="14.854390439972436"><ele>369.4</ele><time>2026-03-25T11:44:40Z</time></trkpt><trkpt lat="41.07748687903031" lon="14.854451464096766"><ele>369.6</ele><time>2026-03-25T11:44:42Z</time></trkpt><trkpt lat="41.0774222855039" lon="14.854561529707196"><ele>369.8</ele><time>2026-03-25T11:44:44Z</time></trkpt><trkpt lat="41.07737206348653" lon="14.854676955892007"><ele>370.0</ele><time>2026-03-25T11:44:46Z</time></trkpt><trkpt lat="41.07731625020832" lon="14.85478680581315"><ele>370.0</ele><time>2026-03-25T11:44:48Z</time></trkpt><trkpt lat="41.077264433775476" lon="14.854890902141241"><ele>370.0</ele><time>2026-03-25T11:44:50Z</time></trkpt><trkpt lat="41.07720032214479" lon="14.854999264642599"><ele>370.0</ele><time>2026-03-25T11:44:52Z</time></trkpt><trkpt lat="41.077145412216204" lon="14.855114106796714"><ele>370.0</ele><time>2026-03-25T11:44:54Z</time></trkpt><trkpt lat="41.07708772866835" lon="14.855232999338"><ele>370.0</ele><time>2026-03-25T11:44:56Z</time></trkpt><trkpt lat="41.07704260225362" lon="14.855352256775925"><ele>370.6</ele><time>2026-03-25T11:44:58Z</time></trkpt><trkpt lat="41.07698557832816" lon="14.855462162610628"><ele>371.2</ele><time>2026-03-25T11:45:00Z</time></trkpt><trkpt lat="41.076931203888066" lon="14.855571263751594"><ele>371.79999999999995</ele><time>2026-03-25T11:45:02Z</time></trkpt><trkpt lat="41.07687533316034" lon="14.855708518028854"><ele>372.4</ele><time>2026-03-25T11:45:03.999Z</time></trkpt><trkpt lat="41.0768151596235" lon="14.855814034971946"><ele>373.0</ele><time>2026-03-25T11:45:05.999Z</time></trkpt><trkpt lat="41.07677267725807" lon="14.855891626597003"><ele>373.16666666666663</ele><time>2026-03-25T11:45:07.999Z</time></trkpt><trkpt lat="41.07670944218946" lon="14.856008193771661"><ele>373.3333333333333</ele><time>2026-03-25T11:45:09.999Z</time></trkpt><trkpt lat="41.07666543064911" lon="14.856105892034387"><ele>373.5</ele><time>2026-03-25T11:45:11.999Z</time></trkpt><trkpt lat="41.07661418814987" lon="14.856198359698741"><ele>373.6666666666667</ele><time>2026-03-25T11:45:13.999Z</time></trkpt><trkpt lat="41.07657509750967" lon="14.856277734467673"><ele>373.83333333333337</ele><time>2026-03-25T11:45:15.999Z</time></trkpt><trkpt lat="41.076514230732904" lon="14.856321261064327"><ele>374.0</ele><time>2026-03-25T11:45:17.999Z</time></trkpt><trkpt lat="41.0764460846683" lon="14.85628901012644"><ele>374.0</ele><time>2026-03-25T11:45:19.999Z</time></trkpt><trkpt lat="41.076386127379436" lon="14.856228407949633"><ele>374.0</ele><time>2026-03-25T11:45:21.999Z</time></trkpt><trkpt lat="41.07629753649567" lon="14.85616734102838"><ele>374.0</ele><time>2026-03-25T11:45:24.999Z</time></trkpt><trkpt lat="41.07623144318706" lon="14.856138420686635"><ele>374.0</ele><time>2026-03-25T11:45:26.999Z</time></trkpt><trkpt lat="41.07617196840688" lon="14.856095207312945"><ele>374.0</ele><time>2026-03-25T11:45:28.999Z</time></trkpt><trkpt lat="41.07611201402476" lon="14.856057725868816"><ele>374.0</ele><time>2026-03-25T11:45:30.999Z</time></trkpt><trkpt lat="41.07603522773091" lon="14.856061152959413"><ele>374.0</ele><time>2026-03-25T11:45:32.999Z</time></trkpt><trkpt lat="41.075960364527106" lon="14.856025602078702"><ele>374.0</ele><time>2026-03-25T11:45:34.999Z</time></trkpt><trkpt lat="41.075891153241884" lon="14.855984066872265"><ele>374.0</ele><time>2026-03-25T11:45:36.999Z</time></trkpt><trkpt lat="41.07581189944585" lon="14.855953463978668"><ele>374.0</ele><time>2026-03-25T11:45:38.999Z</time></trkpt><trkpt lat="41.0757419915868" lon="14.855893247976"><ele>374.0</ele><time>2026-03-25T11:45:40.999Z</time></trkpt><trkpt lat="41.07568607094109" lon="14.855850943917252"><ele>374.0</ele><time>2026-03-25T11:45:42.999Z</time></trkpt><trkpt lat="41.075598290845235" lon="14.855807859790005"><ele>373.5</ele><time>2026-03-25T11:45:46.999Z</time></trkpt><trkpt lat="41.07551998636444" lon="14.85577298999013"><ele>373.0</ele><time>2026-03-25T11:45:49.999Z</time></trkpt><trkpt lat="41.07544749029427" lon="14.855774412333867"><ele>372.5</ele><time>2026-03-25T11:45:51.999Z</time></trkpt><trkpt lat="41.07537085480267" lon="14.855726686625962"><ele>372.0</ele><time>2026-03-25T11:45:53.999Z</time></trkpt><trkpt lat="41.07529530244302" lon="14.855673947660737"><ele>371.5</ele><time>2026-03-25T11:45:55.999Z</time></trkpt><trkpt lat="41.07520869674438" lon="14.855633278344266"><ele>371.0</ele><time>2026-03-25T11:45:58Z</time></trkpt><trkpt lat="41.07512585331683" lon="14.855585703517006"><ele>371.0</ele><time>2026-03-25T11:46:00Z</time></trkpt><trkpt lat="41.07503713050533" lon="14.855541723287608"><ele>371.0</ele><time>2026-03-25T11:46:02Z</time></trkpt><trkpt lat="41.0749580679613" lon="14.855499326408395"><ele>371.0</ele><time>2026-03-25T11:46:04Z</time></trkpt><trkpt lat="41.074878506575864" lon="14.855462102252126"><ele>371.0</ele><time>2026-03-25T11:46:06Z</time></trkpt><trkpt lat="41.07479647854748" lon="14.855423082271177"><ele>371.0</ele><time>2026-03-25T11:46:08Z</time></trkpt><trkpt lat="41.07472007307666" lon="14.855382531478933"><ele>371.0</ele><time>2026-03-25T11:46:10Z</time></trkpt><trkpt lat="41.074648160863944" lon="14.85534834366749"><ele>371.1666666666667</ele><time>2026-03-25T11:46:12Z</time></trkpt><trkpt lat="41.07457716261968" lon="14.855344729457293"><ele>371.33333333333337</ele><time>2026-03-25T11:46:14Z</time></trkpt><trkpt lat="41.074503372593504" lon="14.855385141861317"><ele>371.5</ele><time>2026-03-25T11:46:16Z</time></trkpt><trkpt lat="41.074428595893345" lon="14.855401242531983"><ele>371.6666666666667</ele><time>2026-03-25T11:46:18Z</time></trkpt><trkpt lat="41.07433739950314" lon="14.855388416390852"><ele>371.8333333333333</ele><time>2026-03-25T11:46:21Z</time></trkpt><trkpt lat="41.07427081736768" lon="14.85536263288036"><ele>372.0</ele><time>2026-03-25T11:46:23Z</time></trkpt><trkpt lat="41.074204841570804" lon="14.85531976255905"><ele>372.00000000000006</ele><time>2026-03-25T11:46:25Z</time></trkpt><trkpt lat="41.07413664791037" lon="14.855281687826105"><ele>372.0</ele><time>2026-03-25T11:46:27Z</time></trkpt><trkpt lat="41.07407005722919" lon="14.855244006818697"><ele>372.0</ele><time>2026-03-25T11:46:29Z</time></trkpt><trkpt lat="41.0740075439211" lon="14.855214342794685"><ele>372.0</ele><time>2026-03-25T11:46:31Z</time></trkpt><trkpt lat="41.07393557173112" lon="14.855193773052665"><ele>372.0</ele><time>2026-03-25T11:46:33Z</time></trkpt><trkpt lat="41.0738587810324" lon="14.855164457495398"><ele>372.00000000000006</ele><time>2026-03-25T11:46:35Z</time></trkpt><trkpt lat="41.073784854063504" lon="14.855128632690588"><ele>372.0</ele><time>2026-03-25T11:46:37Z</time></trkpt><trkpt lat="41.07370385333278" lon="14.855101317062646"><ele>372.0</ele><time>2026-03-25T11:46:39Z</time></trkpt><trkpt lat="41.07361463338279" lon="14.855098302339528"><ele>372.0</ele><time>2026-03-25T11:46:41Z</time></trkpt><trkpt lat="41.07354893545317" lon="14.855176492782032"><ele>372.0</ele><time>2026-03-25T11:46:43Z</time></trkpt><trkpt lat="41.073509766772474" lon="14.855264920921812"><ele>372.0</ele><time>2026-03-25T11:46:45Z</time></trkpt><trkpt lat="41.07348440986176" lon="14.85539253745422"><ele>372.0</ele><time>2026-03-25T11:46:47Z</time></trkpt><trkpt lat="41.07345143779842" lon="14.855508842214853"><ele>372.0</ele><time>2026-03-25T11:46:49Z</time></trkpt><trkpt lat="41.0734186412303" lon="14.855627494593222"><ele>372.0</ele><time>2026-03-25T11:46:51Z</time></trkpt><trkpt lat="41.07339522221159" lon="14.855743984493671"><ele>372.0</ele><time>2026-03-25T11:46:53Z</time></trkpt><trkpt lat="41.07336301917589" lon="14.85585346498767"><ele>372.0</ele><time>2026-03-25T11:46:55Z</time></trkpt><trkpt lat="41.073334513331474" lon="14.855984487558477"><ele>372.0</ele><time>2026-03-25T11:46:57Z</time></trkpt><trkpt lat="41.07329317763306" lon="14.856102963329457"><ele>372.0</ele><time>2026-03-25T11:46:58Z</time></trkpt><trkpt lat="41.07320898558824" lon="14.856108067224357"><ele>372.1666666666667</ele><time>2026-03-25T11:47:00Z</time></trkpt><trkpt lat="41.07312852266553" lon="14.856051136756772"><ele>372.3333333333333</ele><time>2026-03-25T11:47:02Z</time></trkpt><trkpt lat="41.07306423250795" lon="14.856042931266373"><ele>372.5</ele><time>2026-03-25T11:47:03Z</time></trkpt><trkpt lat="41.07300625367481" lon="14.855971990543196"><ele>372.66666666666663</ele><time>2026-03-25T11:47:05Z</time></trkpt><trkpt lat="41.0729572701308" lon="14.855884622587785"><ele>372.8333333333333</ele><time>2026-03-25T11:47:06.999Z</time></trkpt><trkpt lat="41.07289055383355" lon="14.8558960198173"><ele>373.0</ele><time>2026-03-25T11:47:08.999Z</time></trkpt><trkpt lat="41.07281031432289" lon="14.855975551200656"><ele>373.16666666666663</ele><time>2026-03-25T11:47:11.999Z</time></trkpt><trkpt lat="41.07278240484181" lon="14.856071771168791"><ele>373.3333333333333</ele><time>2026-03-25T11:47:13.999Z</time></trkpt><trkpt lat="41.07274691176412" lon="14.856166525943827"><ele>373.5</ele><time>2026-03-25T11:47:15.999Z</time></trkpt><trkpt lat="41.0727243797902" lon="14.856261857881435"><ele>373.6666666666667</ele><time>2026-03-25T11:47:17.999Z</time></trkpt><trkpt lat="41.07270169518794" lon="14.85635848105835"><ele>373.83333333333337</ele><time>2026-03-25T11:47:19.999Z</time></trkpt><trkpt lat="41.07267698565134" lon="14.856453280565262"><ele>374.0</ele><time>2026-03-25T11:47:21.999Z</time></trkpt><trkpt lat="41.07264790690936" lon="14.856539070180846"><ele>374.0</ele><time>2026-03-25T11:47:23.999Z</time></trkpt><trkpt lat="41.07258831240961" lon="14.85657892729392"><ele>374.0</ele><time>2026-03-25T11:47:25.999Z</time></trkpt><trkpt lat="41.07251431509649" lon="14.85655221428866"><ele>374.0</ele><time>2026-03-25T11:47:27.999Z</time></trkpt><trkpt lat="41.072452830976474" lon="14.856493140531386"><ele>374.0</ele><time>2026-03-25T11:47:29.999Z</time></trkpt><trkpt lat="41.07237818460818" lon="14.856464149667701"><ele>374.0</ele><time>2026-03-25T11:47:31.999Z</time></trkpt><trkpt lat="41.07231076179478" lon="14.856425457799725"><ele>374.0</ele><time>2026-03-25T11:47:33.999Z</time></trkpt><trkpt lat="41.072234039886965" lon="14.85638811218831"><ele>374.1666666666667</ele><time>2026-03-25T11:47:35.999Z</time></trkpt><trkpt lat="41.07215070019536" lon="14.856348949854254"><ele>374.33333333333337</ele><time>2026-03-25T11:47:37.999Z</time></trkpt><trkpt lat="41.072077942286064" lon="14.856302059131474"><ele>374.5</ele><time>2026-03-25T11:47:39.999Z</time></trkpt><trkpt lat="41.07198800462906" lon="14.856264414444839"><ele>374.6666666666667</ele><time>2026-03-25T11:47:41.999Z</time></trkpt><trkpt lat="41.07191088149266" lon="14.856230777821601"><ele>374.8333333333333</ele><time>2026-03-25T11:47:44.999Z</time></trkpt><trkpt lat="41.071850144861365" lon="14.85620405695424"><ele>375.0</ele><time>2026-03-25T11:47:46.999Z</time></trkpt><trkpt lat="41.07177781039082" lon="14.856296827791294"><ele>375.0</ele><time>2026-03-25T11:47:48.999Z</time></trkpt><trkpt lat="41.071731484209266" lon="14.856409670994637"><ele>375.0</ele><time>2026-03-25T11:47:50.999Z</time></trkpt><trkpt lat="41.07165917787678" lon="14.85650571048983"><ele>375.0</ele><time>2026-03-25T11:47:52.999Z</time></trkpt><trkpt lat="41.07158687880844" lon="14.856582612184162"><ele>375.0</ele><time>2026-03-25T11:47:54.999Z</time></trkpt><trkpt lat="41.07149469898674" lon="14.856664930467412"><ele>375.0</ele><time>2026-03-25T11:47:56.999Z</time></trkpt><trkpt lat="41.07140951858517" lon="14.8567099850998"><ele>375.1666666666667</ele><time>2026-03-25T11:47:58.999Z</time></trkpt><trkpt lat="41.071318797238305" lon="14.856733230377168"><ele>375.3333333333333</ele><time>2026-03-25T11:48:00.999Z</time></trkpt><trkpt lat="41.07122856264559" lon="14.856754652351409"><ele>375.5</ele><time>2026-03-25T11:48:03Z</time></trkpt><trkpt lat="41.07113873728818" lon="14.85677237608111"><ele>375.66666666666663</ele><time>2026-03-25T11:48:05Z</time></trkpt><trkpt lat="41.0710481513707" lon="14.856778826823973"><ele>375.8333333333333</ele><time>2026-03-25T11:48:07Z</time></trkpt><trkpt lat="41.070966818599956" lon="14.856796127979523"><ele>376.0</ele><time>2026-03-25T11:48:09Z</time></trkpt><trkpt lat="41.07088479103729" lon="14.856805975247914"><ele>375.8333333333333</ele><time>2026-03-25T11:48:11Z</time></trkpt><trkpt lat="41.07081124679182" lon="14.856817998072305"><ele>375.66666666666663</ele><time>2026-03-25T11:48:13Z</time></trkpt><trkpt lat="41.07073179329285" lon="14.856825599385868"><ele>375.5</ele><time>2026-03-25T11:48:15Z</time></trkpt><trkpt lat="41.07065327214813" lon="14.856831276690894"><ele>375.3333333333333</ele><time>2026-03-25T11:48:17Z</time></trkpt><trkpt lat="41.07057196157886" lon="14.856834490908161"><ele>375.1666666666667</ele><time>2026-03-25T11:48:19Z</time></trkpt><trkpt lat="41.070486172974874" lon="14.856850014716192"><ele>375.0</ele><time>2026-03-25T11:48:21Z</time></trkpt><trkpt lat="41.07040303294566" lon="14.856854424063261"><ele>375.0</ele><time>2026-03-25T11:48:23Z</time></trkpt><trkpt lat="41.07031630201416" lon="14.856859570366487"><ele>375.0</ele><time>2026-03-25T11:48:25Z</time></trkpt><trkpt lat="41.070230194945175" lon="14.856865516111025"><ele>375.0</ele><time>2026-03-25T11:48:27Z</time></trkpt><trkpt lat="41.07014358877151" lon="14.856882663286333"><ele>375.0</ele><time>2026-03-25T11:48:29Z</time></trkpt><trkpt lat="41.0700592310674" lon="14.85690523040072"><ele>375.0</ele><time>2026-03-25T11:48:31Z</time></trkpt><trkpt lat="41.069972741219594" lon="14.856922931982526"><ele>375.0</ele><time>2026-03-25T11:48:33Z</time></trkpt><trkpt lat="41.06988950212663" lon="14.856932372367178"><ele>374.2</ele><time>2026-03-25T11:48:35Z</time></trkpt><trkpt lat="41.069800044757386" lon="14.856935643101929"><ele>373.4</ele><time>2026-03-25T11:48:37Z</time></trkpt><trkpt lat="41.069711270788055" lon="14.8569464449543"><ele>372.6</ele><time>2026-03-25T11:48:39Z</time></trkpt><trkpt lat="41.06962140159716" lon="14.856955396063645"><ele>371.8</ele><time>2026-03-25T11:48:41Z</time></trkpt><trkpt lat="41.06953096680704" lon="14.856965439416992"><ele>371.0</ele><time>2026-03-25T11:48:43Z</time></trkpt><trkpt lat="41.06943890746734" lon="14.856978146332608"><ele>371.0</ele><time>2026-03-25T11:48:45Z</time></trkpt><trkpt lat="41.06934721842777" lon="14.85698030117052"><ele>371.0</ele><time>2026-03-25T11:48:47Z</time></trkpt><trkpt lat="41.06926694084771" lon="14.856975848361591"><ele>371.0</ele><time>2026-03-25T11:48:49Z</time></trkpt><trkpt lat="41.06916834931435" lon="14.85699604763722"><ele>371.0</ele><time>2026-03-25T11:48:51Z</time></trkpt><trkpt lat="41.06908249470795" lon="14.857000193632702"><ele>371.0</ele><time>2026-03-25T11:48:53Z</time></trkpt><trkpt lat="41.06899009517881" lon="14.857011518187404"><ele>371.83333333333337</ele><time>2026-03-25T11:48:55Z</time></trkpt><trkpt lat="41.06890099686205" lon="14.857029946002683"><ele>372.6666666666667</ele><time>2026-03-25T11:48:57Z</time></trkpt><trkpt lat="41.068810391721904" lon="14.857038585711784"><ele>373.5</ele><time>2026-03-25T11:48:59Z</time></trkpt><trkpt lat="41.06871854253178" lon="14.857049218292959"><ele>374.3333333333333</ele><time>2026-03-25T11:49:01Z</time></trkpt><trkpt lat="41.06863265048226" lon="14.857062993618237"><ele>375.16666666666663</ele><time>2026-03-25T11:49:03Z</time></trkpt><trkpt lat="41.06854829899198" lon="14.857070604999542"><ele>376.0</ele><time>2026-03-25T11:49:05Z</time></trkpt><trkpt lat="41.068464578409426" lon="14.857089026718368"><ele>376.0</ele><time>2026-03-25T11:49:07Z</time></trkpt><trkpt lat="41.06838144259034" lon="14.857097207588893"><ele>376.0</ele><time>2026-03-25T11:49:09Z</time></trkpt><trkpt lat="41.068299572093366" lon="14.857107375080883"><ele>376.0</ele><time>2026-03-25T11:49:11Z</time></trkpt><trkpt lat="41.06821732860313" lon="14.857121435297852"><ele>376.0</ele><time>2026-03-25T11:49:13Z</time></trkpt><trkpt lat="41.068136513397945" lon="14.857125246043509"><ele>376.0</ele><time>2026-03-25T11:49:15Z</time></trkpt><trkpt lat="41.06804630567782" lon="14.857145917778398"><ele>376.0</ele><time>2026-03-25T11:49:16.999Z</time></trkpt><trkpt lat="41.06795977231679" lon="14.857154223154339"><ele>376.16666666666663</ele><time>2026-03-25T11:49:18.999Z</time></trkpt><trkpt lat="41.06787142197117" lon="14.857165263268715"><ele>376.3333333333333</ele><time>2026-03-25T11:49:20.999Z</time></trkpt><trkpt lat="41.06778617750651" lon="14.857182885268713"><ele>376.5</ele><time>2026-03-25T11:49:22.999Z</time></trkpt><trkpt lat="41.06769986351232" lon="14.857188823762497"><ele>376.6666666666667</ele><time>2026-03-25T11:49:24.999Z</time></trkpt><trkpt lat="41.06761620191495" lon="14.857192456387054"><ele>376.83333333333337</ele><time>2026-03-25T11:49:26.999Z</time></trkpt><trkpt lat="41.06753555868073" lon="14.857177277657623"><ele>377.0</ele><time>2026-03-25T11:49:28.999Z</time></trkpt><trkpt lat="41.06746200898075" lon="14.85712578592688"><ele>377.0</ele><time>2026-03-25T11:49:30.999Z</time></trkpt><trkpt lat="41.067386257758386" lon="14.857079900895005"><ele>377.0</ele><time>2026-03-25T11:49:32.999Z</time></trkpt><trkpt lat="41.0673122600425" lon="14.857017611062284"><ele>377.0</ele><time>2026-03-25T11:49:34.999Z</time></trkpt><trkpt lat="41.06724001287703" lon="14.856955627273145"><ele>377.0</ele><time>2026-03-25T11:49:36.999Z</time></trkpt><trkpt lat="41.06716317636918" lon="14.856895746965844"><ele>377.0</ele><time>2026-03-25T11:49:38.999Z</time></trkpt><trkpt lat="41.06708681200983" lon="14.856834072526425"><ele>377.0</ele><time>2026-03-25T11:49:40.999Z</time></trkpt><trkpt lat="41.06700986385523" lon="14.856778734874538"><ele>377.33333333333337</ele><time>2026-03-25T11:49:42.999Z</time></trkpt><trkpt lat="41.06693293925706" lon="14.85672798583374"><ele>377.6666666666667</ele><time>2026-03-25T11:49:44.999Z</time></trkpt><trkpt lat="41.066850001065106" lon="14.85667341101482"><ele>378.0</ele><time>2026-03-25T11:49:46.999Z</time></trkpt><trkpt lat="41.066777970772435" lon="14.856614496176107"><ele>378.3333333333333</ele><time>2026-03-25T11:49:48.999Z</time></trkpt><trkpt lat="41.066694585850676" lon="14.856578285788572"><ele>378.66666666666663</ele><time>2026-03-25T11:49:50.999Z</time></trkpt><trkpt lat="41.066602634288415" lon="14.85658220055313"><ele>379.0</ele><time>2026-03-25T11:49:52.999Z</time></trkpt><trkpt lat="41.0665146460563" lon="14.856598889050524"><ele>379.0</ele><time>2026-03-25T11:49:54.999Z</time></trkpt><trkpt lat="41.06640603659668" lon="14.856668633674197"><ele>379.0</ele><time>2026-03-25T11:49:56.999Z</time></trkpt><trkpt lat="41.06630853668394" lon="14.856756122103013"><ele>379.0</ele><time>2026-03-25T11:49:58.999Z</time></trkpt><trkpt lat="41.066205116051385" lon="14.856854670162138"><ele>379.0</ele><time>2026-03-25T11:50:00.999Z</time></trkpt><trkpt lat="41.0661093601229" lon="14.856961960042716"><ele>378.5</ele><time>2026-03-25T11:50:02.999Z</time></trkpt><trkpt lat="41.06601283196025" lon="14.857068470485133"><ele>378.0</ele><time>2026-03-25T11:50:04.999Z</time></trkpt><trkpt lat="41.0659653571441" lon="14.857123765092558"><ele>377.5</ele><time>2026-03-25T11:50:05.999Z</time></trkpt><trkpt lat="41.065914250377574" lon="14.857174647723"><ele>377.0</ele><time>2026-03-25T11:50:06.999Z</time></trkpt><trkpt lat="41.06585813920612" lon="14.857225830243129"><ele>376.5</ele><time>2026-03-25T11:50:07.999Z</time></trkpt><trkpt lat="41.065804398477425" lon="14.857278808291248"><ele>376.0</ele><time>2026-03-25T11:50:09Z</time></trkpt><trkpt lat="41.06574981403904" lon="14.857338986515142"><ele>376.0</ele><time>2026-03-25T11:50:10Z</time></trkpt><trkpt lat="41.06564289698376" lon="14.857450571455622"><ele>376.0</ele><time>2026-03-25T11:50:12Z</time></trkpt><trkpt lat="41.06558573065806" lon="14.857506873455701"><ele>376.0</ele><time>2026-03-25T11:50:13Z</time></trkpt><trkpt lat="41.065527117109916" lon="14.85756823817486"><ele>376.0</ele><time>2026-03-25T11:50:14Z</time></trkpt><trkpt lat="41.06546672667287" lon="14.857630676161218"><ele>376.0</ele><time>2026-03-25T11:50:15Z</time></trkpt><trkpt lat="41.065409168388065" lon="14.857687716209147"><ele>376.0</ele><time>2026-03-25T11:50:16Z</time></trkpt><trkpt lat="41.06534701383226" lon="14.85776188710697"><ele>375.16666666666663</ele><time>2026-03-25T11:50:17Z</time></trkpt><trkpt lat="41.06528197716426" lon="14.857823079932816"><ele>374.3333333333333</ele><time>2026-03-25T11:50:18Z</time></trkpt><trkpt lat="41.065211882609965" lon="14.85790457158081"><ele>373.5</ele><time>2026-03-25T11:50:19Z</time></trkpt><trkpt lat="41.06513369856686" lon="14.857951593548087"><ele>372.6666666666667</ele><time>2026-03-25T11:50:20Z</time></trkpt><trkpt lat="41.065069976508056" lon="14.858026298937725"><ele>371.83333333333337</ele><time>2026-03-25T11:50:21Z</time></trkpt><trkpt lat="41.0650105051159" lon="14.85810065699885"><ele>371.0</ele><time>2026-03-25T11:50:22Z</time></trkpt><trkpt lat="41.0649502322643" lon="14.858183551665237"><ele>371.6666666666667</ele><time>2026-03-25T11:50:23Z</time></trkpt><trkpt lat="41.06489402437927" lon="14.858276945408944"><ele>372.33333333333337</ele><time>2026-03-25T11:50:24Z</time></trkpt><trkpt lat="41.064861417232756" lon="14.858383238688868"><ele>373.0</ele><time>2026-03-25T11:50:25Z</time></trkpt><trkpt lat="41.064812971101226" lon="14.858475310966023"><ele>373.6666666666667</ele><time>2026-03-25T11:50:26Z</time></trkpt><trkpt lat="41.064769071546394" lon="14.858565101291543"><ele>374.3333333333333</ele><time>2026-03-25T11:50:27Z</time></trkpt><trkpt lat="41.06472448273968" lon="14.858660395569874"><ele>375.0</ele><time>2026-03-25T11:50:28Z</time></trkpt><trkpt lat="41.06468162559975" lon="14.858740822773784"><ele>375.3333333333333</ele><time>2026-03-25T11:50:29Z</time></trkpt><trkpt lat="41.06464551225716" lon="14.858822725254667"><ele>375.6666666666667</ele><time>2026-03-25T11:50:30Z</time></trkpt><trkpt lat="41.064611684383685" lon="14.858909645382747"><ele>376.0</ele><time>2026-03-25T11:50:31Z</time></trkpt><trkpt lat="41.06458172838627" lon="14.858985083430856"><ele>376.33333333333337</ele><time>2026-03-25T11:50:32Z</time></trkpt><trkpt lat="41.064550623713934" lon="14.85906286797186"><ele>376.6666666666667</ele><time>2026-03-25T11:50:33Z</time></trkpt><trkpt lat="41.06449903692412" lon="14.859193149938829"><ele>377.0</ele><time>2026-03-25T11:50:35Z</time></trkpt><trkpt lat="41.064453909223126" lon="14.859311018878124"><ele>377.6666666666667</ele><time>2026-03-25T11:50:37Z</time></trkpt><trkpt lat="41.06440969477316" lon="14.859429488003428"><ele>378.33333333333337</ele><time>2026-03-25T11:50:39Z</time></trkpt><trkpt lat="41.064367426239386" lon="14.859534818793357"><ele>379.0</ele><time>2026-03-25T11:50:41Z</time></trkpt><trkpt lat="41.06433351534345" lon="14.859632123363404"><ele>379.6666666666667</ele><time>2026-03-25T11:50:43Z</time></trkpt><trkpt lat="41.064297184394235" lon="14.85973731507897"><ele>380.3333333333333</ele><time>2026-03-25T11:50:45Z</time></trkpt><trkpt lat="41.06425797083487" lon="14.859841066744266"><ele>381.0</ele><time>2026-03-25T11:50:47Z</time></trkpt><trkpt lat="41.06422425061929" lon="14.859938627751141"><ele>381.0</ele><time>2026-03-25T11:50:49Z</time></trkpt><trkpt lat="41.064188562668335" lon="14.860029235152238"><ele>381.0</ele><time>2026-03-25T11:50:51Z</time></trkpt><trkpt lat="41.06414975928551" lon="14.860109654517181"><ele>381.0</ele><time>2026-03-25T11:50:53Z</time></trkpt><trkpt lat="41.064136962246565" lon="14.86020862848825"><ele>381.0</ele><time>2026-03-25T11:50:55Z</time></trkpt><trkpt lat="41.064136424789" lon="14.86032180483749"><ele>381.0</ele><time>2026-03-25T11:50:58Z</time></trkpt><trkpt lat="41.0641622474674" lon="14.860401111338783"><ele>381.0</ele><time>2026-03-25T11:51:00Z</time></trkpt><trkpt lat="41.06419625036067" lon="14.860482273102779"><ele>381.0</ele><time>2026-03-25T11:51:02Z</time></trkpt><trkpt lat="41.06425484226403" lon="14.860553362245996"><ele>380.8</ele><time>2026-03-25T11:51:04Z</time></trkpt><trkpt lat="41.06433225839662" lon="14.860626377158521"><ele>380.6</ele><time>2026-03-25T11:51:06Z</time></trkpt><trkpt lat="41.06442365680148" lon="14.860659027067912"><ele>380.4</ele><time>2026-03-25T11:51:08Z</time></trkpt><trkpt lat="41.06452934959784" lon="14.860698457342922"><ele>380.2</ele><time>2026-03-25T11:51:10Z</time></trkpt><trkpt lat="41.064630934262034" lon="14.860750089838172"><ele>380.0</ele><time>2026-03-25T11:51:12Z</time></trkpt><trkpt lat="41.06473845204413" lon="14.8608084666062"><ele>380.0</ele><time>2026-03-25T11:51:14Z</time></trkpt><trkpt lat="41.06485358129095" lon="14.86085547870467"><ele>380.0</ele><time>2026-03-25T11:51:16Z</time></trkpt><trkpt lat="41.06496362914398" lon="14.86090814229283"><ele>380.0</ele><time>2026-03-25T11:51:18Z</time></trkpt><trkpt lat="41.065067170649606" lon="14.860970882931655"><ele>380.0</ele><time>2026-03-25T11:51:19.999Z</time></trkpt><trkpt lat="41.06518031396697" lon="14.861017088671332"><ele>379.5</ele><time>2026-03-25T11:51:21.999Z</time></trkpt><trkpt lat="41.06529442028298" lon="14.861063975864901"><ele>379.0</ele><time>2026-03-25T11:51:23.999Z</time></trkpt><trkpt lat="41.06540090918839" lon="14.861116665980584"><ele>378.5</ele><time>2026-03-25T11:51:25.999Z</time></trkpt><trkpt lat="41.06550747285608" lon="14.861173730060568"><ele>378.0</ele><time>2026-03-25T11:51:27.999Z</time></trkpt><trkpt lat="41.06561054346263" lon="14.86123196850888"><ele>378.0</ele><time>2026-03-25T11:51:29.999Z</time></trkpt><trkpt lat="41.06571980805709" lon="14.861287289189086"><ele>378.0</ele><time>2026-03-25T11:51:31.999Z</time></trkpt><trkpt lat="41.06583885950959" lon="14.86133407655408"><ele>378.0</ele><time>2026-03-25T11:51:33.999Z</time></trkpt><trkpt lat="41.06589842170079" lon="14.861366466561362"><ele>378.0</ele><time>2026-03-25T11:51:34.999Z</time></trkpt><trkpt lat="41.06601573810503" lon="14.861422438752992"><ele>378.0</ele><time>2026-03-25T11:51:36.999Z</time></trkpt><trkpt lat="41.06607937173601" lon="14.861455088920362"><ele>377.79999999999995</ele><time>2026-03-25T11:51:37.999Z</time></trkpt><trkpt lat="41.066193808611935" lon="14.861511398507242"><ele>377.6</ele><time>2026-03-25T11:51:39.999Z</time></trkpt><trkpt lat="41.06626358570427" lon="14.861518924253101"><ele>377.4</ele><time>2026-03-25T11:51:40.999Z</time></trkpt><trkpt lat="41.066384323285284" lon="14.86153864840684"><ele>377.20000000000005</ele><time>2026-03-25T11:51:42.999Z</time></trkpt><trkpt lat="41.066446980782686" lon="14.8615561656295"><ele>377.0</ele><time>2026-03-25T11:51:43.999Z</time></trkpt><trkpt lat="41.06656983906534" lon="14.861598778150551"><ele>376.20000000000005</ele><time>2026-03-25T11:51:45.999Z</time></trkpt><trkpt lat="41.066703616794115" lon="14.86161641253612"><ele>375.4</ele><time>2026-03-25T11:51:47.999Z</time></trkpt><trkpt lat="41.06676524480817" lon="14.861636878215656"><ele>374.6</ele><time>2026-03-25T11:51:48.999Z</time></trkpt><trkpt lat="41.06688115191928" lon="14.861671676689776"><ele>373.79999999999995</ele><time>2026-03-25T11:51:50.999Z</time></trkpt><trkpt lat="41.06699034960641" lon="14.861717055897914"><ele>373.0</ele><time>2026-03-25T11:51:52.999Z</time></trkpt><trkpt lat="41.067057023570264" lon="14.861732422152032"><ele>373.0</ele><time>2026-03-25T11:51:53.999Z</time></trkpt><trkpt lat="41.06712671630695" lon="14.861746013733546"><ele>373.0</ele><time>2026-03-25T11:51:54.999Z</time></trkpt><trkpt lat="41.067193932022455" lon="14.861767534473751"><ele>373.0</ele><time>2026-03-25T11:51:55.999Z</time></trkpt><trkpt lat="41.06730351278446" lon="14.86185165589154"><ele>373.0</ele><time>2026-03-25T11:51:57.999Z</time></trkpt><trkpt lat="41.067359672571094" lon="14.861898412832833"><ele>373.0</ele><time>2026-03-25T11:51:58.999Z</time></trkpt><trkpt lat="41.06741904317719" lon="14.861945512842658"><ele>373.0</ele><time>2026-03-25T11:51:59.999Z</time></trkpt><trkpt lat="41.06747837468305" lon="14.861987321249606"><ele>372.4</ele><time>2026-03-25T11:52:00.999Z</time></trkpt><trkpt lat="41.06753894662004" lon="14.862028090864683"><ele>371.79999999999995</ele><time>2026-03-25T11:52:01.999Z</time></trkpt><trkpt lat="41.06764585105697" lon="14.862120683361683"><ele>371.2</ele><time>2026-03-25T11:52:03.999Z</time></trkpt><trkpt lat="41.067760466392386" lon="14.86219211903845"><ele>370.6</ele><time>2026-03-25T11:52:05.999Z</time></trkpt><trkpt lat="41.06781605400297" lon="14.862235359036177"><ele>370.0</ele><time>2026-03-25T11:52:06.999Z</time></trkpt><trkpt lat="41.06786673001385" lon="14.862285795173479"><ele>370.0</ele><time>2026-03-25T11:52:07.999Z</time></trkpt><trkpt lat="41.06792235329364" lon="14.8623417654959"><ele>370.0</ele><time>2026-03-25T11:52:08.999Z</time></trkpt><trkpt lat="41.06801695823275" lon="14.862436647430046"><ele>370.0</ele><time>2026-03-25T11:52:10.999Z</time></trkpt><trkpt lat="41.06807276976275" lon="14.862485488732114"><ele>370.0</ele><time>2026-03-25T11:52:11.999Z</time></trkpt><trkpt lat="41.06818092955278" lon="14.862573900217166"><ele>370.0</ele><time>2026-03-25T11:52:13.999Z</time></trkpt><trkpt lat="41.068240552343525" lon="14.862624384688042"><ele>369.8333333333333</ele><time>2026-03-25T11:52:15Z</time></trkpt><trkpt lat="41.068291350404564" lon="14.862675310790129"><ele>369.66666666666663</ele><time>2026-03-25T11:52:16Z</time></trkpt><trkpt lat="41.06834828583394" lon="14.862715985342382"><ele>369.5</ele><time>2026-03-25T11:52:17Z</time></trkpt><trkpt lat="41.06839633624212" lon="14.862774131020448"><ele>369.3333333333333</ele><time>2026-03-25T11:52:18Z</time></trkpt><trkpt lat="41.06846347139965" lon="14.862829719649103"><ele>369.1666666666667</ele><time>2026-03-25T11:52:19Z</time></trkpt><trkpt lat="41.068563552423306" lon="14.862934413823279"><ele>369.0</ele><time>2026-03-25T11:52:21Z</time></trkpt><trkpt lat="41.068668015964306" lon="14.86305014493068"><ele>369.0</ele><time>2026-03-25T11:52:23Z</time></trkpt><trkpt lat="41.068722708829334" lon="14.86310048618381"><ele>369.0</ele><time>2026-03-25T11:52:24Z</time></trkpt><trkpt lat="41.06877618560543" lon="14.86315527847043"><ele>369.0</ele><time>2026-03-25T11:52:25Z</time></trkpt><trkpt lat="41.0688329246194" lon="14.863216448687341"><ele>369.0</ele><time>2026-03-25T11:52:26Z</time></trkpt><trkpt lat="41.06892214824398" lon="14.863348662612001"><ele>369.0</ele><time>2026-03-25T11:52:28Z</time></trkpt><trkpt lat="41.06896938784475" lon="14.86341735002047"><ele>369.0</ele><time>2026-03-25T11:52:29Z</time></trkpt><trkpt lat="41.069016906109184" lon="14.863490088195347"><ele>368.7142857142857</ele><time>2026-03-25T11:52:30Z</time></trkpt><trkpt lat="41.06906138732601" lon="14.86356060191291"><ele>368.42857142857144</ele><time>2026-03-25T11:52:31Z</time></trkpt><trkpt lat="41.06910272966439" lon="14.863631365523178"><ele>368.1428571428571</ele><time>2026-03-25T11:52:32Z</time></trkpt><trkpt lat="41.069145153452574" lon="14.86370574741223"><ele>367.8571428571429</ele><time>2026-03-25T11:52:33Z</time></trkpt><trkpt lat="41.06919024094712" lon="14.863776411636463"><ele>367.5714285714286</ele><time>2026-03-25T11:52:34Z</time></trkpt><trkpt lat="41.06923520247799" lon="14.863844189277202"><ele>367.2857142857143</ele><time>2026-03-25T11:52:35Z</time></trkpt><trkpt lat="41.06927621717374" lon="14.863911649931902"><ele>367.0</ele><time>2026-03-25T11:52:36Z</time></trkpt><trkpt lat="41.069315694702965" lon="14.86397717048624"><ele>367.0</ele><time>2026-03-25T11:52:37Z</time></trkpt><trkpt lat="41.06935642053067" lon="14.864041552684549"><ele>367.0</ele><time>2026-03-25T11:52:38Z</time></trkpt><trkpt lat="41.06942519305208" lon="14.864163103336576"><ele>367.0</ele><time>2026-03-25T11:52:40Z</time></trkpt><trkpt lat="41.06950476668895" lon="14.864281714970959"><ele>367.0</ele><time>2026-03-25T11:52:42Z</time></trkpt><trkpt lat="41.06958378292288" lon="14.86439940589029"><ele>367.0</ele><time>2026-03-25T11:52:44Z</time></trkpt><trkpt lat="41.06968569021287" lon="14.86449267196155"><ele>366.6</ele><time>2026-03-25T11:52:46Z</time></trkpt><trkpt lat="41.06974415971637" lon="14.864550311629271"><ele>366.20000000000005</ele><time>2026-03-25T11:52:47Z</time></trkpt><trkpt lat="41.069840058154234" lon="14.864620369499436"><ele>365.8</ele><time>2026-03-25T11:52:49Z</time></trkpt><trkpt lat="41.069954379206266" lon="14.864677646151641"><ele>365.4</ele><time>2026-03-25T11:52:51Z</time></trkpt><trkpt lat="41.070056507202956" lon="14.864737989458298"><ele>365.0</ele><time>2026-03-25T11:52:53Z</time></trkpt><trkpt lat="41.070150472259435" lon="14.864788718170573"><ele>365.0</ele><time>2026-03-25T11:52:55Z</time></trkpt><trkpt lat="41.07025489204408" lon="14.864834928922958"><ele>365.0</ele><time>2026-03-25T11:52:57Z</time></trkpt><trkpt lat="41.07034770412662" lon="14.864882251749123"><ele>365.0</ele><time>2026-03-25T11:52:59Z</time></trkpt><trkpt lat="41.07044344067851" lon="14.864931703847837"><ele>365.0</ele><time>2026-03-25T11:53:01Z</time></trkpt><trkpt lat="41.07055590108779" lon="14.864971328147"><ele>365.0</ele><time>2026-03-25T11:53:03Z</time></trkpt><trkpt lat="41.07065789729174" lon="14.865014023861404"><ele>365.0</ele><time>2026-03-25T11:53:05Z</time></trkpt><trkpt lat="41.07071948461347" lon="14.865038764910999"><ele>365.0</ele><time>2026-03-25T11:53:07Z</time></trkpt><trkpt lat="41.070812458142335" lon="14.865081516638988"><ele>365.0</ele><time>2026-03-25T11:53:09Z</time></trkpt><trkpt lat="41.07089924753577" lon="14.865112865046921"><ele>365.0</ele><time>2026-03-25T11:53:11Z</time></trkpt><trkpt lat="41.070936288872446" lon="14.865199589144623"><ele>365.0</ele><time>2026-03-25T11:53:13Z</time></trkpt><trkpt lat="41.07091919166248" lon="14.865333786717208"><ele>365.0</ele><time>2026-03-25T11:53:15Z</time></trkpt><trkpt lat="41.07092056287655" lon="14.86546002593534"><ele>364.6666666666667</ele><time>2026-03-25T11:53:17Z</time></trkpt><trkpt lat="41.07094237109043" lon="14.86560747525696"><ele>364.33333333333337</ele><time>2026-03-25T11:53:19Z</time></trkpt><trkpt lat="41.070949865511295" lon="14.865712041213454"><ele>364.0</ele><time>2026-03-25T11:53:20Z</time></trkpt><trkpt lat="41.07092475261499" lon="14.865798194988365"><ele>363.6666666666667</ele><time>2026-03-25T11:53:21Z</time></trkpt><trkpt lat="41.07096110074159" lon="14.86593823824857"><ele>363.3333333333333</ele><time>2026-03-25T11:53:22.999Z</time></trkpt><trkpt lat="41.070952692592805" lon="14.86602286752575"><ele>363.0</ele><time>2026-03-25T11:53:23.999Z</time></trkpt><trkpt lat="41.07095194081323" lon="14.866158891304375"><ele>362.2</ele><time>2026-03-25T11:53:25.999Z</time></trkpt><trkpt lat="41.0709267504371" lon="14.866271370938017"><ele>361.4</ele><time>2026-03-25T11:53:27.999Z</time></trkpt><trkpt lat="41.07095645954976" lon="14.866360448114392"><ele>360.59999999999997</ele><time>2026-03-25T11:53:29.999Z</time></trkpt><trkpt lat="41.07101425221283" lon="14.866455255193577"><ele>359.79999999999995</ele><time>2026-03-25T11:53:31.999Z</time></trkpt><trkpt lat="41.0710872239552" lon="14.866553228377713"><ele>359.0</ele><time>2026-03-25T11:53:33.999Z</time></trkpt><trkpt lat="41.07118250347561" lon="14.86665112682304"><ele>359.0</ele><time>2026-03-25T11:53:35.999Z</time></trkpt><trkpt lat="41.0712885494471" lon="14.866759915272826"><ele>359.0</ele><time>2026-03-25T11:53:37.999Z</time></trkpt><trkpt lat="41.071350713859324" lon="14.866816603131268"><ele>359.0</ele><time>2026-03-25T11:53:38.999Z</time></trkpt><trkpt lat="41.071416334668356" lon="14.866876805608673"><ele>359.0</ele><time>2026-03-25T11:53:39.999Z</time></trkpt><trkpt lat="41.07147726996964" lon="14.866942923189976"><ele>359.0</ele><time>2026-03-25T11:53:40.999Z</time></trkpt><trkpt lat="41.07153908719729" lon="14.867015717920163"><ele>357.6666666666667</ele><time>2026-03-25T11:53:41.999Z</time></trkpt><trkpt lat="41.07161048051174" lon="14.867092525197737"><ele>356.33333333333337</ele><time>2026-03-25T11:53:42.999Z</time></trkpt><trkpt lat="41.07167797203004" lon="14.86716242046273"><ele>355.0</ele><time>2026-03-25T11:53:43.999Z</time></trkpt><trkpt lat="41.07174307689353" lon="14.867234598541376"><ele>353.6666666666667</ele><time>2026-03-25T11:53:44.999Z</time></trkpt><trkpt lat="41.07181018898315" lon="14.867305476361222"><ele>352.3333333333333</ele><time>2026-03-25T11:53:45.999Z</time></trkpt><trkpt lat="41.07187260657943" lon="14.867384632912536"><ele>351.0</ele><time>2026-03-25T11:53:46.999Z</time></trkpt><trkpt lat="41.07194162582442" lon="14.867457313299896"><ele>351.0</ele><time>2026-03-25T11:53:47.999Z</time></trkpt><trkpt lat="41.072006870966675" lon="14.867537076203565"><ele>351.0</ele><time>2026-03-25T11:53:48.999Z</time></trkpt><trkpt lat="41.07207016419288" lon="14.867625099261653"><ele>351.0</ele><time>2026-03-25T11:53:49.999Z</time></trkpt><trkpt lat="41.07213381382059" lon="14.86771887686472"><ele>351.0</ele><time>2026-03-25T11:53:50.999Z</time></trkpt><trkpt lat="41.072195588679634" lon="14.867799969086112"><ele>351.0</ele><time>2026-03-25T11:53:51.999Z</time></trkpt><trkpt lat="41.07226482719223" lon="14.867888173300116"><ele>351.1666666666667</ele><time>2026-03-25T11:53:52.999Z</time></trkpt><trkpt lat="41.07232636566645" lon="14.86796991404936"><ele>351.3333333333333</ele><time>2026-03-25T11:53:53.999Z</time></trkpt><trkpt lat="41.07238722262599" lon="14.868054562932963"><ele>351.5</ele><time>2026-03-25T11:53:54.999Z</time></trkpt><trkpt lat="41.07244863329161" lon="14.868136408854697"><ele>351.66666666666663</ele><time>2026-03-25T11:53:55.999Z</time></trkpt><trkpt lat="41.07250848905807" lon="14.868219631428133"><ele>351.8333333333333</ele><time>2026-03-25T11:53:56.999Z</time></trkpt><trkpt lat="41.07257234063365" lon="14.868305487462587"><ele>352.0</ele><time>2026-03-25T11:53:57.999Z</time></trkpt><trkpt lat="41.072626543356606" lon="14.868386121720523"><ele>350.8333333333333</ele><time>2026-03-25T11:53:58.999Z</time></trkpt><trkpt lat="41.07268046294506" lon="14.868465631673264"><ele>349.66666666666663</ele><time>2026-03-25T11:53:59.999Z</time></trkpt><trkpt lat="41.07274711642612" lon="14.868541419663021"><ele>348.5</ele><time>2026-03-25T11:54:00.999Z</time></trkpt><trkpt lat="41.07279766765499" lon="14.868617838837643"><ele>347.3333333333333</ele><time>2026-03-25T11:54:01.999Z</time></trkpt><trkpt lat="41.072847727933635" lon="14.868688384481537"><ele>346.1666666666667</ele><time>2026-03-25T11:54:02.999Z</time></trkpt><trkpt lat="41.072909569677506" lon="14.868758652606708"><ele>345.0</ele><time>2026-03-25T11:54:03.999Z</time></trkpt><trkpt lat="41.07296105574805" lon="14.868830790438796"><ele>345.0</ele><time>2026-03-25T11:54:04.999Z</time></trkpt><trkpt lat="41.073009806549045" lon="14.868899096056062"><ele>345.0</ele><time>2026-03-25T11:54:05.999Z</time></trkpt><trkpt lat="41.07304896139267" lon="14.868980005071522"><ele>345.0</ele><time>2026-03-25T11:54:06.999Z</time></trkpt><trkpt lat="41.07309561073933" lon="14.869047568489814"><ele>345.0</ele><time>2026-03-25T11:54:07.999Z</time></trkpt><trkpt lat="41.07317872768997" lon="14.869172133389037"><ele>345.0</ele><time>2026-03-25T11:54:09.999Z</time></trkpt><trkpt lat="41.073224002827494" lon="14.86923278800319"><ele>345.0</ele><time>2026-03-25T11:54:10.999Z</time></trkpt><trkpt lat="41.07330469912429" lon="14.869351356764684"><ele>345.6</ele><time>2026-03-25T11:54:12.999Z</time></trkpt><trkpt lat="41.07337493985755" lon="14.8694714291778"><ele>346.2</ele><time>2026-03-25T11:54:14.999Z</time></trkpt><trkpt lat="41.07344650312215" lon="14.86957487481749"><ele>346.79999999999995</ele><time>2026-03-25T11:54:16.999Z</time></trkpt><trkpt lat="41.07351733795928" lon="14.869672288347655"><ele>347.4</ele><time>2026-03-25T11:54:18.999Z</time></trkpt><trkpt lat="41.073576542355305" lon="14.869771299369667"><ele>348.0</ele><time>2026-03-25T11:54:21Z</time></trkpt><trkpt lat="41.073640291091806" lon="14.8698662845514"><ele>348.0</ele><time>2026-03-25T11:54:23Z</time></trkpt><trkpt lat="41.0737082115748" lon="14.869962319849769"><ele>348.0</ele><time>2026-03-25T11:54:25Z</time></trkpt><trkpt lat="41.073776520626076" lon="14.870060413352773"><ele>348.0</ele><time>2026-03-25T11:54:27Z</time></trkpt><trkpt lat="41.07384460955941" lon="14.870164633919115"><ele>348.0</ele><time>2026-03-25T11:54:29Z</time></trkpt><trkpt lat="41.07391464940051" lon="14.870270336837967"><ele>348.0</ele><time>2026-03-25T11:54:31Z</time></trkpt><trkpt lat="41.07398580517547" lon="14.870376254788557"><ele>348.2</ele><time>2026-03-25T11:54:33Z</time></trkpt><trkpt lat="41.07405455805632" lon="14.870476034845439"><ele>348.4</ele><time>2026-03-25T11:54:35Z</time></trkpt><trkpt lat="41.074122660486324" lon="14.870582433229755"><ele>348.59999999999997</ele><time>2026-03-25T11:54:37Z</time></trkpt><trkpt lat="41.07419396942773" lon="14.870680004062521"><ele>348.79999999999995</ele><time>2026-03-25T11:54:39Z</time></trkpt><trkpt lat="41.07426595920003" lon="14.87077706032721"><ele>349.0</ele><time>2026-03-25T11:54:41Z</time></trkpt><trkpt lat="41.07431755451532" lon="14.870886456044742"><ele>349.0</ele><time>2026-03-25T11:54:43Z</time></trkpt><trkpt lat="41.07438226430743" lon="14.870976099476586"><ele>349.0</ele><time>2026-03-25T11:54:45Z</time></trkpt><trkpt lat="41.07444457857252" lon="14.871062989290502"><ele>349.0</ele><time>2026-03-25T11:54:47Z</time></trkpt><trkpt lat="41.07453396010483" lon="14.871063548583642"><ele>349.0</ele><time>2026-03-25T11:54:49Z</time></trkpt><trkpt lat="41.0745573651363" lon="14.870962132436398"><ele>349.0</ele><time>2026-03-25T11:54:51Z</time></trkpt><trkpt lat="41.07453228545851" lon="14.870885480877751"><ele>349.0</ele><time>2026-03-25T11:54:53Z</time></trkpt><trkpt lat="41.074514120071974" lon="14.8707876446966"><ele>349.0</ele><time>2026-03-25T11:54:56Z</time></trkpt><trkpt lat="41.07449103269886" lon="14.870690125723433"><ele>349.0</ele><time>2026-03-25T11:54:59Z</time></trkpt><trkpt lat="41.07447485070422" lon="14.870592999523943"><ele>349.0</ele><time>2026-03-25T11:55:02Z</time></trkpt><trkpt lat="41.074460974255956" lon="14.870500903546967"><ele>349.0</ele><time>2026-03-25T11:55:05Z</time></trkpt><trkpt lat="41.07443560322791" lon="14.870418115740849"><ele>349.0</ele><time>2026-03-25T11:55:08Z</time></trkpt><trkpt lat="41.07441909700731" lon="14.870310262803564"><ele>349.0</ele><time>2026-03-25T11:55:12Z</time></trkpt><trkpt lat="41.0743976517854" lon="14.87021141941017"><ele>348.99999999999994</ele><time>2026-03-25T11:55:16Z</time></trkpt><trkpt lat="41.07437501820286" lon="14.870112101866164"><ele>349.0</ele><time>2026-03-25T11:55:20Z</time></trkpt><trkpt lat="41.07434629017243" lon="14.870029858244372"><ele>349.0</ele><time>2026-03-25T11:55:24Z</time></trkpt><trkpt lat="41.07429723114293" lon="14.86995922552751"><ele>349.0</ele><time>2026-03-25T11:55:26.999Z</time></trkpt><trkpt lat="41.07425915966402" lon="14.86986603865528"><ele>349.0</ele><time>2026-03-25T11:55:30.999Z</time></trkpt><trkpt lat="41.074251352019374" lon="14.86976709832741"><ele>348.99999999999994</ele><time>2026-03-25T11:55:34.999Z</time></trkpt><trkpt lat="41.07428047003561" lon="14.869692496253988"><ele>349.0</ele><time>2026-03-25T11:55:37.999Z</time></trkpt><trkpt lat="41.074259796033154" lon="14.869591372944424"><ele>350.1428571428571</ele><time>2026-03-25T11:55:41.999Z</time></trkpt><trkpt lat="41.07423026381311" lon="14.869506431264691"><ele>351.2857142857143</ele><time>2026-03-25T11:55:45.999Z</time></trkpt><trkpt lat="41.074194999673686" lon="14.869433692180968"><ele>352.42857142857144</ele><time>2026-03-25T11:55:48.999Z</time></trkpt><trkpt lat="41.07418233594577" lon="14.869337603894099"><ele>353.57142857142856</ele><time>2026-03-25T11:55:52.999Z</time></trkpt><trkpt lat="41.074183966950194" lon="14.86924951563759"><ele>354.7142857142857</ele><time>2026-03-25T11:55:56.999Z</time></trkpt><trkpt lat="41.074148619097336" lon="14.869172046839465"><ele>355.85714285714283</ele><time>2026-03-25T11:56:00.999Z</time></trkpt><trkpt lat="41.07410060848344" lon="14.869101276219181"><ele>357.0</ele><time>2026-03-25T11:56:04.999Z</time></trkpt><trkpt lat="41.074087305326906" lon="14.869008307347976"><ele>358.42857142857144</ele><time>2026-03-25T11:56:08.999Z</time></trkpt><trkpt lat="41.07412155449693" lon="14.868933677055"><ele>359.8571428571429</ele><time>2026-03-25T11:56:12.999Z</time></trkpt><trkpt lat="41.074159177567786" lon="14.868858717961947"><ele>361.2857142857143</ele><time>2026-03-25T11:56:15.999Z</time></trkpt><trkpt lat="41.074176304365544" lon="14.86877732556684"><ele>362.7142857142857</ele><time>2026-03-25T11:56:19.999Z</time></trkpt><trkpt lat="41.0741830015619" lon="14.868691180595087"><ele>364.14285714285717</ele><time>2026-03-25T11:56:23.999Z</time></trkpt><trkpt lat="41.07419495347498" lon="14.868600844358802"><ele>365.57142857142856</ele><time>2026-03-25T11:56:28Z</time></trkpt><trkpt lat="41.074220286143685" lon="14.868515874187214"><ele>367.0</ele><time>2026-03-25T11:56:32Z</time></trkpt><trkpt lat="41.07423707696185" lon="14.868428402350885"><ele>367.2857142857143</ele><time>2026-03-25T11:56:36Z</time></trkpt><trkpt lat="41.07426215717471" lon="14.868349320299634"><ele>367.5714285714286</ele><time>2026-03-25T11:56:40Z</time></trkpt><trkpt lat="41.07427530580075" lon="14.868266503436713"><ele>367.8571428571429</ele><time>2026-03-25T11:56:44Z</time></trkpt><trkpt lat="41.07426488122835" lon="14.868179823450907"><ele>368.1428571428571</ele><time>2026-03-25T11:56:48Z</time></trkpt><trkpt lat="41.07421987942165" lon="14.868097872884217"><ele>368.42857142857144</ele><time>2026-03-25T11:56:53Z</time></trkpt><trkpt lat="41.07418160775625" lon="14.868011375198645"><ele>368.7142857142857</ele><time>2026-03-25T11:56:58Z</time></trkpt><trkpt lat="41.07412562312181" lon="14.867939644736976"><ele>369.0</ele><time>2026-03-25T11:57:03Z</time></trkpt><trkpt lat="41.074077869574396" lon="14.867879979374843"><ele>369.0</ele><time>2026-03-25T11:57:07Z</time></trkpt><trkpt lat="41.07403941153471" lon="14.867810747794678"><ele>369.0</ele><time>2026-03-25T11:57:11Z</time></trkpt><trkpt lat="41.073981015367345" lon="14.867750785345374"><ele>369.0</ele><time>2026-03-25T11:57:15Z</time></trkpt><trkpt lat="41.073931261280364" lon="14.867688863951495"><ele>369.0</ele><time>2026-03-25T11:57:19Z</time></trkpt><trkpt lat="41.073883423296195" lon="14.86762660387186"><ele>369.0</ele><time>2026-03-25T11:57:23Z</time></trkpt><trkpt lat="41.07382174151723" lon="14.86757899526434"><ele>369.0</ele><time>2026-03-25T11:57:27Z</time></trkpt><trkpt lat="41.073770916754114" lon="14.86750995059008"><ele>369.0</ele><time>2026-03-25T11:57:31Z</time></trkpt><trkpt lat="41.07370648775715" lon="14.867436458473751"><ele>370.4</ele><time>2026-03-25T11:57:34.999Z</time></trkpt><trkpt lat="41.07362284579408" lon="14.867386594700129"><ele>371.79999999999995</ele><time>2026-03-25T11:57:36.999Z</time></trkpt><trkpt lat="41.073551743744794" lon="14.867321329506733"><ele>373.20000000000005</ele><time>2026-03-25T11:57:38.999Z</time></trkpt><trkpt lat="41.07347966085294" lon="14.867244548339572"><ele>374.6</ele><time>2026-03-25T11:57:40.999Z</time></trkpt><trkpt lat="41.07340342503935" lon="14.867172333703083"><ele>376.0</ele><time>2026-03-25T11:57:42.999Z</time></trkpt><trkpt lat="41.07332462647849" lon="14.867095981399006"><ele>375.20000000000005</ele><time>2026-03-25T11:57:44.999Z</time></trkpt><trkpt lat="41.073237994111814" lon="14.867030005869545"><ele>374.40000000000003</ele><time>2026-03-25T11:57:46.999Z</time></trkpt><trkpt lat="41.07315645800388" lon="14.866949322872374"><ele>373.6</ele><time>2026-03-25T11:57:48.999Z</time></trkpt><trkpt lat="41.07311086516123" lon="14.866890657319304"><ele>372.8</ele><time>2026-03-25T11:57:49.999Z</time></trkpt><trkpt lat="41.07303295794155" lon="14.866768897942372"><ele>372.0</ele><time>2026-03-25T11:57:51.999Z</time></trkpt><trkpt lat="41.072947646985014" lon="14.866651117783677"><ele>372.0</ele><time>2026-03-25T11:57:53.999Z</time></trkpt><trkpt lat="41.072880734052916" lon="14.866527657725431"><ele>372.0</ele><time>2026-03-25T11:57:55.999Z</time></trkpt><trkpt lat="41.07283330690596" lon="14.86646727394003"><ele>372.0</ele><time>2026-03-25T11:57:56.999Z</time></trkpt><trkpt lat="41.07276041472318" lon="14.866353114092716"><ele>372.0</ele><time>2026-03-25T11:57:58.999Z</time></trkpt><trkpt lat="41.07266672250269" lon="14.866246534425281"><ele>372.0</ele><time>2026-03-25T11:58:00.999Z</time></trkpt><trkpt lat="41.07261029340312" lon="14.866199291703985"><ele>372.0</ele><time>2026-03-25T11:58:01.999Z</time></trkpt><trkpt lat="41.07254089426509" lon="14.86614559188487"><ele>372.0</ele><time>2026-03-25T11:58:02.999Z</time></trkpt><trkpt lat="41.072470811945145" lon="14.866105167946996"><ele>372.0</ele><time>2026-03-25T11:58:03.999Z</time></trkpt><trkpt lat="41.072411309385934" lon="14.866046400308138"><ele>372.0</ele><time>2026-03-25T11:58:04.999Z</time></trkpt><trkpt lat="41.07236172963413" lon="14.865984377948635"><ele>372.0</ele><time>2026-03-25T11:58:05.999Z</time></trkpt><trkpt lat="41.07225261636495" lon="14.865924626320153"><ele>372.0</ele><time>2026-03-25T11:58:06.999Z</time></trkpt><trkpt lat="41.07217909209242" lon="14.86587226856296"><ele>371.0</ele><time>2026-03-25T11:58:07.999Z</time></trkpt><trkpt lat="41.072093093397775" lon="14.86581658715656"><ele>370.0</ele><time>2026-03-25T11:58:08.999Z</time></trkpt><trkpt lat="41.07202040374746" lon="14.865757512509996"><ele>369.0</ele><time>2026-03-25T11:58:09.999Z</time></trkpt><trkpt lat="41.071952033130174" lon="14.865701956383644"><ele>368.0</ele><time>2026-03-25T11:58:10.999Z</time></trkpt><trkpt lat="41.07188384953823" lon="14.865665194600059"><ele>367.0</ele><time>2026-03-25T11:58:11.999Z</time></trkpt><trkpt lat="41.07181835956221" lon="14.865616037865095"><ele>366.0</ele><time>2026-03-25T11:58:12.999Z</time></trkpt><trkpt lat="41.071756665800265" lon="14.865560061648683"><ele>366.0</ele><time>2026-03-25T11:58:13.999Z</time></trkpt><trkpt lat="41.07169609902326" lon="14.865499884591104"><ele>366.0</ele><time>2026-03-25T11:58:14.999Z</time></trkpt><trkpt lat="41.07164570526255" lon="14.865442018418843"><ele>366.0</ele><time>2026-03-25T11:58:15.999Z</time></trkpt><trkpt lat="41.07158206570209" lon="14.86540734852273"><ele>366.0</ele><time>2026-03-25T11:58:16.999Z</time></trkpt><trkpt lat="41.07150772662661" lon="14.865355462266853"><ele>366.0</ele><time>2026-03-25T11:58:17.999Z</time></trkpt><trkpt lat="41.07141313557135" lon="14.865293760251877"><ele>366.0</ele><time>2026-03-25T11:58:19.999Z</time></trkpt><trkpt lat="41.071303181432874" lon="14.865259318293626"><ele>365.8</ele><time>2026-03-25T11:58:21.999Z</time></trkpt><trkpt lat="41.071197843185956" lon="14.865201218958525"><ele>365.6</ele><time>2026-03-25T11:58:23.999Z</time></trkpt><trkpt lat="41.07110463998934" lon="14.865159969810929"><ele>365.4</ele><time>2026-03-25T11:58:25.999Z</time></trkpt><trkpt lat="41.07102516558116" lon="14.865109329937527"><ele>365.2</ele><time>2026-03-25T11:58:27.999Z</time></trkpt><trkpt lat="41.070940032098115" lon="14.865086448853283"><ele>365.0</ele><time>2026-03-25T11:58:29.999Z</time></trkpt><trkpt lat="41.07086099446039" lon="14.865065703024705"><ele>365.0</ele><time>2026-03-25T11:58:31.999Z</time></trkpt><trkpt lat="41.070769781263195" lon="14.86504199356607"><ele>365.0</ele><time>2026-03-25T11:58:35Z</time></trkpt><trkpt lat="41.070690394562014" lon="14.864994000017177"><ele>365.0</ele><time>2026-03-25T11:58:38Z</time></trkpt><trkpt lat="41.07062084430536" lon="14.864976868367231"><ele>365.0</ele><time>2026-03-25T11:58:40Z</time></trkpt><trkpt lat="41.0705521923404" lon="14.864944289250095"><ele>365.0</ele><time>2026-03-25T11:58:42Z</time></trkpt><trkpt lat="41.07047978387537" lon="14.864915335099894"><ele>365.0</ele><time>2026-03-25T11:58:44Z</time></trkpt><trkpt lat="41.07041359708433" lon="14.864877817133765"><ele>365.00000000000006</ele><time>2026-03-25T11:58:46Z</time></trkpt><trkpt lat="41.07033965019762" lon="14.864842327682053"><ele>365.0</ele><time>2026-03-25T11:58:48Z</time></trkpt><trkpt lat="41.070278063384706" lon="14.864816705448973"><ele>365.0</ele><time>2026-03-25T11:58:50Z</time></trkpt><trkpt lat="41.070208382266394" lon="14.864783340829822"><ele>365.0</ele><time>2026-03-25T11:58:53Z</time></trkpt><trkpt lat="41.07013969704837" lon="14.864760172017679"><ele>365.0</ele><time>2026-03-25T11:58:55Z</time></trkpt><trkpt lat="41.07006530985743" lon="14.864715231445494"><ele>365.00000000000006</ele><time>2026-03-25T11:58:57Z</time></trkpt><trkpt lat="41.07000294863526" lon="14.864673429862846"><ele>365.0</ele><time>2026-03-25T11:58:59Z</time></trkpt><trkpt lat="41.06993612628817" lon="14.864637022221187"><ele>364.8571428571429</ele><time>2026-03-25T11:59:01Z</time></trkpt><trkpt lat="41.069871553929396" lon="14.86459750778245"><ele>364.7142857142857</ele><time>2026-03-25T11:59:03Z</time></trkpt><trkpt lat="41.069811339552544" lon="14.864555604303593"><ele>364.57142857142856</ele><time>2026-03-25T11:59:05Z</time></trkpt><trkpt lat="41.069751595486316" lon="14.864501324635803"><ele>364.42857142857144</ele><time>2026-03-25T11:59:07Z</time></trkpt><trkpt lat="41.06969245524343" lon="14.864440381201698"><ele>364.2857142857143</ele><time>2026-03-25T11:59:09Z</time></trkpt><trkpt lat="41.06963924916137" lon="14.864385814610527"><ele>364.14285714285717</ele><time>2026-03-25T11:59:11Z</time></trkpt><trkpt lat="41.06959385650454" lon="14.864321877763375"><ele>364.0</ele><time>2026-03-25T11:59:13Z</time></trkpt><trkpt lat="41.06954617731192" lon="14.864243513709322"><ele>364.42857142857144</ele><time>2026-03-25T11:59:15Z</time></trkpt><trkpt lat="41.06950735362894" lon="14.864177692961276"><ele>364.8571428571429</ele><time>2026-03-25T11:59:17Z</time></trkpt><trkpt lat="41.069454474157766" lon="14.864110074505861"><ele>365.2857142857143</ele><time>2026-03-25T11:59:19Z</time></trkpt><trkpt lat="41.06941638096832" lon="14.86403446208686"><ele>365.7142857142857</ele><time>2026-03-25T11:59:21Z</time></trkpt><trkpt lat="41.06936541170102" lon="14.863960684820881"><ele>366.14285714285717</ele><time>2026-03-25T11:59:23Z</time></trkpt><trkpt lat="41.06932940334622" lon="14.863889644919295"><ele>366.57142857142856</ele><time>2026-03-25T11:59:25Z</time></trkpt><trkpt lat="41.069284268713574" lon="14.863829008375935"><ele>367.0</ele><time>2026-03-25T11:59:27Z</time></trkpt><trkpt lat="41.06923242090903" lon="14.863763696544625"><ele>367.0</ele><time>2026-03-25T11:59:29Z</time></trkpt><trkpt lat="41.0691801727998" lon="14.863699092750311"><ele>367.0</ele><time>2026-03-25T11:59:31Z</time></trkpt><trkpt lat="41.0691319992942" lon="14.863628570052303"><ele>367.0</ele><time>2026-03-25T11:59:33Z</time></trkpt><trkpt lat="41.06908844351695" lon="14.863552673529416"><ele>367.0</ele><time>2026-03-25T11:59:35Z</time></trkpt><trkpt lat="41.069049106386785" lon="14.863486453438956"><ele>367.0</ele><time>2026-03-25T11:59:37Z</time></trkpt><trkpt lat="41.069006799004114" lon="14.863416720059636"><ele>367.0</ele><time>2026-03-25T11:59:39Z</time></trkpt><trkpt lat="41.06897528893105" lon="14.863342531319391"><ele>367.0</ele><time>2026-03-25T11:59:40.999Z</time></trkpt><trkpt lat="41.06891843988875" lon="14.863285989678443"><ele>367.3333333333333</ele><time>2026-03-25T11:59:42.999Z</time></trkpt><trkpt lat="41.068853656297044" lon="14.863189663922018"><ele>367.66666666666663</ele><time>2026-03-25T11:59:45.999Z</time></trkpt><trkpt lat="41.06878351813743" lon="14.863095094001675"><ele>368.0</ele><time>2026-03-25T11:59:48.999Z</time></trkpt><trkpt lat="41.06873545470295" lon="14.863040195428301"><ele>368.3333333333333</ele><time>2026-03-25T11:59:50.999Z</time></trkpt><trkpt lat="41.068668421144224" lon="14.862972240120358"><ele>368.6666666666667</ele><time>2026-03-25T11:59:53.999Z</time></trkpt><trkpt lat="41.06859349475719" lon="14.862913041271884"><ele>369.0</ele><time>2026-03-25T11:59:56.999Z</time></trkpt><trkpt lat="41.06854265339456" lon="14.862855858601645"><ele>369.0</ele><time>2026-03-25T11:59:58.999Z</time></trkpt><trkpt lat="41.06849155909739" lon="14.862795577957996"><ele>369.0</ele><time>2026-03-25T12:00:00.999Z</time></trkpt><trkpt lat="41.06843575951054" lon="14.862743731502158"><ele>369.0</ele><time>2026-03-25T12:00:02.999Z</time></trkpt><trkpt lat="41.06837324799479" lon="14.862690402352518"><ele>369.0</ele><time>2026-03-25T12:00:04.999Z</time></trkpt><trkpt lat="41.06828469757439" lon="14.862624551605242"><ele>369.0</ele><time>2026-03-25T12:00:07.999Z</time></trkpt><trkpt lat="41.068227983363656" lon="14.862586843573402"><ele>369.0</ele><time>2026-03-25T12:00:09.999Z</time></trkpt><trkpt lat="41.06817256297989" lon="14.862532067132477"><ele>369.0</ele><time>2026-03-25T12:00:11.999Z</time></trkpt><trkpt lat="41.06811630546271" lon="14.862480132336016"><ele>369.1666666666667</ele><time>2026-03-25T12:00:13.999Z</time></trkpt><trkpt lat="41.06804003444445" lon="14.862410075894152"><ele>369.3333333333333</ele><time>2026-03-25T12:00:16.999Z</time></trkpt><trkpt lat="41.067985962981034" lon="14.862360722724183"><ele>369.5</ele><time>2026-03-25T12:00:18.999Z</time></trkpt><trkpt lat="41.067929598903774" lon="14.862320729139727"><ele>369.66666666666663</ele><time>2026-03-25T12:00:20.999Z</time></trkpt><trkpt lat="41.06787175412777" lon="14.862272481147142"><ele>369.8333333333333</ele><time>2026-03-25T12:00:22.999Z</time></trkpt><trkpt lat="41.06779614680987" lon="14.862201397065109"><ele>370.0</ele><time>2026-03-25T12:00:25.999Z</time></trkpt><trkpt lat="41.06773973353632" lon="14.86215351023116"><ele>369.99999999999994</ele><time>2026-03-25T12:00:27.999Z</time></trkpt><trkpt lat="41.06768737877601" lon="14.862106784936989"><ele>370.0</ele><time>2026-03-25T12:00:29.999Z</time></trkpt><trkpt lat="41.06763091040291" lon="14.86206691363883"><ele>370.0</ele><time>2026-03-25T12:00:31.999Z</time></trkpt><trkpt lat="41.067567632655425" lon="14.862026501905053"><ele>370.0</ele><time>2026-03-25T12:00:33.999Z</time></trkpt><trkpt lat="41.06751318456225" lon="14.861973242124398"><ele>370.0</ele><time>2026-03-25T12:00:35.999Z</time></trkpt><trkpt lat="41.067459871060436" lon="14.861926301495162"><ele>369.99999999999994</ele><time>2026-03-25T12:00:37.999Z</time></trkpt><trkpt lat="41.06740596378065" lon="14.861874549236722"><ele>370.0</ele><time>2026-03-25T12:00:40Z</time></trkpt><trkpt lat="41.067322023999125" lon="14.86181499957666"><ele>370.5</ele><time>2026-03-25T12:00:43Z</time></trkpt><trkpt lat="41.06724663341215" lon="14.861748808471017"><ele>371.0</ele><time>2026-03-25T12:00:46Z</time></trkpt><trkpt lat="41.06717368908911" lon="14.861706118171147"><ele>371.5</ele><time>2026-03-25T12:00:49Z</time></trkpt><trkpt lat="41.06710293724146" lon="14.861677909692146"><ele>372.0</ele><time>2026-03-25T12:00:51Z</time></trkpt><trkpt lat="41.06701620186777" lon="14.861648907347291"><ele>372.5</ele><time>2026-03-25T12:00:54Z</time></trkpt><trkpt lat="41.066933765412266" lon="14.86161437140257"><ele>373.0</ele><time>2026-03-25T12:00:57Z</time></trkpt><trkpt lat="41.06684592006697" lon="14.861599243770167"><ele>373.0</ele><time>2026-03-25T12:01:00Z</time></trkpt><trkpt lat="41.06675884434573" lon="14.861588234936123"><ele>373.0</ele><time>2026-03-25T12:01:03Z</time></trkpt><trkpt lat="41.06667351525019" lon="14.861569873177167"><ele>373.0</ele><time>2026-03-25T12:01:06Z</time></trkpt><trkpt lat="41.066610466485955" lon="14.86156326040897"><ele>373.0</ele><time>2026-03-25T12:01:08Z</time></trkpt><trkpt lat="41.06652972406001" lon="14.861563107308863"><ele>373.0</ele><time>2026-03-25T12:01:11Z</time></trkpt><trkpt lat="41.06645442099555" lon="14.861533170782531"><ele>373.0</ele><time>2026-03-25T12:01:13Z</time></trkpt><trkpt lat="41.06639260327229" lon="14.861515124350067"><ele>373.66666666666663</ele><time>2026-03-25T12:01:15Z</time></trkpt><trkpt lat="41.066297598952666" lon="14.861489084580247"><ele>374.3333333333333</ele><time>2026-03-25T12:01:18Z</time></trkpt><trkpt lat="41.066233374813805" lon="14.861461223096557"><ele>375.0</ele><time>2026-03-25T12:01:21Z</time></trkpt><trkpt lat="41.06615077353629" lon="14.861426263968458"><ele>375.6666666666667</ele><time>2026-03-25T12:01:24Z</time></trkpt><trkpt lat="41.066086613321595" lon="14.861400997976583"><ele>376.33333333333337</ele><time>2026-03-25T12:01:27Z</time></trkpt><trkpt lat="41.066010325174446" lon="14.861363280120406"><ele>377.0</ele><time>2026-03-25T12:01:30Z</time></trkpt><trkpt lat="41.065948273049486" lon="14.861340682817557"><ele>377.0</ele><time>2026-03-25T12:01:32Z</time></trkpt><trkpt lat="41.065855659109346" lon="14.861299631993738"><ele>377.0</ele><time>2026-03-25T12:01:34Z</time></trkpt><trkpt lat="41.06579338244723" lon="14.861277405139793"><ele>377.0</ele><time>2026-03-25T12:01:35.999Z</time></trkpt><trkpt lat="41.06573034247168" lon="14.861242418166961"><ele>377.0</ele><time>2026-03-25T12:01:37.999Z</time></trkpt><trkpt lat="41.06563998300641" lon="14.861193169801412"><ele>377.0</ele><time>2026-03-25T12:01:40.999Z</time></trkpt><trkpt lat="41.065547641605974" lon="14.861153522801274"><ele>377.0</ele><time>2026-03-25T12:01:43.999Z</time></trkpt><trkpt lat="41.065489244258686" lon="14.861121407573881"><ele>377.1428571428571</ele><time>2026-03-25T12:01:45.999Z</time></trkpt><trkpt lat="41.06543067634144" lon="14.861089052060121"><ele>377.2857142857143</ele><time>2026-03-25T12:01:47.999Z</time></trkpt><trkpt lat="41.065342935640345" lon="14.861043249264187"><ele>377.42857142857144</ele><time>2026-03-25T12:01:50.999Z</time></trkpt><trkpt lat="41.06526219727352" lon="14.861001375321765"><ele>377.57142857142856</ele><time>2026-03-25T12:01:53.999Z</time></trkpt><trkpt lat="41.06520149993552" lon="14.860970668473046"><ele>377.7142857142857</ele><time>2026-03-25T12:01:55.999Z</time></trkpt><trkpt lat="41.06513825522798" lon="14.860945109669604"><ele>377.85714285714283</ele><time>2026-03-25T12:01:57.999Z</time></trkpt><trkpt lat="41.065075025192534" lon="14.860915384217153"><ele>378.0</ele><time>2026-03-25T12:01:59.999Z</time></trkpt><trkpt lat="41.06499062256797" lon="14.860865364905232"><ele>378.3333333333333</ele><time>2026-03-25T12:02:02.999Z</time></trkpt><trkpt lat="41.06490513822381" lon="14.860819412548173"><ele>378.6666666666667</ele><time>2026-03-25T12:02:05.999Z</time></trkpt><trkpt lat="41.06484496709361" lon="14.860794776216375"><ele>379.0</ele><time>2026-03-25T12:02:07.999Z</time></trkpt><trkpt lat="41.064753876485675" lon="14.860750608345233"><ele>379.33333333333337</ele><time>2026-03-25T12:02:10.999Z</time></trkpt><trkpt lat="41.06467066659915" lon="14.860708883898043"><ele>379.6666666666667</ele><time>2026-03-25T12:02:13.999Z</time></trkpt><trkpt lat="41.06457686625544" lon="14.860659532918532"><ele>380.0</ele><time>2026-03-25T12:02:17.999Z</time></trkpt><trkpt lat="41.06450888439253" lon="14.860613381516043"><ele>380.0</ele><time>2026-03-25T12:02:20.999Z</time></trkpt><trkpt lat="41.06444705593962" lon="14.860575333795738"><ele>380.0</ele><time>2026-03-25T12:02:22.999Z</time></trkpt><trkpt lat="41.06437532525676" lon="14.860537749410003"><ele>380.0</ele><time>2026-03-25T12:02:24.999Z</time></trkpt><trkpt lat="41.0643157765537" lon="14.860493034289856"><ele>380.0</ele><time>2026-03-25T12:02:26.999Z</time></trkpt><trkpt lat="41.06426341242205" lon="14.860439453088526"><ele>380.0</ele><time>2026-03-25T12:02:28.999Z</time></trkpt><trkpt lat="41.06421242103461" lon="14.860379757284912"><ele>380.0</ele><time>2026-03-25T12:02:30.999Z</time></trkpt><trkpt lat="41.06416428950668" lon="14.86032016351489"><ele>380.0</ele><time>2026-03-25T12:02:32.999Z</time></trkpt><trkpt lat="41.064097112814835" lon="14.860277361971953"><ele>380.42857142857144</ele><time>2026-03-25T12:02:34.999Z</time></trkpt><trkpt lat="41.064039744411204" lon="14.860213766576278"><ele>380.8571428571429</ele><time>2026-03-25T12:02:36.999Z</time></trkpt><trkpt lat="41.06398500322651" lon="14.860147436140396"><ele>381.2857142857143</ele><time>2026-03-25T12:02:38.999Z</time></trkpt><trkpt lat="41.06393250334" lon="14.860083251591677"><ele>381.7142857142857</ele><time>2026-03-25T12:02:40.999Z</time></trkpt><trkpt lat="41.06387533550346" lon="14.860031726006273"><ele>382.1428571428571</ele><time>2026-03-25T12:02:42.999Z</time></trkpt><trkpt lat="41.06381732440242" lon="14.859983408882036"><ele>382.57142857142856</ele><time>2026-03-25T12:02:45Z</time></trkpt><trkpt lat="41.063756858913585" lon="14.859941744973117"><ele>383.0</ele><time>2026-03-25T12:02:47Z</time></trkpt><trkpt lat="41.063694838433015" lon="14.859900178494112"><ele>383.0</ele><time>2026-03-25T12:02:49Z</time></trkpt><trkpt lat="41.06363398181633" lon="14.859860606397708"><ele>383.0</ele><time>2026-03-25T12:02:51Z</time></trkpt><trkpt lat="41.06357554506127" lon="14.859814618095285"><ele>383.0</ele><time>2026-03-25T12:02:53Z</time></trkpt><trkpt lat="41.06350982955776" lon="14.859773831311012"><ele>383.0</ele><time>2026-03-25T12:02:55Z</time></trkpt><trkpt lat="41.06344730571794" lon="14.85972718344621"><ele>383.0</ele><time>2026-03-25T12:02:57Z</time></trkpt><trkpt lat="41.06338622326462" lon="14.85968852820193"><ele>383.0</ele><time>2026-03-25T12:02:59Z</time></trkpt><trkpt lat="41.06332865070084" lon="14.859642111144494"><ele>383.0</ele><time>2026-03-25T12:03:01Z</time></trkpt><trkpt lat="41.06326848199395" lon="14.859602871393905"><ele>383.0</ele><time>2026-03-25T12:03:03Z</time></trkpt><trkpt lat="41.06320937069047" lon="14.859559402556267"><ele>383.0</ele><time>2026-03-25T12:03:05Z</time></trkpt><trkpt lat="41.06314811396305" lon="14.859523261256935"><ele>383.0</ele><time>2026-03-25T12:03:07Z</time></trkpt><trkpt lat="41.063088504338864" lon="14.859478662805673"><ele>383.0</ele><time>2026-03-25T12:03:09Z</time></trkpt><trkpt lat="41.06302809227838" lon="14.859429125113856"><ele>383.0</ele><time>2026-03-25T12:03:11Z</time></trkpt><trkpt lat="41.06294896812404" lon="14.859352019766794"><ele>383.0</ele><time>2026-03-25T12:03:14Z</time></trkpt><trkpt lat="41.062897347847226" lon="14.859293014769337"><ele>383.0</ele><time>2026-03-25T12:03:16Z</time></trkpt><trkpt lat="41.06285520361273" lon="14.85921834633637"><ele>383.33333333333337</ele><time>2026-03-25T12:03:18Z</time></trkpt><trkpt lat="41.06282768912994" lon="14.85910599958052"><ele>383.6666666666667</ele><time>2026-03-25T12:03:21Z</time></trkpt><trkpt lat="41.06279687983063" lon="14.859032585500007"><ele>384.0</ele><time>2026-03-25T12:03:23Z</time></trkpt><trkpt lat="41.06278424044192" lon="14.858942084684648"><ele>384.33333333333337</ele><time>2026-03-25T12:03:25Z</time></trkpt><trkpt lat="41.06275469032262" lon="14.858829147921366"><ele>384.6666666666667</ele><time>2026-03-25T12:03:28Z</time></trkpt><trkpt lat="41.0627287209034" lon="14.85875106939567"><ele>385.0</ele><time>2026-03-25T12:03:30Z</time></trkpt><trkpt lat="41.0627010041668" lon="14.858641350968929"><ele>385.0</ele><time>2026-03-25T12:03:33Z</time></trkpt><trkpt lat="41.062659163528316" lon="14.858522666719237"><ele>385.0</ele><time>2026-03-25T12:03:36Z</time></trkpt><trkpt lat="41.062644435428766" lon="14.858392927664344"><ele>385.0</ele><time>2026-03-25T12:03:39Z</time></trkpt><trkpt lat="41.062645681081186" lon="14.858285585723381"><ele>385.0</ele><time>2026-03-25T12:03:42Z</time></trkpt><trkpt lat="41.06264625859353" lon="14.858187259797688"><ele>385.0</ele><time>2026-03-25T12:03:44Z</time></trkpt><trkpt lat="41.06283856710515" lon="14.858188855481584"><ele>384.83333333333337</ele><time>2026-03-25T12:03:50.999Z</time></trkpt><trkpt lat="41.06290700814582" lon="14.858165219283705"><ele>384.6666666666667</ele><time>2026-03-25T12:03:52.999Z</time></trkpt><trkpt lat="41.06298616057487" lon="14.858145159010064"><ele>384.5</ele><time>2026-03-25T12:03:54.999Z</time></trkpt><trkpt lat="41.063071582365" lon="14.858131935454308"><ele>384.33333333333337</ele><time>2026-03-25T12:03:56.999Z</time></trkpt><trkpt lat="41.06315083729823" lon="14.858106657411776"><ele>384.1666666666667</ele><time>2026-03-25T12:03:58.999Z</time></trkpt><trkpt lat="41.06323050953198" lon="14.858086726074328"><ele>384.0</ele><time>2026-03-25T12:04:00.999Z</time></trkpt><trkpt lat="41.06331946222014" lon="14.85805324303409"><ele>384.0</ele><time>2026-03-25T12:04:02.999Z</time></trkpt><trkpt lat="41.063417651570944" lon="14.858018683767249"><ele>384.0</ele><time>2026-03-25T12:04:04.999Z</time></trkpt><trkpt lat="41.06350021113827" lon="14.857979437384444"><ele>384.0</ele><time>2026-03-25T12:04:06.999Z</time></trkpt><trkpt lat="41.06357724496882" lon="14.857925551915843"><ele>384.0</ele><time>2026-03-25T12:04:08.999Z</time></trkpt><trkpt lat="41.06363306692461" lon="14.857842961331592"><ele>384.0</ele><time>2026-03-25T12:04:10.999Z</time></trkpt><trkpt lat="41.06368237966855" lon="14.857760452253883"><ele>384.0</ele><time>2026-03-25T12:04:12.999Z</time></trkpt><trkpt lat="41.06370431381569" lon="14.857661054883147"><ele>384.3333333333333</ele><time>2026-03-25T12:04:14.999Z</time></trkpt><trkpt lat="41.06372846914698" lon="14.857565055168642"><ele>384.66666666666663</ele><time>2026-03-25T12:04:16.999Z</time></trkpt><trkpt lat="41.06374187877274" lon="14.857453651355746"><ele>385.0</ele><time>2026-03-25T12:04:18.999Z</time></trkpt><trkpt lat="41.06375378860718" lon="14.857348042021954"><ele>385.3333333333333</ele><time>2026-03-25T12:04:20.999Z</time></trkpt><trkpt lat="41.063761538223226" lon="14.857251160328508"><ele>385.66666666666663</ele><time>2026-03-25T12:04:22.999Z</time></trkpt><trkpt lat="41.063774718069276" lon="14.857157085316098"><ele>386.0</ele><time>2026-03-25T12:04:24.999Z</time></trkpt><trkpt lat="41.06378400393854" lon="14.857061031158825"><ele>386.00000000000006</ele><time>2026-03-25T12:04:26.999Z</time></trkpt><trkpt lat="41.06379355211133" lon="14.856966788712285"><ele>386.0</ele><time>2026-03-25T12:04:28.999Z</time></trkpt><trkpt lat="41.063814004415164" lon="14.856871396722845"><ele>386.0</ele><time>2026-03-25T12:04:30.999Z</time></trkpt><trkpt lat="41.06382774074351" lon="14.856772056825235"><ele>386.0</ele><time>2026-03-25T12:04:32.999Z</time></trkpt><trkpt lat="41.063833040078755" lon="14.856680920237274"><ele>386.0</ele><time>2026-03-25T12:04:34.999Z</time></trkpt><trkpt lat="41.06384616416362" lon="14.85659268382076"><ele>386.00000000000006</ele><time>2026-03-25T12:04:36.999Z</time></trkpt><trkpt lat="41.06386181576888" lon="14.856499263594863"><ele>386.0</ele><time>2026-03-25T12:04:38.999Z</time></trkpt><trkpt lat="41.063870702522415" lon="14.856412077538529"><ele>386.14285714285717</ele><time>2026-03-25T12:04:40.999Z</time></trkpt><trkpt lat="41.06387493292154" lon="14.856320607430172"><ele>386.2857142857143</ele><time>2026-03-25T12:04:42.999Z</time></trkpt><trkpt lat="41.063892538730094" lon="14.856233674674597"><ele>386.42857142857144</ele><time>2026-03-25T12:04:44.999Z</time></trkpt><trkpt lat="41.06391195995376" lon="14.856151873359554"><ele>386.57142857142856</ele><time>2026-03-25T12:04:46.999Z</time></trkpt><trkpt lat="41.063929126124464" lon="14.856065336917565"><ele>386.7142857142857</ele><time>2026-03-25T12:04:48.999Z</time></trkpt><trkpt lat="41.063951415858945" lon="14.855980865003005"><ele>386.8571428571429</ele><time>2026-03-25T12:04:51Z</time></trkpt><trkpt lat="41.063969149386935" lon="14.855892917334327"><ele>387.0</ele><time>2026-03-25T12:04:53Z</time></trkpt><trkpt lat="41.0639892990332" lon="14.855807605577604"><ele>387.0</ele><time>2026-03-25T12:04:55Z</time></trkpt><trkpt lat="41.064005458173675" lon="14.85572432512175"><ele>387.0</ele><time>2026-03-25T12:04:57Z</time></trkpt><trkpt lat="41.064035213885965" lon="14.855607397276415"><ele>387.0</ele><time>2026-03-25T12:05:00Z</time></trkpt><trkpt lat="41.06407368946466" lon="14.85551536687578"><ele>387.0</ele><time>2026-03-25T12:05:03Z</time></trkpt><trkpt lat="41.064087756768664" lon="14.855407893225795"><ele>387.0</ele><time>2026-03-25T12:05:05Z</time></trkpt><trkpt lat="41.064109929858844" lon="14.855326741152759"><ele>387.0</ele><time>2026-03-25T12:05:08Z</time></trkpt><trkpt lat="41.06414149897804" lon="14.855243910636766"><ele>387.0</ele><time>2026-03-25T12:05:11Z</time></trkpt><trkpt lat="41.064201114627274" lon="14.855192720524894"><ele>387.0</ele><time>2026-03-25T12:05:13Z</time></trkpt><trkpt lat="41.064289932905446" lon="14.855192035530358"><ele>387.0</ele><time>2026-03-25T12:05:16Z</time></trkpt><trkpt lat="41.06435896155371" lon="14.855202126486095"><ele>387.0</ele><time>2026-03-25T12:05:18Z</time></trkpt><trkpt lat="41.06444014114604" lon="14.85522655814932"><ele>387.0</ele><time>2026-03-25T12:05:20Z</time></trkpt><trkpt lat="41.06453486467327" lon="14.855243550615201"><ele>387.0</ele><time>2026-03-25T12:05:22Z</time></trkpt><trkpt lat="41.06461451854885" lon="14.855240356897985"><ele>387.0</ele><time>2026-03-25T12:05:24Z</time></trkpt><trkpt lat="41.06470346869216" lon="14.85527017006938"><ele>387.0</ele><time>2026-03-25T12:05:26Z</time></trkpt><trkpt lat="41.06479424087118" lon="14.855283566257274"><ele>387.0</ele><time>2026-03-25T12:05:28Z</time></trkpt><trkpt lat="41.06489021476851" lon="14.855305974259824"><ele>387.0</ele><time>2026-03-25T12:05:30Z</time></trkpt><trkpt lat="41.06499244338779" lon="14.855319560544453"><ele>387.0</ele><time>2026-03-25T12:05:32Z</time></trkpt><trkpt lat="41.06508773258001" lon="14.855345430900313"><ele>386.8</ele><time>2026-03-25T12:05:34Z</time></trkpt><trkpt lat="41.065202222842466" lon="14.855359254753289"><ele>386.6</ele><time>2026-03-25T12:05:36Z</time></trkpt><trkpt lat="41.065318648127416" lon="14.855363485888905"><ele>386.40000000000003</ele><time>2026-03-25T12:05:38Z</time></trkpt><trkpt lat="41.06537604288058" lon="14.855397837447452"><ele>386.20000000000005</ele><time>2026-03-25T12:05:39Z</time></trkpt><trkpt lat="41.065488662169166" lon="14.855424191710508"><ele>386.0</ele><time>2026-03-25T12:05:41Z</time></trkpt><trkpt lat="41.065551333939275" lon="14.855433447449764"><ele>386.0</ele><time>2026-03-25T12:05:42Z</time></trkpt><trkpt lat="41.06566035603321" lon="14.855456677647267"><ele>386.0</ele><time>2026-03-25T12:05:44Z</time></trkpt><trkpt lat="41.065774795521875" lon="14.855479079743342"><ele>386.0</ele><time>2026-03-25T12:05:46Z</time></trkpt><trkpt lat="41.06584004611998" lon="14.855495243823437"><ele>386.0</ele><time>2026-03-25T12:05:47Z</time></trkpt><trkpt lat="41.06590213479181" lon="14.855510625969886"><ele>386.0</ele><time>2026-03-25T12:05:48Z</time></trkpt><trkpt lat="41.066020059232734" lon="14.855531073504848"><ele>385.8</ele><time>2026-03-25T12:05:50Z</time></trkpt><trkpt lat="41.06613971049414" lon="14.855528915680814"><ele>385.6</ele><time>2026-03-25T12:05:52Z</time></trkpt><trkpt lat="41.066207687759444" lon="14.855535610315272"><ele>385.4</ele><time>2026-03-25T12:05:53Z</time></trkpt><trkpt lat="41.06627450224285" lon="14.855527692070456"><ele>385.2</ele><time>2026-03-25T12:05:54Z</time></trkpt><trkpt lat="41.066387390428055" lon="14.855529806202192"><ele>385.0</ele><time>2026-03-25T12:05:55.999Z</time></trkpt><trkpt lat="41.066483246077965" lon="14.85550638986812"><ele>385.0</ele><time>2026-03-25T12:05:57.999Z</time></trkpt><trkpt lat="41.06657330410633" lon="14.8554597489015"><ele>385.0</ele><time>2026-03-25T12:05:59.999Z</time></trkpt><trkpt lat="41.06666938248855" lon="14.855423637320964"><ele>385.0</ele><time>2026-03-25T12:06:01.999Z</time></trkpt><trkpt lat="41.0667334297588" lon="14.855412774610047"><ele>385.0</ele><time>2026-03-25T12:06:02.999Z</time></trkpt><trkpt lat="41.06683411998043" lon="14.855370995707322"><ele>385.0</ele><time>2026-03-25T12:06:04.999Z</time></trkpt><trkpt lat="41.06694698572822" lon="14.855349381594314"><ele>384.8</ele><time>2026-03-25T12:06:06.999Z</time></trkpt><trkpt lat="41.06704739767402" lon="14.855354832231532"><ele>384.6</ele><time>2026-03-25T12:06:08.999Z</time></trkpt><trkpt lat="41.06716249946136" lon="14.855314579006539"><ele>384.4</ele><time>2026-03-25T12:06:10.999Z</time></trkpt><trkpt lat="41.06725865250061" lon="14.855283590274052"><ele>384.2</ele><time>2026-03-25T12:06:12.999Z</time></trkpt><trkpt lat="41.067364897541964" lon="14.855337289034164"><ele>384.0</ele><time>2026-03-25T12:06:14.999Z</time></trkpt><trkpt lat="41.067468865084344" lon="14.855369809282887"><ele>383.4</ele><time>2026-03-25T12:06:16.999Z</time></trkpt><trkpt lat="41.06757744543579" lon="14.85533662300875"><ele>382.79999999999995</ele><time>2026-03-25T12:06:18.999Z</time></trkpt><trkpt lat="41.067662246475" lon="14.855247450039736"><ele>382.20000000000005</ele><time>2026-03-25T12:06:20.999Z</time></trkpt><trkpt lat="41.06771357023127" lon="14.855125998545644"><ele>381.6</ele><time>2026-03-25T12:06:22.999Z</time></trkpt><trkpt lat="41.06771109280025" lon="14.854992020966858"><ele>381.0</ele><time>2026-03-25T12:06:24.999Z</time></trkpt><trkpt lat="41.067666433992144" lon="14.854873611613709"><ele>381.0</ele><time>2026-03-25T12:06:26.999Z</time></trkpt><trkpt lat="41.06760684041311" lon="14.854827059656861"><ele>381.0</ele><time>2026-03-25T12:06:27.999Z</time></trkpt><trkpt lat="41.06751654368372" lon="14.85477061739414"><ele>381.0</ele><time>2026-03-25T12:06:29.999Z</time></trkpt><trkpt lat="41.06747122899848" lon="14.854669032485884"><ele>381.0</ele><time>2026-03-25T12:06:31.999Z</time></trkpt><trkpt lat="41.06745629430814" lon="14.85455992117406"><ele>381.0</ele><time>2026-03-25T12:06:33.999Z</time></trkpt><trkpt lat="41.067436713962856" lon="14.854462715563994"><ele>381.0</ele><time>2026-03-25T12:06:35.999Z</time></trkpt><trkpt lat="41.06740369408453" lon="14.85435091813381"><ele>382.0</ele><time>2026-03-25T12:06:37.999Z</time></trkpt><trkpt lat="41.06737465593805" lon="14.854244215054422"><ele>383.0</ele><time>2026-03-25T12:06:39.999Z</time></trkpt><trkpt lat="41.067328959824465" lon="14.85412783625103"><ele>384.0</ele><time>2026-03-25T12:06:41.999Z</time></trkpt><trkpt lat="41.06729443258436" lon="14.854019060145117"><ele>385.0</ele><time>2026-03-25T12:06:43.999Z</time></trkpt><trkpt lat="41.067265663070096" lon="14.853907050257254"><ele>386.0</ele><time>2026-03-25T12:06:45.999Z</time></trkpt><trkpt lat="41.06723590643588" lon="14.853807745817845"><ele>387.0</ele><time>2026-03-25T12:06:47.999Z</time></trkpt><trkpt lat="41.06720614438049" lon="14.853724666135166"><ele>387.0</ele><time>2026-03-25T12:06:49.999Z</time></trkpt><trkpt lat="41.067157361899405" lon="14.853606720076755"><ele>387.0</ele><time>2026-03-25T12:06:51.999Z</time></trkpt><trkpt lat="41.06712100165846" lon="14.853524136734986"><ele>387.0</ele><time>2026-03-25T12:06:53.999Z</time></trkpt><trkpt lat="41.06707121486651" lon="14.853444853042062"><ele>387.0</ele><time>2026-03-25T12:06:57Z</time></trkpt><trkpt lat="41.06698503472586" lon="14.85339098091603"><ele>387.0</ele><time>2026-03-25T12:07:01Z</time></trkpt><trkpt lat="41.06692148802705" lon="14.853428044156951"><ele>387.0</ele><time>2026-03-25T12:07:04Z</time></trkpt><trkpt lat="41.066861469808146" lon="14.853398607245971"><ele>387.20000000000005</ele><time>2026-03-25T12:07:40Z</time></trkpt><trkpt lat="41.066834263477354" lon="14.853154421458553"><ele>387.4</ele><time>2026-03-25T12:07:45Z</time></trkpt><trkpt lat="41.06675406786205" lon="14.85321244360835"><ele>387.6</ele><time>2026-03-25T12:08:17.999Z</time></trkpt><trkpt lat="41.066789145479866" lon="14.853289496699833"><ele>387.79999999999995</ele><time>2026-03-25T12:08:21.999Z</time></trkpt><trkpt lat="41.06677014503233" lon="14.853380994385414"><ele>388.0</ele><time>2026-03-25T12:08:32.999Z</time></trkpt><trkpt lat="41.06662941734644" lon="14.853440856881692"><ele>388.0</ele><time>2026-03-25T12:08:35.999Z</time></trkpt></trkseg></trk></gpx>